PWSweather.com
Personal Weather Stations
Station Observations
BOOMEPH
Weather On The Hill Or Not, Ephrata, PA 17522

Weather On The Hill Or NotEphrata, PA 17522

Lat: 40.17243, Lon: -76.180815

Elevation: 597

Station Type: Ambient WS 1080

High Low Average
Temperature 36.0°F2.2°C 32.9°F0.5°C 34.3°F1.3°C
Dew Point 26.7°F-2.9°C 14.6°F-9.7°C 22.9°F-5.1°C
Winds 18.3 mph 29.5 kmh 1.6 mph 2.6 kmh 6.0 mph SW9.7 kmh SW
Wind Gusts 30.4 mph48.9 kmh 6.0 mph9.7 kmh 14.0 mph22.5 kmh
Humidity 76% 46% 63%
Pressure 29.98 in1015.2 mb 29.86 in1011.2 mb -
Precipitation 0.07 in1.8 mm - -
Hour Temp Dew Point Humidity Winds Wind Gusts Pressure Precip Precip Rate Daily Precip Total
12:00 AM 35.8°F2.1°C 22.5°F-5.3°C 58% 10.7 mph N17.2 kmh N 16.8 mph27.0 kmh 29.87 in1011.5 mb 0.00 in0.0 mm 0.00 in/hr0.0 mm/hr 0.07 in1.8 mm
12:01 AM 35.8°F2.1°C 22.5°F-5.3°C 58% 7.6 mph NNW12.2 kmh NNW 16.8 mph27.0 kmh 29.87 in1011.5 mb 0.00 in0.0 mm 0.00 in/hr0.0 mm/hr 0.00 in0.0 mm
12:02 AM 35.8°F2.1°C 22.5°F-5.3°C 58% 7.6 mph NNW12.2 kmh NNW 16.8 mph27.0 kmh 29.86 in1011.2 mb 0.00 in0.0 mm 0.00 in/hr0.0 mm/hr 0.00 in0.0 mm
12:03 AM 35.8°F2.1°C 22.5°F-5.3°C 58% 8.3 mph NNW13.4 kmh NNW 15.9 mph25.6 kmh 29.87 in1011.5 mb 0.00 in0.0 mm 0.00 in/hr0.0 mm/hr 0.00 in0.0 mm
12:04 AM 35.8°F2.1°C 22.1°F-5.5°C 57% 9.8 mph NW15.8 kmh NW 15.2 mph24.5 kmh 29.86 in1011.2 mb 0.00 in0.0 mm 0.00 in/hr0.0 mm/hr 0.00 in0.0 mm
12:05 AM 35.8°F2.1°C 22.1°F-5.5°C 57% 8.3 mph NW13.4 kmh NW 15.2 mph24.5 kmh 29.86 in1011.2 mb 0.00 in0.0 mm 0.00 in/hr0.0 mm/hr 0.00 in0.0 mm
12:06 AM 35.8°F2.1°C 22.1°F-5.5°C 57% 6.9 mph NW11.1 kmh NW 15.2 mph24.5 kmh 29.87 in1011.5 mb 0.00 in0.0 mm 0.00 in/hr0.0 mm/hr 0.00 in0.0 mm
12:07 AM 35.8°F2.1°C 22.1°F-5.5°C 57% 6.9 mph NNW11.1 kmh NNW 15.2 mph24.5 kmh 29.87 in1011.5 mb 0.00 in0.0 mm 0.00 in/hr0.0 mm/hr 0.00 in0.0 mm
12:08 AM 35.8°F2.1°C 22.1°F-5.5°C 57% 6.9 mph NNW11.1 kmh NNW 15.9 mph25.6 kmh 29.87 in1011.5 mb 0.00 in0.0 mm 0.00 in/hr0.0 mm/hr 0.00 in0.0 mm
12:09 AM 35.8°F2.1°C 22.1°F-5.5°C 57% 10.7 mph NW17.2 kmh NW 16.8 mph27.0 kmh 29.87 in1011.5 mb 0.00 in0.0 mm 0.00 in/hr0.0 mm/hr 0.00 in0.0 mm
12:10 AM 35.8°F2.1°C 22.1°F-5.5°C 57% 7.6 mph NW12.2 kmh NW 16.8 mph27.0 kmh 29.87 in1011.5 mb 0.00 in0.0 mm 0.00 in/hr0.0 mm/hr 0.00 in0.0 mm
12:11 AM 35.8°F2.1°C 22.5°F-5.3°C 58% 7.6 mph NW12.2 kmh NW 16.8 mph27.0 kmh 29.87 in1011.5 mb 0.00 in0.0 mm 0.00 in/hr0.0 mm/hr 0.00 in0.0 mm
12:12 AM 35.8°F2.1°C 22.1°F-5.5°C 57% 6.9 mph NNW11.1 kmh NNW 16.8 mph27.0 kmh 29.87 in1011.5 mb 0.00 in0.0 mm 0.00 in/hr0.0 mm/hr 0.00 in0.0 mm
12:13 AM 35.8°F2.1°C 22.1°F-5.5°C 57% 8.3 mph NNW13.4 kmh NNW 16.8 mph27.0 kmh 29.87 in1011.5 mb 0.00 in0.0 mm 0.00 in/hr0.0 mm/hr 0.00 in0.0 mm
12:14 AM 36.0°F2.2°C 22.2°F-5.4°C 57% 6.0 mph NNW9.7 kmh NNW 16.8 mph27.0 kmh 29.87 in1011.5 mb 0.00 in0.0 mm 0.00 in/hr0.0 mm/hr 0.00 in0.0 mm
12:15 AM 35.8°F2.1°C 22.1°F-5.5°C 57% 6.9 mph NNW11.1 kmh NNW 16.8 mph27.0 kmh 29.87 in1011.5 mb 0.00 in0.0 mm 0.00 in/hr0.0 mm/hr 0.00 in0.0 mm
12:16 AM 36.0°F2.2°C 22.2°F-5.4°C 57% 7.6 mph NNW12.2 kmh NNW 16.8 mph27.0 kmh 29.87 in1011.5 mb 0.00 in0.0 mm 0.00 in/hr0.0 mm/hr 0.00 in0.0 mm
12:17 AM 36.0°F2.2°C 22.6°F-5.2°C 58% 7.6 mph NNW12.2 kmh NNW 16.8 mph27.0 kmh 29.87 in1011.5 mb 0.00 in0.0 mm 0.00 in/hr0.0 mm/hr 0.00 in0.0 mm
12:18 AM 36.0°F2.2°C 22.6°F-5.2°C 58% 6.0 mph NNW9.7 kmh NNW 16.8 mph27.0 kmh 29.87 in1011.5 mb 0.00 in0.0 mm 0.00 in/hr0.0 mm/hr 0.00 in0.0 mm
12:19 AM 36.0°F2.2°C 22.6°F-5.2°C 58% 6.0 mph NNW9.7 kmh NNW 16.8 mph27.0 kmh 29.87 in1011.5 mb 0.00 in0.0 mm 0.00 in/hr0.0 mm/hr 0.00 in0.0 mm
12:20 AM 35.8°F2.1°C 22.5°F-5.3°C 58% 7.6 mph NNW12.2 kmh NNW 15.9 mph25.6 kmh 29.87 in1011.5 mb 0.00 in0.0 mm 0.00 in/hr0.0 mm/hr 0.00 in0.0 mm
12:21 AM 36.0°F2.2°C 22.6°F-5.2°C 58% 5.4 mph NNW8.7 kmh NNW 15.9 mph25.6 kmh 29.87 in1011.5 mb 0.00 in0.0 mm 0.00 in/hr0.0 mm/hr 0.00 in0.0 mm
12:22 AM 36.0°F2.2°C 22.6°F-5.2°C 58% 3.8 mph NNW6.1 kmh NNW 13.6 mph21.9 kmh 29.87 in1011.5 mb 0.00 in0.0 mm 0.00 in/hr0.0 mm/hr 0.00 in0.0 mm
12:23 AM 35.8°F2.1°C 22.5°F-5.3°C 58% 6.0 mph NNW9.7 kmh NNW 13.6 mph21.9 kmh 29.87 in1011.5 mb 0.00 in0.0 mm 0.00 in/hr0.0 mm/hr 0.00 in0.0 mm
12:24 AM 36.0°F2.2°C 22.6°F-5.2°C 58% 6.9 mph NNW11.1 kmh NNW 13.6 mph21.9 kmh 29.87 in1011.5 mb 0.00 in0.0 mm 0.00 in/hr0.0 mm/hr 0.00 in0.0 mm
12:25 AM 36.0°F2.2°C 22.6°F-5.2°C 58% 9.2 mph N14.8 kmh N 13.0 mph20.9 kmh 29.87 in1011.5 mb 0.00 in0.0 mm 0.00 in/hr0.0 mm/hr 0.00 in0.0 mm
12:26 AM 36.0°F2.2°C 22.6°F-5.2°C 58% 6.9 mph N11.1 kmh N 13.0 mph20.9 kmh 29.87 in1011.5 mb 0.00 in0.0 mm 0.00 in/hr0.0 mm/hr 0.00 in0.0 mm
12:27 AM 36.0°F2.2°C 22.6°F-5.2°C 58% 7.6 mph N12.2 kmh N 14.5 mph23.3 kmh 29.87 in1011.5 mb 0.00 in0.0 mm 0.00 in/hr0.0 mm/hr 0.00 in0.0 mm
12:28 AM 36.0°F2.2°C 22.6°F-5.2°C 58% 7.6 mph N12.2 kmh N 14.5 mph23.3 kmh 29.87 in1011.5 mb 0.00 in0.0 mm 0.00 in/hr0.0 mm/hr 0.00 in0.0 mm
12:29 AM 36.0°F2.2°C 22.6°F-5.2°C 58% 6.0 mph N9.7 kmh N 14.5 mph23.3 kmh 29.87 in1011.5 mb 0.00 in0.0 mm 0.00 in/hr0.0 mm/hr 0.00 in0.0 mm
12:30 AM 36.0°F2.2°C 22.6°F-5.2°C 58% 6.0 mph N9.7 kmh N 14.5 mph23.3 kmh 29.87 in1011.5 mb 0.00 in0.0 mm 0.00 in/hr0.0 mm/hr 0.00 in0.0 mm
12:31 AM 36.0°F2.2°C 22.6°F-5.2°C 58% 6.9 mph N11.1 kmh N 14.5 mph23.3 kmh 29.87 in1011.5 mb 0.00 in0.0 mm 0.00 in/hr0.0 mm/hr 0.00 in0.0 mm
12:32 AM 36.0°F2.2°C 22.6°F-5.2°C 58% 8.3 mph N13.4 kmh N 14.5 mph23.3 kmh 29.87 in1011.5 mb 0.00 in0.0 mm 0.00 in/hr0.0 mm/hr 0.00 in0.0 mm
12:33 AM 36.0°F2.2°C 22.6°F-5.2°C 58% 8.3 mph N13.4 kmh N 14.5 mph23.3 kmh 29.87 in1011.5 mb 0.00 in0.0 mm 0.00 in/hr0.0 mm/hr 0.00 in0.0 mm
12:34 AM 36.0°F2.2°C 22.6°F-5.2°C 58% 7.6 mph N12.2 kmh N 14.5 mph23.3 kmh 29.87 in1011.5 mb 0.00 in0.0 mm 0.00 in/hr0.0 mm/hr 0.00 in0.0 mm
12:35 AM 36.0°F2.2°C 23.4°F-4.8°C 60% 8.3 mph N13.4 kmh N 14.5 mph23.3 kmh 29.87 in1011.5 mb 0.00 in0.0 mm 0.00 in/hr0.0 mm/hr 0.00 in0.0 mm
12:36 AM 36.0°F2.2°C 23.4°F-4.8°C 60% 9.8 mph N15.8 kmh N 16.8 mph27.0 kmh 29.87 in1011.5 mb 0.00 in0.0 mm 0.00 in/hr0.0 mm/hr 0.00 in0.0 mm
12:37 AM 36.0°F2.2°C 22.6°F-5.2°C 58% 8.3 mph NNW13.4 kmh NNW 16.8 mph27.0 kmh 29.87 in1011.5 mb 0.00 in0.0 mm 0.00 in/hr0.0 mm/hr 0.00 in0.0 mm
12:38 AM 36.0°F2.2°C 22.6°F-5.2°C 58% 9.8 mph N15.8 kmh N 16.8 mph27.0 kmh 29.87 in1011.5 mb 0.00 in0.0 mm 0.00 in/hr0.0 mm/hr 0.00 in0.0 mm
12:39 AM 36.0°F2.2°C 22.6°F-5.2°C 58% 10.7 mph N17.2 kmh N 16.8 mph27.0 kmh 29.87 in1011.5 mb 0.00 in0.0 mm 0.00 in/hr0.0 mm/hr 0.00 in0.0 mm
12:40 AM 36.0°F2.2°C 22.6°F-5.2°C 58% 9.8 mph NNW15.8 kmh NNW 16.8 mph27.0 kmh 29.87 in1011.5 mb 0.00 in0.0 mm 0.00 in/hr0.0 mm/hr 0.00 in0.0 mm
12:41 AM 36.0°F2.2°C 22.6°F-5.2°C 58% 11.4 mph NNW18.3 kmh NNW 16.8 mph27.0 kmh 29.87 in1011.5 mb 0.00 in0.0 mm 0.00 in/hr0.0 mm/hr 0.00 in0.0 mm
12:42 AM 36.0°F2.2°C 22.6°F-5.2°C 58% 11.4 mph NNW18.3 kmh NNW 18.3 mph29.5 kmh 29.88 in1011.9 mb 0.00 in0.0 mm 0.00 in/hr0.0 mm/hr 0.00 in0.0 mm
12:43 AM 36.0°F2.2°C 22.6°F-5.2°C 58% 9.2 mph N14.8 kmh N 18.3 mph29.5 kmh 29.88 in1011.9 mb 0.00 in0.0 mm 0.00 in/hr0.0 mm/hr 0.00 in0.0 mm
12:44 AM 36.0°F2.2°C 22.6°F-5.2°C 58% 10.7 mph NNW17.2 kmh NNW 18.3 mph29.5 kmh 29.87 in1011.5 mb 0.00 in0.0 mm 0.00 in/hr0.0 mm/hr 0.00 in0.0 mm
12:45 AM 36.0°F2.2°C 22.6°F-5.2°C 58% 10.7 mph NNW17.2 kmh NNW 19.0 mph30.6 kmh 29.88 in1011.9 mb 0.00 in0.0 mm 0.00 in/hr0.0 mm/hr 0.00 in0.0 mm
12:46 AM 35.8°F2.1°C 22.5°F-5.3°C 58% 10.7 mph NNW17.2 kmh NNW 19.0 mph30.6 kmh 29.87 in1011.5 mb 0.00 in0.0 mm 0.00 in/hr0.0 mm/hr 0.00 in0.0 mm
12:47 AM 35.8°F2.1°C 22.5°F-5.3°C 58% 11.4 mph N18.3 kmh N 19.0 mph30.6 kmh 29.87 in1011.5 mb 0.00 in0.0 mm 0.00 in/hr0.0 mm/hr 0.00 in0.0 mm
12:48 AM 35.8°F2.1°C 23.3°F-4.8°C 60% 11.4 mph NNW18.3 kmh NNW 19.0 mph30.6 kmh 29.87 in1011.5 mb 0.00 in0.0 mm 0.00 in/hr0.0 mm/hr 0.00 in0.0 mm
12:49 AM 35.8°F2.1°C 23.3°F-4.8°C 60% 13.6 mph NNW21.9 kmh NNW 21.3 mph34.3 kmh 29.87 in1011.5 mb 0.00 in0.0 mm 0.00 in/hr0.0 mm/hr 0.00 in0.0 mm
12:50 AM 35.8°F2.1°C 22.5°F-5.3°C 58% 14.5 mph NNW23.3 kmh NNW 21.3 mph34.3 kmh 29.88 in1011.9 mb 0.00 in0.0 mm 0.00 in/hr0.0 mm/hr 0.00 in0.0 mm
12:51 AM 35.8°F2.1°C 22.5°F-5.3°C 58% 10.7 mph NNW17.2 kmh NNW 21.3 mph34.3 kmh 29.87 in1011.5 mb 0.00 in0.0 mm 0.00 in/hr0.0 mm/hr 0.00 in0.0 mm
12:52 AM 35.8°F2.1°C 22.5°F-5.3°C 58% 13.0 mph NNW20.9 kmh NNW 21.3 mph34.3 kmh 29.88 in1011.9 mb 0.00 in0.0 mm 0.00 in/hr0.0 mm/hr 0.00 in0.0 mm
12:53 AM 35.8°F2.1°C 22.5°F-5.3°C 58% 9.8 mph NNW15.8 kmh NNW 21.3 mph34.3 kmh 29.88 in1011.9 mb 0.00 in0.0 mm 0.00 in/hr0.0 mm/hr 0.00 in0.0 mm
12:54 AM 35.8°F2.1°C 22.5°F-5.3°C 58% 8.3 mph NNW13.4 kmh NNW 21.3 mph34.3 kmh 29.88 in1011.9 mb 0.00 in0.0 mm 0.00 in/hr0.0 mm/hr 0.00 in0.0 mm
12:55 AM 35.8°F2.1°C 22.5°F-5.3°C 58% 11.4 mph NNW18.3 kmh NNW 21.3 mph34.3 kmh 29.88 in1011.9 mb 0.00 in0.0 mm 0.00 in/hr0.0 mm/hr 0.00 in0.0 mm
12:56 AM 35.8°F2.1°C 22.5°F-5.3°C 58% 6.9 mph NNW11.1 kmh NNW 21.3 mph34.3 kmh 29.88 in1011.9 mb 0.00 in0.0 mm 0.00 in/hr0.0 mm/hr 0.00 in0.0 mm
12:57 AM 35.6°F2.0°C 22.3°F-5.4°C 58% 6.0 mph NNW9.7 kmh NNW 21.3 mph34.3 kmh 29.88 in1011.9 mb 0.00 in0.0 mm 0.00 in/hr0.0 mm/hr 0.00 in0.0 mm
12:58 AM 35.6°F2.0°C 22.3°F-5.4°C 58% 7.6 mph NNW12.2 kmh NNW 21.3 mph34.3 kmh 29.88 in1011.9 mb 0.00 in0.0 mm 0.00 in/hr0.0 mm/hr 0.00 in0.0 mm
12:59 AM 35.6°F2.0°C 22.3°F-5.4°C 58% 9.2 mph NNW14.8 kmh NNW 21.3 mph34.3 kmh 29.88 in1011.9 mb 0.00 in0.0 mm 0.00 in/hr0.0 mm/hr 0.00 in0.0 mm
01:00 AM 35.6°F2.0°C 22.3°F-5.4°C 58% 8.3 mph N13.4 kmh N 18.3 mph29.5 kmh 29.88 in1011.9 mb 0.00 in0.0 mm 0.00 in/hr0.0 mm/hr 0.00 in0.0 mm
01:01 AM 35.6°F2.0°C 22.3°F-5.4°C 58% 8.3 mph N13.4 kmh N 17.4 mph28.0 kmh 29.88 in1011.9 mb 0.00 in0.0 mm 0.00 in/hr0.0 mm/hr 0.00 in0.0 mm
01:02 AM 35.6°F2.0°C 22.3°F-5.4°C 58% 8.3 mph N13.4 kmh N 17.4 mph28.0 kmh 29.88 in1011.9 mb 0.00 in0.0 mm 0.00 in/hr0.0 mm/hr 0.00 in0.0 mm
01:03 AM 35.6°F2.0°C 22.3°F-5.4°C 58% 8.3 mph N13.4 kmh N 17.4 mph28.0 kmh 29.88 in1011.9 mb 0.00 in0.0 mm 0.00 in/hr0.0 mm/hr 0.00 in0.0 mm
01:04 AM 35.6°F2.0°C 22.3°F-5.4°C 58% 8.3 mph NNE13.4 kmh NNE 17.4 mph28.0 kmh 29.88 in1011.9 mb 0.00 in0.0 mm 0.00 in/hr0.0 mm/hr 0.00 in0.0 mm
01:05 AM 35.6°F2.0°C 22.3°F-5.4°C 58% 8.3 mph NNE13.4 kmh NNE 16.8 mph27.0 kmh 29.88 in1011.9 mb 0.00 in0.0 mm 0.00 in/hr0.0 mm/hr 0.00 in0.0 mm
01:06 AM 35.6°F2.0°C 22.3°F-5.4°C 58% 8.3 mph NNE13.4 kmh NNE 16.8 mph27.0 kmh 29.88 in1011.9 mb 0.00 in0.0 mm 0.00 in/hr0.0 mm/hr 0.00 in0.0 mm
01:07 AM 35.6°F2.0°C 22.3°F-5.4°C 58% 8.3 mph NNE13.4 kmh NNE 15.2 mph24.5 kmh 29.88 in1011.9 mb 0.00 in0.0 mm 0.00 in/hr0.0 mm/hr 0.00 in0.0 mm
01:08 AM 35.4°F1.9°C 21.3°F-5.9°C 56% 11.4 mph NNE18.3 kmh NNE 16.8 mph27.0 kmh 29.88 in1011.9 mb 0.00 in0.0 mm 0.00 in/hr0.0 mm/hr 0.00 in0.0 mm
01:09 AM 35.4°F1.9°C 21.3°F-5.9°C 56% 11.4 mph N18.3 kmh N 19.0 mph30.6 kmh 29.88 in1011.9 mb 0.00 in0.0 mm 0.00 in/hr0.0 mm/hr 0.00 in0.0 mm
01:10 AM 35.4°F1.9°C 21.3°F-5.9°C 56% 7.6 mph N12.2 kmh N 19.0 mph30.6 kmh 29.88 in1011.9 mb 0.00 in0.0 mm 0.00 in/hr0.0 mm/hr 0.00 in0.0 mm
01:11 AM 35.4°F1.9°C 21.3°F-5.9°C 56% 9.8 mph N15.8 kmh N 19.0 mph30.6 kmh 29.88 in1011.9 mb 0.00 in0.0 mm 0.00 in/hr0.0 mm/hr 0.00 in0.0 mm
01:12 AM 35.4°F1.9°C 20.9°F-6.2°C 55% 13.0 mph N20.9 kmh N 19.0 mph30.6 kmh 29.88 in1011.9 mb 0.00 in0.0 mm 0.00 in/hr0.0 mm/hr 0.00 in0.0 mm
01:13 AM 35.4°F1.9°C 20.9°F-6.2°C 55% 11.4 mph N18.3 kmh N 19.0 mph30.6 kmh 29.88 in1011.9 mb 0.00 in0.0 mm 0.00 in/hr0.0 mm/hr 0.00 in0.0 mm
01:14 AM 35.4°F1.9°C 20.0°F-6.7°C 53% 13.0 mph N20.9 kmh N 19.0 mph30.6 kmh 29.88 in1011.9 mb 0.00 in0.0 mm 0.00 in/hr0.0 mm/hr 0.00 in0.0 mm
01:15 AM 35.4°F1.9°C 19.6°F-6.9°C 52% 9.8 mph N15.8 kmh N 19.0 mph30.6 kmh 29.88 in1011.9 mb 0.00 in0.0 mm 0.00 in/hr0.0 mm/hr 0.00 in0.0 mm
01:16 AM 35.2°F1.8°C 19.4°F-7.0°C 52% 13.0 mph NNW20.9 kmh NNW 22.8 mph36.7 kmh 29.88 in1011.9 mb 0.00 in0.0 mm 0.00 in/hr0.0 mm/hr 0.00 in0.0 mm
01:17 AM 35.2°F1.8°C 19.4°F-7.0°C 52% 13.6 mph NNW21.9 kmh NNW 22.8 mph36.7 kmh 29.88 in1011.9 mb 0.00 in0.0 mm 0.00 in/hr0.0 mm/hr 0.00 in0.0 mm
01:18 AM 35.2°F1.8°C 19.4°F-7.0°C 52% 10.7 mph NNW17.2 kmh NNW 22.8 mph36.7 kmh 29.88 in1011.9 mb 0.00 in0.0 mm 0.00 in/hr0.0 mm/hr 0.00 in0.0 mm
01:19 AM 35.2°F1.8°C 19.4°F-7.0°C 52% 8.3 mph NNW13.4 kmh NNW 22.8 mph36.7 kmh 29.88 in1011.9 mb 0.00 in0.0 mm 0.00 in/hr0.0 mm/hr 0.00 in0.0 mm
01:20 AM 35.1°F1.7°C 19.2°F-7.1°C 52% 13.0 mph NNW20.9 kmh NNW 22.8 mph36.7 kmh 29.88 in1011.9 mb 0.00 in0.0 mm 0.00 in/hr0.0 mm/hr 0.00 in0.0 mm
01:21 AM 35.1°F1.7°C 19.7°F-6.8°C 53% 13.0 mph NNW20.9 kmh NNW 22.8 mph36.7 kmh 29.88 in1011.9 mb 0.00 in0.0 mm 0.00 in/hr0.0 mm/hr 0.00 in0.0 mm
01:22 AM 35.1°F1.7°C 19.7°F-6.8°C 53% 14.5 mph NNW23.3 kmh NNW 22.8 mph36.7 kmh 29.88 in1011.9 mb 0.00 in0.0 mm 0.00 in/hr0.0 mm/hr 0.00 in0.0 mm
01:23 AM 35.1°F1.7°C 19.7°F-6.8°C 53% 14.5 mph NW23.3 kmh NW 22.8 mph36.7 kmh 29.88 in1011.9 mb 0.00 in0.0 mm 0.00 in/hr0.0 mm/hr 0.00 in0.0 mm
01:24 AM 35.1°F1.7°C 19.2°F-7.1°C 52% 12.1 mph NNW19.5 kmh NNW 22.8 mph36.7 kmh 29.88 in1011.9 mb 0.00 in0.0 mm 0.00 in/hr0.0 mm/hr 0.00 in0.0 mm
01:25 AM 35.1°F1.7°C 19.7°F-6.8°C 53% 7.6 mph NNW12.2 kmh NNW 22.8 mph36.7 kmh 29.88 in1011.9 mb 0.00 in0.0 mm 0.00 in/hr0.0 mm/hr 0.00 in0.0 mm
01:26 AM 34.9°F1.6°C 19.5°F-6.9°C 53% 9.2 mph NNW14.8 kmh NNW 22.8 mph36.7 kmh 29.89 in1012.2 mb 0.00 in0.0 mm 0.00 in/hr0.0 mm/hr 0.00 in0.0 mm
01:27 AM 34.9°F1.6°C 19.5°F-6.9°C 53% 13.0 mph NNW20.9 kmh NNW 22.8 mph36.7 kmh 29.88 in1011.9 mb 0.00 in0.0 mm 0.00 in/hr0.0 mm/hr 0.00 in0.0 mm
01:28 AM 34.9°F1.6°C 19.5°F-6.9°C 53% 18.3 mph NNW29.5 kmh NNW 22.8 mph36.7 kmh 29.88 in1011.9 mb 0.00 in0.0 mm 0.00 in/hr0.0 mm/hr 0.00 in0.0 mm
01:29 AM 34.9°F1.6°C 19.1°F-7.2°C 52% 10.7 mph N17.2 kmh N 22.8 mph36.7 kmh 29.89 in1012.2 mb 0.00 in0.0 mm 0.00 in/hr0.0 mm/hr 0.00 in0.0 mm
01:30 AM 34.9°F1.6°C 19.1°F-7.2°C 52% 9.2 mph N14.8 kmh N 22.8 mph36.7 kmh 29.88 in1011.9 mb 0.00 in0.0 mm 0.00 in/hr0.0 mm/hr 0.00 in0.0 mm
01:31 AM 34.9°F1.6°C 19.1°F-7.2°C 52% 10.7 mph N17.2 kmh N 22.8 mph36.7 kmh 29.89 in1012.2 mb 0.00 in0.0 mm 0.00 in/hr0.0 mm/hr 0.00 in0.0 mm
01:32 AM 34.9°F1.6°C 19.1°F-7.2°C 52% 13.6 mph N21.9 kmh N 22.8 mph36.7 kmh 29.88 in1011.9 mb 0.00 in0.0 mm 0.00 in/hr0.0 mm/hr 0.00 in0.0 mm
01:33 AM 34.9°F1.6°C 19.1°F-7.2°C 52% 15.9 mph N25.6 kmh N 25.1 mph40.4 kmh 29.89 in1012.2 mb 0.00 in0.0 mm 0.00 in/hr0.0 mm/hr 0.00 in0.0 mm
01:34 AM 34.9°F1.6°C 19.1°F-7.2°C 52% 7.6 mph N12.2 kmh N 25.1 mph40.4 kmh 29.89 in1012.2 mb 0.00 in0.0 mm 0.00 in/hr0.0 mm/hr 0.00 in0.0 mm
01:35 AM 34.7°F1.5°C 18.9°F-7.3°C 52% 9.8 mph N15.8 kmh N 25.1 mph40.4 kmh 29.89 in1012.2 mb 0.00 in0.0 mm 0.00 in/hr0.0 mm/hr 0.00 in0.0 mm
01:37 AM 34.7°F1.5°C 19.3°F-7.1°C 53% 8.3 mph N13.4 kmh N 25.1 mph40.4 kmh 29.89 in1012.2 mb 0.00 in0.0 mm 0.00 in/hr0.0 mm/hr 0.00 in0.0 mm
01:38 AM 34.7°F1.5°C 19.3°F-7.1°C 53% 7.6 mph N12.2 kmh N 25.1 mph40.4 kmh 29.89 in1012.2 mb 0.00 in0.0 mm 0.00 in/hr0.0 mm/hr 0.00 in0.0 mm
01:39 AM 34.7°F1.5°C 19.3°F-7.1°C 53% 9.2 mph N14.8 kmh N 25.1 mph40.4 kmh 29.89 in1012.2 mb 0.00 in0.0 mm 0.00 in/hr0.0 mm/hr 0.00 in0.0 mm
01:40 AM 34.7°F1.5°C 19.3°F-7.1°C 53% 10.7 mph N17.2 kmh N 25.1 mph40.4 kmh 29.89 in1012.2 mb 0.00 in0.0 mm 0.00 in/hr0.0 mm/hr 0.00 in0.0 mm
01:41 AM 34.9°F1.6°C 19.1°F-7.2°C 52% 10.7 mph N17.2 kmh N 30.4 mph48.9 kmh 29.89 in1012.2 mb 0.00 in0.0 mm 0.00 in/hr0.0 mm/hr 0.00 in0.0 mm
01:42 AM 34.9°F1.6°C 19.1°F-7.2°C 52% 9.8 mph N15.8 kmh N 30.4 mph48.9 kmh 29.89 in1012.2 mb 0.00 in0.0 mm 0.00 in/hr0.0 mm/hr 0.00 in0.0 mm
01:43 AM 34.7°F1.5°C 18.9°F-7.3°C 52% 14.5 mph N23.3 kmh N 30.4 mph48.9 kmh 29.89 in1012.2 mb 0.00 in0.0 mm 0.00 in/hr0.0 mm/hr 0.00 in0.0 mm
01:44 AM 34.9°F1.6°C 18.6°F-7.4°C 51% 13.0 mph N20.9 kmh N 30.4 mph48.9 kmh 29.89 in1012.2 mb 0.00 in0.0 mm 0.00 in/hr0.0 mm/hr 0.00 in0.0 mm
01:45 AM 34.9°F1.6°C 18.6°F-7.4°C 51% 9.8 mph N15.8 kmh N 30.4 mph48.9 kmh 29.89 in1012.2 mb 0.00 in0.0 mm 0.00 in/hr0.0 mm/hr 0.00 in0.0 mm
01:46 AM 34.7°F1.5°C 18.4°F-7.6°C 51% 9.8 mph N15.8 kmh N 30.4 mph48.9 kmh 29.89 in1012.2 mb 0.00 in0.0 mm 0.00 in/hr0.0 mm/hr 0.00 in0.0 mm
01:47 AM 34.7°F1.5°C 18.4°F-7.6°C 51% 8.3 mph N13.4 kmh N 30.4 mph48.9 kmh 29.89 in1012.2 mb 0.00 in0.0 mm 0.00 in/hr0.0 mm/hr 0.00 in0.0 mm
01:48 AM 34.7°F1.5°C 18.9°F-7.3°C 52% 9.2 mph N14.8 kmh N 30.4 mph48.9 kmh 29.89 in1012.2 mb 0.00 in0.0 mm 0.00 in/hr0.0 mm/hr 0.00 in0.0 mm
01:49 AM 34.5°F1.4°C 19.2°F-7.1°C 53% 13.6 mph N21.9 kmh N 30.4 mph48.9 kmh 29.90 in1012.5 mb 0.00 in0.0 mm 0.00 in/hr0.0 mm/hr 0.00 in0.0 mm
01:50 AM 34.7°F1.5°C 18.9°F-7.3°C 52% 6.9 mph N11.1 kmh N 30.4 mph48.9 kmh 29.90 in1012.5 mb 0.00 in0.0 mm 0.00 in/hr0.0 mm/hr 0.00 in0.0 mm
01:51 AM 34.5°F1.4°C 19.2°F-7.1°C 53% 9.2 mph N14.8 kmh N 20.6 mph33.2 kmh 29.90 in1012.5 mb 0.00 in0.0 mm 0.00 in/hr0.0 mm/hr 0.00 in0.0 mm
01:52 AM 34.5°F1.4°C 19.2°F-7.1°C 53% 8.3 mph N13.4 kmh N 20.6 mph33.2 kmh 29.89 in1012.2 mb 0.00 in0.0 mm 0.00 in/hr0.0 mm/hr 0.00 in0.0 mm
01:53 AM 34.5°F1.4°C 19.2°F-7.1°C 53% 9.2 mph N14.8 kmh N 20.6 mph33.2 kmh 29.89 in1012.2 mb 0.00 in0.0 mm 0.00 in/hr0.0 mm/hr 0.00 in0.0 mm
01:54 AM 34.5°F1.4°C 19.2°F-7.1°C 53% 13.6 mph N21.9 kmh N 20.6 mph33.2 kmh 29.89 in1012.2 mb 0.00 in0.0 mm 0.00 in/hr0.0 mm/hr 0.00 in0.0 mm
01:55 AM 34.5°F1.4°C 18.7°F-7.4°C 52% 12.1 mph NNW19.5 kmh NNW 19.0 mph30.6 kmh 29.89 in1012.2 mb 0.00 in0.0 mm 0.00 in/hr0.0 mm/hr 0.00 in0.0 mm
01:56 AM 34.5°F1.4°C 18.7°F-7.4°C 52% 11.4 mph NW18.3 kmh NW 19.0 mph30.6 kmh 29.89 in1012.2 mb 0.00 in0.0 mm 0.00 in/hr0.0 mm/hr 0.00 in0.0 mm
01:57 AM 34.5°F1.4°C 18.7°F-7.4°C 52% 13.0 mph NW20.9 kmh NW 19.0 mph30.6 kmh 29.89 in1012.2 mb 0.00 in0.0 mm 0.00 in/hr0.0 mm/hr 0.00 in0.0 mm
01:58 AM 34.5°F1.4°C 18.3°F-7.6°C 51% 9.8 mph NNW15.8 kmh NNW 19.0 mph30.6 kmh 29.90 in1012.5 mb 0.00 in0.0 mm 0.00 in/hr0.0 mm/hr 0.00 in0.0 mm
01:59 AM 34.5°F1.4°C 18.3°F-7.6°C 51% 10.7 mph N17.2 kmh N 19.0 mph30.6 kmh 29.89 in1012.2 mb 0.00 in0.0 mm 0.00 in/hr0.0 mm/hr 0.00 in0.0 mm
02:00 AM 34.5°F1.4°C 18.3°F-7.6°C 51% 12.1 mph NNW19.5 kmh NNW 19.0 mph30.6 kmh 29.90 in1012.5 mb 0.00 in0.0 mm 0.00 in/hr0.0 mm/hr 0.00 in0.0 mm
02:01 AM 34.5°F1.4°C 18.3°F-7.6°C 51% 9.8 mph NW15.8 kmh NW 19.0 mph30.6 kmh 29.90 in1012.5 mb 0.00 in0.0 mm 0.00 in/hr0.0 mm/hr 0.00 in0.0 mm
02:02 AM 34.5°F1.4°C 17.8°F-7.9°C 50% 11.4 mph NW18.3 kmh NW 19.0 mph30.6 kmh 29.90 in1012.5 mb 0.00 in0.0 mm 0.00 in/hr0.0 mm/hr 0.00 in0.0 mm
02:03 AM 34.5°F1.4°C 17.8°F-7.9°C 50% 9.8 mph NNW15.8 kmh NNW 19.0 mph30.6 kmh 29.89 in1012.2 mb 0.00 in0.0 mm 0.00 in/hr0.0 mm/hr 0.00 in0.0 mm
02:04 AM 34.5°F1.4°C 17.8°F-7.9°C 50% 10.7 mph NNW17.2 kmh NNW 19.0 mph30.6 kmh 29.89 in1012.2 mb 0.00 in0.0 mm 0.00 in/hr0.0 mm/hr 0.00 in0.0 mm
02:05 AM 34.3°F1.3°C 17.7°F-7.9°C 50% 7.6 mph N12.2 kmh N 19.0 mph30.6 kmh 29.90 in1012.5 mb 0.00 in0.0 mm 0.00 in/hr0.0 mm/hr 0.00 in0.0 mm
02:06 AM 34.2°F1.2°C 17.5°F-8.1°C 50% 12.1 mph N19.5 kmh N 19.0 mph30.6 kmh 29.90 in1012.5 mb 0.00 in0.0 mm 0.00 in/hr0.0 mm/hr 0.00 in0.0 mm
02:07 AM 34.3°F1.3°C 17.7°F-7.9°C 50% 9.2 mph N14.8 kmh N 19.0 mph30.6 kmh 29.90 in1012.5 mb 0.00 in0.0 mm 0.00 in/hr0.0 mm/hr 0.00 in0.0 mm
02:08 AM 34.2°F1.2°C 17.5°F-8.1°C 50% 9.2 mph N14.8 kmh N 18.3 mph29.5 kmh 29.89 in1012.2 mb 0.00 in0.0 mm 0.00 in/hr0.0 mm/hr 0.00 in0.0 mm
02:09 AM 34.2°F1.2°C 16.5°F-8.6°C 48% 6.9 mph NNW11.1 kmh NNW 16.8 mph27.0 kmh 29.90 in1012.5 mb 0.00 in0.0 mm 0.00 in/hr0.0 mm/hr 0.00 in0.0 mm
02:10 AM 34.2°F1.2°C 17.5°F-8.1°C 50% 9.2 mph N14.8 kmh N 17.4 mph28.0 kmh 29.90 in1012.5 mb 0.00 in0.0 mm 0.00 in/hr0.0 mm/hr 0.00 in0.0 mm
02:11 AM 34.2°F1.2°C 17.5°F-8.1°C 50% 7.6 mph N12.2 kmh N 17.4 mph28.0 kmh 29.90 in1012.5 mb 0.00 in0.0 mm 0.00 in/hr0.0 mm/hr 0.00 in0.0 mm
02:12 AM 34.2°F1.2°C 17.5°F-8.1°C 50% 7.6 mph N12.2 kmh N 17.4 mph28.0 kmh 29.90 in1012.5 mb 0.00 in0.0 mm 0.00 in/hr0.0 mm/hr 0.00 in0.0 mm
02:13 AM 34.2°F1.2°C 17.5°F-8.1°C 50% 6.9 mph N11.1 kmh N 17.4 mph28.0 kmh 29.90 in1012.5 mb 0.00 in0.0 mm 0.00 in/hr0.0 mm/hr 0.00 in0.0 mm
02:14 AM 34.2°F1.2°C 16.5°F-8.6°C 48% 9.8 mph N15.8 kmh N 17.4 mph28.0 kmh 29.90 in1012.5 mb 0.00 in0.0 mm 0.00 in/hr0.0 mm/hr 0.00 in0.0 mm
02:15 AM 34.2°F1.2°C 16.5°F-8.6°C 48% 7.6 mph N12.2 kmh N 17.4 mph28.0 kmh 29.90 in1012.5 mb 0.00 in0.0 mm 0.00 in/hr0.0 mm/hr 0.00 in0.0 mm
02:16 AM 34.2°F1.2°C 16.5°F-8.6°C 48% 6.0 mph N9.7 kmh N 17.4 mph28.0 kmh 29.90 in1012.5 mb 0.00 in0.0 mm 0.00 in/hr0.0 mm/hr 0.00 in0.0 mm
02:17 AM 33.8°F1.0°C 16.2°F-8.8°C 48% 5.4 mph N8.7 kmh N 17.4 mph28.0 kmh 29.90 in1012.5 mb 0.00 in0.0 mm 0.00 in/hr0.0 mm/hr 0.00 in0.0 mm
02:18 AM 33.8°F1.0°C 16.2°F-8.8°C 48% 6.0 mph N9.7 kmh N 17.4 mph28.0 kmh 29.90 in1012.5 mb 0.00 in0.0 mm 0.00 in/hr0.0 mm/hr 0.00 in0.0 mm
02:19 AM 34.0°F1.1°C 16.4°F-8.7°C 48% 7.6 mph N12.2 kmh N 17.4 mph28.0 kmh 29.90 in1012.5 mb 0.00 in0.0 mm 0.00 in/hr0.0 mm/hr 0.00 in0.0 mm
02:20 AM 34.0°F1.1°C 16.4°F-8.7°C 48% 9.8 mph N15.8 kmh N 17.4 mph28.0 kmh 29.90 in1012.5 mb 0.00 in0.0 mm 0.00 in/hr0.0 mm/hr 0.00 in0.0 mm
02:21 AM 34.2°F1.2°C 16.1°F-8.8°C 47% 8.3 mph N13.4 kmh N 15.9 mph25.6 kmh 29.90 in1012.5 mb 0.00 in0.0 mm 0.00 in/hr0.0 mm/hr 0.00 in0.0 mm
02:22 AM 34.2°F1.2°C 16.1°F-8.8°C 47% 6.9 mph N11.1 kmh N 15.9 mph25.6 kmh 29.90 in1012.5 mb 0.00 in0.0 mm 0.00 in/hr0.0 mm/hr 0.00 in0.0 mm
02:23 AM 34.2°F1.2°C 15.6°F-9.1°C 46% 6.0 mph N9.7 kmh N 15.9 mph25.6 kmh 29.90 in1012.5 mb 0.00 in0.0 mm 0.00 in/hr0.0 mm/hr 0.00 in0.0 mm
02:24 AM 34.0°F1.1°C 15.4°F-9.2°C 46% 8.3 mph N13.4 kmh N 15.9 mph25.6 kmh 29.90 in1012.5 mb 0.00 in0.0 mm 0.00 in/hr0.0 mm/hr 0.00 in0.0 mm
02:25 AM 34.0°F1.1°C 15.4°F-9.2°C 46% 9.2 mph N14.8 kmh N 15.9 mph25.6 kmh 29.90 in1012.5 mb 0.00 in0.0 mm 0.00 in/hr0.0 mm/hr 0.00 in0.0 mm
02:26 AM 34.0°F1.1°C 15.4°F-9.2°C 46% 9.2 mph N14.8 kmh N 15.9 mph25.6 kmh 29.90 in1012.5 mb 0.00 in0.0 mm 0.00 in/hr0.0 mm/hr 0.00 in0.0 mm
02:27 AM 34.2°F1.2°C 15.6°F-9.1°C 46% 6.9 mph N11.1 kmh N 15.9 mph25.6 kmh 29.90 in1012.5 mb 0.00 in0.0 mm 0.00 in/hr0.0 mm/hr 0.00 in0.0 mm
02:28 AM 34.0°F1.1°C 15.4°F-9.2°C 46% 9.2 mph N14.8 kmh N 15.9 mph25.6 kmh 29.90 in1012.5 mb 0.00 in0.0 mm 0.00 in/hr0.0 mm/hr 0.00 in0.0 mm
02:29 AM 33.8°F1.0°C 15.2°F-9.3°C 46% 6.0 mph N9.7 kmh N 15.9 mph25.6 kmh 29.90 in1012.5 mb 0.00 in0.0 mm 0.00 in/hr0.0 mm/hr 0.00 in0.0 mm
02:30 AM 33.8°F1.0°C 15.2°F-9.3°C 46% 6.0 mph N9.7 kmh N 15.9 mph25.6 kmh 29.90 in1012.5 mb 0.00 in0.0 mm 0.00 in/hr0.0 mm/hr 0.00 in0.0 mm
02:31 AM 33.8°F1.0°C 15.7°F-9.1°C 47% 5.4 mph N8.7 kmh N 15.9 mph25.6 kmh 29.90 in1012.5 mb 0.00 in0.0 mm 0.00 in/hr0.0 mm/hr 0.00 in0.0 mm
02:32 AM 33.8°F1.0°C 15.7°F-9.1°C 47% 6.9 mph N11.1 kmh N 15.9 mph25.6 kmh 29.90 in1012.5 mb 0.00 in0.0 mm 0.00 in/hr0.0 mm/hr 0.00 in0.0 mm
02:33 AM 33.8°F1.0°C 15.7°F-9.1°C 47% 6.0 mph N9.7 kmh N 15.9 mph25.6 kmh 29.90 in1012.5 mb 0.00 in0.0 mm 0.00 in/hr0.0 mm/hr 0.00 in0.0 mm
02:34 AM 33.8°F1.0°C 15.7°F-9.1°C 47% 8.3 mph NNW13.4 kmh NNW 13.0 mph20.9 kmh 29.90 in1012.5 mb 0.00 in0.0 mm 0.00 in/hr0.0 mm/hr 0.00 in0.0 mm
02:35 AM 33.8°F1.0°C 15.7°F-9.1°C 47% 9.2 mph NNW14.8 kmh NNW 13.6 mph21.9 kmh 29.90 in1012.5 mb 0.00 in0.0 mm 0.00 in/hr0.0 mm/hr 0.00 in0.0 mm
02:36 AM 33.8°F1.0°C 15.7°F-9.1°C 47% 6.0 mph N9.7 kmh N 13.6 mph21.9 kmh 29.90 in1012.5 mb 0.00 in0.0 mm 0.00 in/hr0.0 mm/hr 0.00 in0.0 mm
02:37 AM 33.8°F1.0°C 15.7°F-9.1°C 47% 9.2 mph N14.8 kmh N 13.6 mph21.9 kmh 29.90 in1012.5 mb 0.00 in0.0 mm 0.00 in/hr0.0 mm/hr 0.00 in0.0 mm
02:38 AM 33.8°F1.0°C 15.7°F-9.1°C 47% 8.3 mph N13.4 kmh N 15.9 mph25.6 kmh 29.90 in1012.5 mb 0.00 in0.0 mm 0.00 in/hr0.0 mm/hr 0.00 in0.0 mm
02:39 AM 34.0°F1.1°C 15.9°F-8.9°C 47% 6.0 mph N9.7 kmh N 15.9 mph25.6 kmh 29.90 in1012.5 mb 0.00 in0.0 mm 0.00 in/hr0.0 mm/hr 0.00 in0.0 mm
02:40 AM 33.6°F0.9°C 17.0°F-8.3°C 50% 7.6 mph N12.2 kmh N 15.9 mph25.6 kmh 29.90 in1012.5 mb 0.00 in0.0 mm 0.00 in/hr0.0 mm/hr 0.00 in0.0 mm
02:41 AM 33.6°F0.9°C 17.0°F-8.3°C 50% 6.0 mph N9.7 kmh N 15.9 mph25.6 kmh 29.90 in1012.5 mb 0.00 in0.0 mm 0.00 in/hr0.0 mm/hr 0.00 in0.0 mm
02:42 AM 33.6°F0.9°C 17.0°F-8.3°C 50% 7.6 mph N12.2 kmh N 15.9 mph25.6 kmh 29.90 in1012.5 mb 0.00 in0.0 mm 0.00 in/hr0.0 mm/hr 0.00 in0.0 mm
02:43 AM 33.6°F0.9°C 17.0°F-8.3°C 50% 8.3 mph N13.4 kmh N 15.9 mph25.6 kmh 29.90 in1012.5 mb 0.00 in0.0 mm 0.00 in/hr0.0 mm/hr 0.00 in0.0 mm
02:44 AM 33.8°F1.0°C 16.2°F-8.8°C 48% 7.6 mph N12.2 kmh N 15.9 mph25.6 kmh 29.90 in1012.5 mb 0.00 in0.0 mm 0.00 in/hr0.0 mm/hr 0.00 in0.0 mm
02:45 AM 33.6°F0.9°C 17.0°F-8.3°C 50% 7.6 mph NNE12.2 kmh NNE 15.9 mph25.6 kmh 29.90 in1012.5 mb 0.00 in0.0 mm 0.00 in/hr0.0 mm/hr 0.00 in0.0 mm
02:46 AM 33.6°F0.9°C 17.0°F-8.3°C 50% 5.4 mph N8.7 kmh N 15.9 mph25.6 kmh 29.90 in1012.5 mb 0.00 in0.0 mm 0.00 in/hr0.0 mm/hr 0.00 in0.0 mm
02:47 AM 33.6°F0.9°C 17.0°F-8.3°C 50% 6.0 mph N9.7 kmh N 15.9 mph25.6 kmh 29.90 in1012.5 mb 0.00 in0.0 mm 0.00 in/hr0.0 mm/hr 0.00 in0.0 mm
02:48 AM 33.6°F0.9°C 17.0°F-8.3°C 50% 5.4 mph N8.7 kmh N 13.6 mph21.9 kmh 29.90 in1012.5 mb 0.00 in0.0 mm 0.00 in/hr0.0 mm/hr 0.00 in0.0 mm
02:49 AM 33.4°F0.8°C 16.8°F-8.4°C 50% 6.9 mph N11.1 kmh N 13.6 mph21.9 kmh 29.90 in1012.5 mb 0.00 in0.0 mm 0.00 in/hr0.0 mm/hr 0.00 in0.0 mm
02:50 AM 33.4°F0.8°C 17.3°F-8.2°C 51% 7.6 mph N12.2 kmh N 13.6 mph21.9 kmh 29.90 in1012.5 mb 0.00 in0.0 mm 0.00 in/hr0.0 mm/hr 0.00 in0.0 mm
02:51 AM 33.6°F0.9°C 17.5°F-8.1°C 51% 9.2 mph N14.8 kmh N 15.2 mph24.5 kmh 29.90 in1012.5 mb 0.00 in0.0 mm 0.00 in/hr0.0 mm/hr 0.00 in0.0 mm
02:52 AM 33.6°F0.9°C 17.5°F-8.1°C 51% 5.4 mph N8.7 kmh N 15.2 mph24.5 kmh 29.90 in1012.5 mb 0.00 in0.0 mm 0.00 in/hr0.0 mm/hr 0.00 in0.0 mm
02:53 AM 33.4°F0.8°C 17.3°F-8.2°C 51% 6.9 mph N11.1 kmh N 15.2 mph24.5 kmh 29.90 in1012.5 mb 0.00 in0.0 mm 0.00 in/hr0.0 mm/hr 0.00 in0.0 mm
02:54 AM 33.4°F0.8°C 17.3°F-8.2°C 51% 6.0 mph N9.7 kmh N 15.2 mph24.5 kmh 29.90 in1012.5 mb 0.00 in0.0 mm 0.00 in/hr0.0 mm/hr 0.00 in0.0 mm
02:55 AM 33.4°F0.8°C 17.3°F-8.2°C 51% 6.9 mph N11.1 kmh N 15.2 mph24.5 kmh 29.90 in1012.5 mb 0.00 in0.0 mm 0.00 in/hr0.0 mm/hr 0.00 in0.0 mm
02:56 AM 33.4°F0.8°C 17.3°F-8.2°C 51% 6.0 mph N9.7 kmh N 15.2 mph24.5 kmh 29.90 in1012.5 mb 0.00 in0.0 mm 0.00 in/hr0.0 mm/hr 0.00 in0.0 mm
02:57 AM 33.3°F0.7°C 17.1°F-8.3°C 51% 6.9 mph N11.1 kmh N 15.2 mph24.5 kmh 29.90 in1012.5 mb 0.00 in0.0 mm 0.00 in/hr0.0 mm/hr 0.00 in0.0 mm
02:58 AM 33.3°F0.7°C 17.6°F-8.0°C 52% 4.5 mph N7.2 kmh N 15.2 mph24.5 kmh 29.90 in1012.5 mb 0.00 in0.0 mm 0.00 in/hr0.0 mm/hr 0.00 in0.0 mm
02:59 AM 33.1°F0.6°C 17.4°F-8.1°C 52% 4.5 mph N7.2 kmh N 15.2 mph24.5 kmh 29.90 in1012.5 mb 0.00 in0.0 mm 0.00 in/hr0.0 mm/hr 0.00 in0.0 mm
03:00 AM 32.9°F0.5°C 17.2°F-8.2°C 52% 6.9 mph N11.1 kmh N 15.2 mph24.5 kmh 29.90 in1012.5 mb 0.00 in0.0 mm 0.00 in/hr0.0 mm/hr 0.00 in0.0 mm
03:01 AM 32.9°F0.5°C 17.2°F-8.2°C 52% 6.9 mph N11.1 kmh N 12.1 mph19.5 kmh 29.90 in1012.5 mb 0.00 in0.0 mm 0.00 in/hr0.0 mm/hr 0.00 in0.0 mm
03:02 AM 32.9°F0.5°C 17.2°F-8.2°C 52% 6.9 mph N11.1 kmh N 12.1 mph19.5 kmh 29.90 in1012.5 mb 0.00 in0.0 mm 0.00 in/hr0.0 mm/hr 0.00 in0.0 mm
03:03 AM 32.9°F0.5°C 17.2°F-8.2°C 52% 6.9 mph N11.1 kmh N 12.1 mph19.5 kmh 29.90 in1012.5 mb 0.00 in0.0 mm 0.00 in/hr0.0 mm/hr 0.00 in0.0 mm
03:04 AM 32.9°F0.5°C 17.2°F-8.2°C 52% 6.9 mph N11.1 kmh N 12.1 mph19.5 kmh 29.90 in1012.5 mb 0.00 in0.0 mm 0.00 in/hr0.0 mm/hr 0.00 in0.0 mm
03:05 AM 32.9°F0.5°C 17.2°F-8.2°C 52% 6.9 mph N11.1 kmh N 12.1 mph19.5 kmh 29.90 in1012.5 mb 0.00 in0.0 mm 0.00 in/hr0.0 mm/hr 0.00 in0.0 mm
03:06 AM 32.9°F0.5°C 17.2°F-8.2°C 52% 6.9 mph N11.1 kmh N 12.1 mph19.5 kmh 29.90 in1012.5 mb 0.00 in0.0 mm 0.00 in/hr0.0 mm/hr 0.00 in0.0 mm
03:07 AM 32.9°F0.5°C 17.2°F-8.2°C 52% 6.9 mph NNW11.1 kmh NNW 10.7 mph17.2 kmh 29.90 in1012.5 mb 0.00 in0.0 mm 0.00 in/hr0.0 mm/hr 0.00 in0.0 mm
03:08 AM 33.4°F0.8°C 16.8°F-8.4°C 50% 8.3 mph NNW13.4 kmh NNW 11.4 mph18.3 kmh 29.90 in1012.5 mb 0.00 in0.0 mm 0.00 in/hr0.0 mm/hr 0.00 in0.0 mm
03:09 AM 33.3°F0.7°C 16.7°F-8.5°C 50% 8.3 mph NNW13.4 kmh NNW 17.4 mph28.0 kmh 29.90 in1012.5 mb 0.00 in0.0 mm 0.00 in/hr0.0 mm/hr 0.00 in0.0 mm
03:10 AM 33.4°F0.8°C 16.8°F-8.4°C 50% 7.6 mph NW12.2 kmh NW 17.4 mph28.0 kmh 29.90 in1012.5 mb 0.00 in0.0 mm 0.00 in/hr0.0 mm/hr 0.00 in0.0 mm
03:11 AM 33.4°F0.8°C 16.8°F-8.4°C 50% 6.9 mph NNW11.1 kmh NNW 17.4 mph28.0 kmh 29.90 in1012.5 mb 0.00 in0.0 mm 0.00 in/hr0.0 mm/hr 0.00 in0.0 mm
03:12 AM 33.4°F0.8°C 16.8°F-8.4°C 50% 8.3 mph NNW13.4 kmh NNW 17.4 mph28.0 kmh 29.90 in1012.5 mb 0.00 in0.0 mm 0.00 in/hr0.0 mm/hr 0.00 in0.0 mm
03:13 AM 33.4°F0.8°C 16.8°F-8.4°C 50% 5.4 mph NNW8.7 kmh NNW 17.4 mph28.0 kmh 29.90 in1012.5 mb 0.00 in0.0 mm 0.00 in/hr0.0 mm/hr 0.00 in0.0 mm
03:14 AM 33.3°F0.7°C 16.7°F-8.5°C 50% 6.9 mph NNW11.1 kmh NNW 17.4 mph28.0 kmh 29.90 in1012.5 mb 0.00 in0.0 mm 0.00 in/hr0.0 mm/hr 0.00 in0.0 mm
03:15 AM 33.3°F0.7°C 16.7°F-8.5°C 50% 6.0 mph NNW9.7 kmh NNW 17.4 mph28.0 kmh 29.90 in1012.5 mb 0.00 in0.0 mm 0.00 in/hr0.0 mm/hr 0.00 in0.0 mm
03:16 AM 33.3°F0.7°C 16.7°F-8.5°C 50% 9.8 mph NNW15.8 kmh NNW 17.4 mph28.0 kmh 29.90 in1012.5 mb 0.00 in0.0 mm 0.00 in/hr0.0 mm/hr 0.00 in0.0 mm
03:17 AM 33.4°F0.8°C 15.9°F-8.9°C 48% 7.6 mph NNW12.2 kmh NNW 17.4 mph28.0 kmh 29.90 in1012.5 mb 0.00 in0.0 mm 0.00 in/hr0.0 mm/hr 0.00 in0.0 mm
03:18 AM 33.4°F0.8°C 15.9°F-8.9°C 48% 9.8 mph NNW15.8 kmh NNW 17.4 mph28.0 kmh 29.90 in1012.5 mb 0.00 in0.0 mm 0.00 in/hr0.0 mm/hr 0.00 in0.0 mm
03:19 AM 33.6°F0.9°C 16.1°F-8.8°C 48% 8.3 mph N13.4 kmh N 17.4 mph28.0 kmh 29.90 in1012.5 mb 0.00 in0.0 mm 0.00 in/hr0.0 mm/hr 0.00 in0.0 mm
03:20 AM 33.4°F0.8°C 15.4°F-9.2°C 47% 8.3 mph N13.4 kmh N 16.8 mph27.0 kmh 29.90 in1012.5 mb 0.00 in0.0 mm 0.00 in/hr0.0 mm/hr 0.00 in0.0 mm
03:21 AM 33.4°F0.8°C 15.4°F-9.2°C 47% 6.0 mph NNW9.7 kmh NNW 16.8 mph27.0 kmh 29.90 in1012.5 mb 0.00 in0.0 mm 0.00 in/hr0.0 mm/hr 0.00 in0.0 mm
03:22 AM 33.4°F0.8°C 15.4°F-9.2°C 47% 9.8 mph NNW15.8 kmh NNW 16.8 mph27.0 kmh 29.90 in1012.5 mb 0.00 in0.0 mm 0.00 in/hr0.0 mm/hr 0.00 in0.0 mm
03:23 AM 33.4°F0.8°C 15.4°F-9.2°C 47% 7.6 mph NNW12.2 kmh NNW 16.8 mph27.0 kmh 29.90 in1012.5 mb 0.00 in0.0 mm 0.00 in/hr0.0 mm/hr 0.00 in0.0 mm
03:24 AM 33.3°F0.7°C 15.2°F-9.3°C 47% 7.6 mph NNW12.2 kmh NNW 16.8 mph27.0 kmh 29.90 in1012.5 mb 0.00 in0.0 mm 0.00 in/hr0.0 mm/hr 0.00 in0.0 mm
03:25 AM 33.4°F0.8°C 15.4°F-9.2°C 47% 9.8 mph NNW15.8 kmh NNW 16.8 mph27.0 kmh 29.90 in1012.5 mb 0.00 in0.0 mm 0.00 in/hr0.0 mm/hr 0.00 in0.0 mm
03:26 AM 33.4°F0.8°C 15.4°F-9.2°C 47% 7.6 mph NNW12.2 kmh NNW 16.8 mph27.0 kmh 29.90 in1012.5 mb 0.00 in0.0 mm 0.00 in/hr0.0 mm/hr 0.00 in0.0 mm
03:27 AM 33.4°F0.8°C 15.4°F-9.2°C 47% 8.3 mph N13.4 kmh N 16.8 mph27.0 kmh 29.90 in1012.5 mb 0.00 in0.0 mm 0.00 in/hr0.0 mm/hr 0.00 in0.0 mm
03:28 AM 33.3°F0.7°C 15.2°F-9.3°C 47% 7.6 mph NNW12.2 kmh NNW 16.8 mph27.0 kmh 29.90 in1012.5 mb 0.00 in0.0 mm 0.00 in/hr0.0 mm/hr 0.00 in0.0 mm
03:29 AM 33.3°F0.7°C 15.2°F-9.3°C 47% 6.9 mph NNW11.1 kmh NNW 13.6 mph21.9 kmh 29.90 in1012.5 mb 0.00 in0.0 mm 0.00 in/hr0.0 mm/hr 0.00 in0.0 mm
03:30 AM 33.4°F0.8°C 15.4°F-9.2°C 47% 7.6 mph NNW12.2 kmh NNW 13.6 mph21.9 kmh 29.90 in1012.5 mb 0.00 in0.0 mm 0.00 in/hr0.0 mm/hr 0.00 in0.0 mm
03:31 AM 33.4°F0.8°C 15.4°F-9.2°C 47% 6.9 mph NNW11.1 kmh NNW 13.6 mph21.9 kmh 29.90 in1012.5 mb 0.00 in0.0 mm 0.00 in/hr0.0 mm/hr 0.00 in0.0 mm
03:32 AM 33.3°F0.7°C 15.2°F-9.3°C 47% 4.5 mph NNW7.2 kmh NNW 13.6 mph21.9 kmh 29.90 in1012.5 mb 0.00 in0.0 mm 0.00 in/hr0.0 mm/hr 0.00 in0.0 mm
03:33 AM 33.1°F0.6°C 15.1°F-9.4°C 47% 9.2 mph NNW14.8 kmh NNW 12.1 mph19.5 kmh 29.90 in1012.5 mb 0.00 in0.0 mm 0.00 in/hr0.0 mm/hr 0.00 in0.0 mm
03:34 AM 33.3°F0.7°C 15.2°F-9.3°C 47% 7.6 mph NNW12.2 kmh NNW 12.1 mph19.5 kmh 29.90 in1012.5 mb 0.00 in0.0 mm 0.00 in/hr0.0 mm/hr 0.00 in0.0 mm
03:35 AM 33.3°F0.7°C 15.2°F-9.3°C 47% 7.6 mph NNW12.2 kmh NNW 12.1 mph19.5 kmh 29.90 in1012.5 mb 0.00 in0.0 mm 0.00 in/hr0.0 mm/hr 0.00 in0.0 mm
03:36 AM 33.3°F0.7°C 14.7°F-9.6°C 46% 7.6 mph NNW12.2 kmh NNW 12.1 mph19.5 kmh 29.90 in1012.5 mb 0.00 in0.0 mm 0.00 in/hr0.0 mm/hr 0.00 in0.0 mm
03:40 AM 33.3°F0.7°C 14.7°F-9.6°C 46% 7.6 mph N12.2 kmh N 12.1 mph19.5 kmh 29.90 in1012.5 mb 0.00 in0.0 mm 0.00 in/hr0.0 mm/hr 0.00 in0.0 mm
03:41 AM 33.4°F0.8°C 14.9°F-9.5°C 46% 6.9 mph N11.1 kmh N 12.1 mph19.5 kmh 29.90 in1012.5 mb 0.00 in0.0 mm 0.00 in/hr0.0 mm/hr 0.00 in0.0 mm
03:42 AM 33.3°F0.7°C 14.7°F-9.6°C 46% 6.9 mph N11.1 kmh N 12.1 mph19.5 kmh 29.90 in1012.5 mb 0.00 in0.0 mm 0.00 in/hr0.0 mm/hr 0.00 in0.0 mm
03:43 AM 33.3°F0.7°C 14.7°F-9.6°C 46% 6.9 mph N11.1 kmh N 13.6 mph21.9 kmh 29.90 in1012.5 mb 0.00 in0.0 mm 0.00 in/hr0.0 mm/hr 0.00 in0.0 mm
03:44 AM 33.3°F0.7°C 14.7°F-9.6°C 46% 3.8 mph N6.1 kmh N 13.6 mph21.9 kmh 29.90 in1012.5 mb 0.00 in0.0 mm 0.00 in/hr0.0 mm/hr 0.00 in0.0 mm
03:45 AM 33.1°F0.6°C 14.6°F-9.7°C 46% 6.0 mph N9.7 kmh N 13.6 mph21.9 kmh 29.90 in1012.5 mb 0.00 in0.0 mm 0.00 in/hr0.0 mm/hr 0.00 in0.0 mm
03:46 AM 33.3°F0.7°C 14.7°F-9.6°C 46% 7.6 mph N12.2 kmh N 13.6 mph21.9 kmh 29.90 in1012.5 mb 0.00 in0.0 mm 0.00 in/hr0.0 mm/hr 0.00 in0.0 mm
03:47 AM 33.3°F0.7°C 14.7°F-9.6°C 46% 6.9 mph N11.1 kmh N 13.6 mph21.9 kmh 29.90 in1012.5 mb 0.00 in0.0 mm 0.00 in/hr0.0 mm/hr 0.00 in0.0 mm
03:48 AM 33.3°F0.7°C 14.7°F-9.6°C 46% 7.6 mph N12.2 kmh N 13.6 mph21.9 kmh 29.90 in1012.5 mb 0.00 in0.0 mm 0.00 in/hr0.0 mm/hr 0.00 in0.0 mm
03:49 AM 33.3°F0.7°C 14.7°F-9.6°C 46% 10.7 mph N17.2 kmh N 15.2 mph24.5 kmh 29.90 in1012.5 mb 0.00 in0.0 mm 0.00 in/hr0.0 mm/hr 0.00 in0.0 mm
03:50 AM 33.4°F0.8°C 14.9°F-9.5°C 46% 9.8 mph N15.8 kmh N 15.2 mph24.5 kmh 29.90 in1012.5 mb 0.00 in0.0 mm 0.00 in/hr0.0 mm/hr 0.00 in0.0 mm
03:51 AM 33.4°F0.8°C 14.9°F-9.5°C 46% 8.3 mph N13.4 kmh N 15.2 mph24.5 kmh 29.90 in1012.5 mb 0.00 in0.0 mm 0.00 in/hr0.0 mm/hr 0.00 in0.0 mm
03:52 AM 33.4°F0.8°C 14.9°F-9.5°C 46% 10.7 mph N17.2 kmh N 15.2 mph24.5 kmh 29.90 in1012.5 mb 0.00 in0.0 mm 0.00 in/hr0.0 mm/hr 0.00 in0.0 mm
03:53 AM 33.4°F0.8°C 14.9°F-9.5°C 46% 7.6 mph N12.2 kmh N 15.2 mph24.5 kmh 29.90 in1012.5 mb 0.00 in0.0 mm 0.00 in/hr0.0 mm/hr 0.00 in0.0 mm
03:54 AM 33.4°F0.8°C 14.9°F-9.5°C 46% 13.6 mph N21.9 kmh N 18.3 mph29.5 kmh 29.90 in1012.5 mb 0.00 in0.0 mm 0.00 in/hr0.0 mm/hr 0.00 in0.0 mm
03:55 AM 33.4°F0.8°C 14.9°F-9.5°C 46% 9.8 mph N15.8 kmh N 18.3 mph29.5 kmh 29.90 in1012.5 mb 0.00 in0.0 mm 0.00 in/hr0.0 mm/hr 0.00 in0.0 mm
03:56 AM 33.6°F0.9°C 15.1°F-9.4°C 46% 9.8 mph N15.8 kmh N 18.3 mph29.5 kmh 29.90 in1012.5 mb 0.00 in0.0 mm 0.00 in/hr0.0 mm/hr 0.00 in0.0 mm
03:57 AM 33.6°F0.9°C 15.1°F-9.4°C 46% 8.3 mph N13.4 kmh N 18.3 mph29.5 kmh 29.90 in1012.5 mb 0.00 in0.0 mm 0.00 in/hr0.0 mm/hr 0.00 in0.0 mm
03:58 AM 33.4°F0.8°C 14.9°F-9.5°C 46% 9.8 mph N15.8 kmh N 18.3 mph29.5 kmh 29.90 in1012.5 mb 0.00 in0.0 mm 0.00 in/hr0.0 mm/hr 0.00 in0.0 mm
03:59 AM 33.4°F0.8°C 14.9°F-9.5°C 46% 14.5 mph NNW23.3 kmh NNW 18.3 mph29.5 kmh 29.90 in1012.5 mb 0.00 in0.0 mm 0.00 in/hr0.0 mm/hr 0.00 in0.0 mm
04:00 AM 33.6°F0.9°C 15.1°F-9.4°C 46% 8.3 mph NNW13.4 kmh NNW 18.3 mph29.5 kmh 29.90 in1012.5 mb 0.00 in0.0 mm 0.00 in/hr0.0 mm/hr 0.00 in0.0 mm
04:01 AM 33.4°F0.8°C 14.9°F-9.5°C 46% 10.7 mph NNW17.2 kmh NNW 19.7 mph31.7 kmh 29.90 in1012.5 mb 0.00 in0.0 mm 0.00 in/hr0.0 mm/hr 0.00 in0.0 mm
04:02 AM 33.4°F0.8°C 14.9°F-9.5°C 46% 7.6 mph N12.2 kmh N 19.7 mph31.7 kmh 29.90 in1012.5 mb 0.00 in0.0 mm 0.00 in/hr0.0 mm/hr 0.00 in0.0 mm
04:03 AM 33.4°F0.8°C 14.9°F-9.5°C 46% 8.3 mph N13.4 kmh N 19.7 mph31.7 kmh 29.90 in1012.5 mb 0.00 in0.0 mm 0.00 in/hr0.0 mm/hr 0.00 in0.0 mm
04:04 AM 33.4°F0.8°C 14.9°F-9.5°C 46% 9.2 mph N14.8 kmh N 19.7 mph31.7 kmh 29.90 in1012.5 mb 0.00 in0.0 mm 0.00 in/hr0.0 mm/hr 0.00 in0.0 mm
04:05 AM 33.4°F0.8°C 14.9°F-9.5°C 46% 9.2 mph N14.8 kmh N 19.7 mph31.7 kmh 29.90 in1012.5 mb 0.00 in0.0 mm 0.00 in/hr0.0 mm/hr 0.00 in0.0 mm
04:06 AM 33.6°F0.9°C 15.1°F-9.4°C 46% 9.2 mph N14.8 kmh N 19.7 mph31.7 kmh 29.90 in1012.5 mb 0.00 in0.0 mm 0.00 in/hr0.0 mm/hr 0.00 in0.0 mm
04:07 AM 33.6°F0.9°C 15.1°F-9.4°C 46% 11.4 mph N18.3 kmh N 19.7 mph31.7 kmh 29.90 in1012.5 mb 0.00 in0.0 mm 0.00 in/hr0.0 mm/hr 0.00 in0.0 mm
04:08 AM 33.4°F0.8°C 14.9°F-9.5°C 46% 8.3 mph N13.4 kmh N 19.7 mph31.7 kmh 29.90 in1012.5 mb 0.00 in0.0 mm 0.00 in/hr0.0 mm/hr 0.00 in0.0 mm
04:09 AM 33.4°F0.8°C 14.9°F-9.5°C 46% 8.3 mph N13.4 kmh N 19.7 mph31.7 kmh 29.90 in1012.5 mb 0.00 in0.0 mm 0.00 in/hr0.0 mm/hr 0.00 in0.0 mm
04:10 AM 33.4°F0.8°C 14.9°F-9.5°C 46% 9.2 mph N14.8 kmh N 19.7 mph31.7 kmh 29.90 in1012.5 mb 0.00 in0.0 mm 0.00 in/hr0.0 mm/hr 0.00 in0.0 mm
04:11 AM 33.4°F0.8°C 14.9°F-9.5°C 46% 12.1 mph N19.5 kmh N 19.0 mph30.6 kmh 29.90 in1012.5 mb 0.00 in0.0 mm 0.00 in/hr0.0 mm/hr 0.00 in0.0 mm
04:12 AM 33.4°F0.8°C 14.9°F-9.5°C 46% 9.2 mph N14.8 kmh N 19.0 mph30.6 kmh 29.90 in1012.5 mb 0.00 in0.0 mm 0.00 in/hr0.0 mm/hr 0.00 in0.0 mm
04:13 AM 33.4°F0.8°C 14.9°F-9.5°C 46% 6.0 mph NNE9.7 kmh NNE 19.0 mph30.6 kmh 29.90 in1012.5 mb 0.00 in0.0 mm 0.00 in/hr0.0 mm/hr 0.00 in0.0 mm
04:14 AM 33.3°F0.7°C 15.2°F-9.3°C 47% 6.0 mph NNE9.7 kmh NNE 19.0 mph30.6 kmh 29.90 in1012.5 mb 0.00 in0.0 mm 0.00 in/hr0.0 mm/hr 0.00 in0.0 mm
04:15 AM 33.3°F0.7°C 15.2°F-9.3°C 47% 9.8 mph NNE15.8 kmh NNE 19.0 mph30.6 kmh 29.90 in1012.5 mb 0.00 in0.0 mm 0.00 in/hr0.0 mm/hr 0.00 in0.0 mm
04:16 AM 33.4°F0.8°C 15.4°F-9.2°C 47% 7.6 mph NNE12.2 kmh NNE 19.0 mph30.6 kmh 29.90 in1012.5 mb 0.00 in0.0 mm 0.00 in/hr0.0 mm/hr 0.00 in0.0 mm
04:17 AM 33.4°F0.8°C 15.4°F-9.2°C 47% 9.8 mph NNE15.8 kmh NNE 19.0 mph30.6 kmh 29.90 in1012.5 mb 0.00 in0.0 mm 0.00 in/hr0.0 mm/hr 0.00 in0.0 mm
04:18 AM 33.4°F0.8°C 15.4°F-9.2°C 47% 13.0 mph NNE20.9 kmh NNE 19.0 mph30.6 kmh 29.90 in1012.5 mb 0.00 in0.0 mm 0.00 in/hr0.0 mm/hr 0.00 in0.0 mm
04:19 AM 33.6°F0.9°C 15.6°F-9.1°C 47% 8.3 mph NNE13.4 kmh NNE 19.0 mph30.6 kmh 29.90 in1012.5 mb 0.00 in0.0 mm 0.00 in/hr0.0 mm/hr 0.00 in0.0 mm
04:20 AM 33.4°F0.8°C 15.4°F-9.2°C 47% 8.3 mph NNE13.4 kmh NNE 18.3 mph29.5 kmh 29.90 in1012.5 mb 0.00 in0.0 mm 0.00 in/hr0.0 mm/hr 0.00 in0.0 mm
04:21 AM 33.4°F0.8°C 15.4°F-9.2°C 47% 11.4 mph NNE18.3 kmh NNE 18.3 mph29.5 kmh 29.90 in1012.5 mb 0.00 in0.0 mm 0.00 in/hr0.0 mm/hr 0.00 in0.0 mm
04:22 AM 33.4°F0.8°C 15.4°F-9.2°C 47% 9.2 mph NNE14.8 kmh NNE 18.3 mph29.5 kmh 29.90 in1012.5 mb 0.00 in0.0 mm 0.00 in/hr0.0 mm/hr 0.00 in0.0 mm
04:23 AM 33.3°F0.7°C 15.2°F-9.3°C 47% 9.8 mph NNE15.8 kmh NNE 18.3 mph29.5 kmh 29.90 in1012.5 mb 0.00 in0.0 mm 0.00 in/hr0.0 mm/hr 0.00 in0.0 mm
04:24 AM 33.4°F0.8°C 15.4°F-9.2°C 47% 9.2 mph NNE14.8 kmh NNE 18.3 mph29.5 kmh 29.90 in1012.5 mb 0.00 in0.0 mm 0.00 in/hr0.0 mm/hr 0.00 in0.0 mm
04:25 AM 33.4°F0.8°C 15.4°F-9.2°C 47% 6.9 mph N11.1 kmh N 18.3 mph29.5 kmh 29.90 in1012.5 mb 0.00 in0.0 mm 0.00 in/hr0.0 mm/hr 0.00 in0.0 mm
04:26 AM 33.4°F0.8°C 15.4°F-9.2°C 47% 8.3 mph N13.4 kmh N 18.3 mph29.5 kmh 29.90 in1012.5 mb 0.00 in0.0 mm 0.00 in/hr0.0 mm/hr 0.00 in0.0 mm
04:27 AM 33.4°F0.8°C 15.4°F-9.2°C 47% 13.0 mph N20.9 kmh N 18.3 mph29.5 kmh 29.90 in1012.5 mb 0.00 in0.0 mm 0.00 in/hr0.0 mm/hr 0.00 in0.0 mm
04:28 AM 33.6°F0.9°C 15.6°F-9.1°C 47% 9.8 mph N15.8 kmh N 18.3 mph29.5 kmh 29.91 in1012.9 mb 0.00 in0.0 mm 0.00 in/hr0.0 mm/hr 0.00 in0.0 mm
04:29 AM 33.6°F0.9°C 15.6°F-9.1°C 47% 9.8 mph N15.8 kmh N 17.4 mph28.0 kmh 29.90 in1012.5 mb 0.00 in0.0 mm 0.00 in/hr0.0 mm/hr 0.00 in0.0 mm
04:30 AM 33.6°F0.9°C 15.6°F-9.1°C 47% 9.2 mph N14.8 kmh N 17.4 mph28.0 kmh 29.90 in1012.5 mb 0.00 in0.0 mm 0.00 in/hr0.0 mm/hr 0.00 in0.0 mm
04:31 AM 33.6°F0.9°C 15.6°F-9.1°C 47% 8.3 mph N13.4 kmh N 17.4 mph28.0 kmh 29.91 in1012.9 mb 0.00 in0.0 mm 0.00 in/hr0.0 mm/hr 0.00 in0.0 mm
04:32 AM 33.6°F0.9°C 15.6°F-9.1°C 47% 9.8 mph N15.8 kmh N 17.4 mph28.0 kmh 29.91 in1012.9 mb 0.00 in0.0 mm 0.00 in/hr0.0 mm/hr 0.00 in0.0 mm
04:33 AM 33.6°F0.9°C 15.6°F-9.1°C 47% 9.2 mph N14.8 kmh N 17.4 mph28.0 kmh 29.90 in1012.5 mb 0.00 in0.0 mm 0.00 in/hr0.0 mm/hr 0.00 in0.0 mm
04:34 AM 33.6°F0.9°C 15.6°F-9.1°C 47% 7.6 mph N12.2 kmh N 17.4 mph28.0 kmh 29.90 in1012.5 mb 0.00 in0.0 mm 0.00 in/hr0.0 mm/hr 0.00 in0.0 mm
04:35 AM 33.6°F0.9°C 16.1°F-8.8°C 48% 6.0 mph N9.7 kmh N 17.4 mph28.0 kmh 29.91 in1012.9 mb 0.00 in0.0 mm 0.00 in/hr0.0 mm/hr 0.00 in0.0 mm
04:36 AM 33.6°F0.9°C 16.1°F-8.8°C 48% 9.2 mph N14.8 kmh N 17.4 mph28.0 kmh 29.91 in1012.9 mb 0.00 in0.0 mm 0.00 in/hr0.0 mm/hr 0.00 in0.0 mm
04:37 AM 33.8°F1.0°C 15.2°F-9.3°C 46% 8.3 mph N13.4 kmh N 17.4 mph28.0 kmh 29.90 in1012.5 mb 0.00 in0.0 mm 0.00 in/hr0.0 mm/hr 0.00 in0.0 mm
04:38 AM 33.8°F1.0°C 15.2°F-9.3°C 46% 5.4 mph N8.7 kmh N 17.4 mph28.0 kmh 29.90 in1012.5 mb 0.00 in0.0 mm 0.00 in/hr0.0 mm/hr 0.00 in0.0 mm
04:39 AM 33.6°F0.9°C 16.1°F-8.8°C 48% 7.6 mph N12.2 kmh N 17.4 mph28.0 kmh 29.91 in1012.9 mb 0.00 in0.0 mm 0.00 in/hr0.0 mm/hr 0.00 in0.0 mm
04:40 AM 33.8°F1.0°C 15.7°F-9.1°C 47% 9.8 mph N15.8 kmh N 16.8 mph27.0 kmh 29.91 in1012.9 mb 0.00 in0.0 mm 0.00 in/hr0.0 mm/hr 0.00 in0.0 mm
04:45 AM 33.8°F1.0°C 15.7°F-9.1°C 47% 6.9 mph N11.1 kmh N 16.8 mph27.0 kmh 29.91 in1012.9 mb 0.00 in0.0 mm 0.00 in/hr0.0 mm/hr 0.00 in0.0 mm
04:46 AM 33.8°F1.0°C 15.7°F-9.1°C 47% 9.2 mph NNW14.8 kmh NNW 14.5 mph23.3 kmh 29.91 in1012.9 mb 0.00 in0.0 mm 0.00 in/hr0.0 mm/hr 0.00 in0.0 mm
04:47 AM 34.0°F1.1°C 15.9°F-8.9°C 47% 10.7 mph NNW17.2 kmh NNW 15.2 mph24.5 kmh 29.91 in1012.9 mb 0.00 in0.0 mm 0.00 in/hr0.0 mm/hr 0.00 in0.0 mm
04:48 AM 34.0°F1.1°C 15.9°F-8.9°C 47% 8.3 mph NNW13.4 kmh NNW 15.2 mph24.5 kmh 29.91 in1012.9 mb 0.00 in0.0 mm 0.00 in/hr0.0 mm/hr 0.00 in0.0 mm
04:49 AM 33.8°F1.0°C 15.7°F-9.1°C 47% 6.0 mph NNW9.7 kmh NNW 15.2 mph24.5 kmh 29.91 in1012.9 mb 0.00 in0.0 mm 0.00 in/hr0.0 mm/hr 0.00 in0.0 mm
04:50 AM 33.8°F1.0°C 15.7°F-9.1°C 47% 6.9 mph NNW11.1 kmh NNW 15.2 mph24.5 kmh 29.91 in1012.9 mb 0.00 in0.0 mm 0.00 in/hr0.0 mm/hr 0.00 in0.0 mm
04:51 AM 33.8°F1.0°C 15.7°F-9.1°C 47% 6.9 mph NW11.1 kmh NW 15.2 mph24.5 kmh 29.91 in1012.9 mb 0.00 in0.0 mm 0.00 in/hr0.0 mm/hr 0.00 in0.0 mm
04:52 AM 33.8°F1.0°C 15.7°F-9.1°C 47% 8.3 mph NNW13.4 kmh NNW 15.2 mph24.5 kmh 29.91 in1012.9 mb 0.00 in0.0 mm 0.00 in/hr0.0 mm/hr 0.00 in0.0 mm
04:53 AM 34.0°F1.1°C 15.9°F-8.9°C 47% 9.2 mph NNW14.8 kmh NNW 15.9 mph25.6 kmh 29.91 in1012.9 mb 0.00 in0.0 mm 0.00 in/hr0.0 mm/hr 0.00 in0.0 mm
04:54 AM 34.0°F1.1°C 15.9°F-8.9°C 47% 11.4 mph N18.3 kmh N 16.8 mph27.0 kmh 29.91 in1012.9 mb 0.00 in0.0 mm 0.00 in/hr0.0 mm/hr 0.00 in0.0 mm
04:55 AM 34.0°F1.1°C 15.9°F-8.9°C 47% 11.4 mph N18.3 kmh N 18.3 mph29.5 kmh 29.91 in1012.9 mb 0.00 in0.0 mm 0.00 in/hr0.0 mm/hr 0.00 in0.0 mm
04:56 AM 34.0°F1.1°C 15.9°F-8.9°C 47% 9.8 mph N15.8 kmh N 18.3 mph29.5 kmh 29.91 in1012.9 mb 0.00 in0.0 mm 0.00 in/hr0.0 mm/hr 0.00 in0.0 mm
04:57 AM 33.8°F1.0°C 15.7°F-9.1°C 47% 6.0 mph N9.7 kmh N 18.3 mph29.5 kmh 29.91 in1012.9 mb 0.00 in0.0 mm 0.00 in/hr0.0 mm/hr 0.00 in0.0 mm
04:58 AM 33.8°F1.0°C 15.7°F-9.1°C 47% 6.9 mph NNE11.1 kmh NNE 18.3 mph29.5 kmh 29.91 in1012.9 mb 0.00 in0.0 mm 0.00 in/hr0.0 mm/hr 0.00 in0.0 mm
04:59 AM 33.8°F1.0°C 16.2°F-8.8°C 48% 11.4 mph N18.3 kmh N 18.3 mph29.5 kmh 29.91 in1012.9 mb 0.00 in0.0 mm 0.00 in/hr0.0 mm/hr 0.00 in0.0 mm
05:00 AM 33.8°F1.0°C 16.2°F-8.8°C 48% 6.0 mph N9.7 kmh N 18.3 mph29.5 kmh 29.91 in1012.9 mb 0.00 in0.0 mm 0.00 in/hr0.0 mm/hr 0.00 in0.0 mm
05:01 AM 33.8°F1.0°C 16.2°F-8.8°C 48% 6.0 mph N9.7 kmh N 18.3 mph29.5 kmh 29.91 in1012.9 mb 0.00 in0.0 mm 0.00 in/hr0.0 mm/hr 0.00 in0.0 mm
05:02 AM 33.8°F1.0°C 16.2°F-8.8°C 48% 6.0 mph N9.7 kmh N 18.3 mph29.5 kmh 29.90 in1012.5 mb 0.00 in0.0 mm 0.00 in/hr0.0 mm/hr 0.00 in0.0 mm
05:03 AM 33.8°F1.0°C 16.2°F-8.8°C 48% 6.0 mph NNE9.7 kmh NNE 18.3 mph29.5 kmh 29.90 in1012.5 mb 0.00 in0.0 mm 0.00 in/hr0.0 mm/hr 0.00 in0.0 mm
05:04 AM 33.8°F1.0°C 16.2°F-8.8°C 48% 6.0 mph NNE9.7 kmh NNE 18.3 mph29.5 kmh 29.90 in1012.5 mb 0.00 in0.0 mm 0.00 in/hr0.0 mm/hr 0.00 in0.0 mm
05:05 AM 33.8°F1.0°C 16.2°F-8.8°C 48% 6.0 mph NNE9.7 kmh NNE 18.3 mph29.5 kmh 29.90 in1012.5 mb 0.00 in0.0 mm 0.00 in/hr0.0 mm/hr 0.00 in0.0 mm
05:06 AM 33.8°F1.0°C 16.2°F-8.8°C 48% 6.0 mph NNE9.7 kmh NNE 18.3 mph29.5 kmh 29.90 in1012.5 mb 0.00 in0.0 mm 0.00 in/hr0.0 mm/hr 0.00 in0.0 mm
05:07 AM 33.8°F1.0°C 16.2°F-8.8°C 48% 6.0 mph NNE9.7 kmh NNE 18.3 mph29.5 kmh 29.90 in1012.5 mb 0.00 in0.0 mm 0.00 in/hr0.0 mm/hr 0.00 in0.0 mm
05:08 AM 33.6°F0.9°C 17.5°F-8.1°C 51% 11.4 mph N18.3 kmh N 20.6 mph33.2 kmh 29.90 in1012.5 mb 0.00 in0.0 mm 0.00 in/hr0.0 mm/hr 0.00 in0.0 mm
05:09 AM 33.8°F1.0°C 17.2°F-8.2°C 50% 15.9 mph NNE25.6 kmh NNE 22.8 mph36.7 kmh 29.90 in1012.5 mb 0.00 in0.0 mm 0.00 in/hr0.0 mm/hr 0.00 in0.0 mm
05:10 AM 33.8°F1.0°C 16.2°F-8.8°C 48% 7.6 mph NNE12.2 kmh NNE 22.8 mph36.7 kmh 29.90 in1012.5 mb 0.00 in0.0 mm 0.00 in/hr0.0 mm/hr 0.00 in0.0 mm
05:11 AM 33.8°F1.0°C 16.2°F-8.8°C 48% 10.7 mph N17.2 kmh N 22.8 mph36.7 kmh 29.90 in1012.5 mb 0.00 in0.0 mm 0.00 in/hr0.0 mm/hr 0.00 in0.0 mm
05:12 AM 33.6°F0.9°C 17.0°F-8.3°C 50% 9.8 mph NNE15.8 kmh NNE 22.8 mph36.7 kmh 29.90 in1012.5 mb 0.00 in0.0 mm 0.00 in/hr0.0 mm/hr 0.00 in0.0 mm
05:13 AM 33.6°F0.9°C 17.5°F-8.1°C 51% 9.8 mph N15.8 kmh N 22.8 mph36.7 kmh 29.90 in1012.5 mb 0.00 in0.0 mm 0.00 in/hr0.0 mm/hr 0.00 in0.0 mm
05:14 AM 33.6°F0.9°C 17.5°F-8.1°C 51% 11.4 mph NNE18.3 kmh NNE 22.8 mph36.7 kmh 29.90 in1012.5 mb 0.00 in0.0 mm 0.00 in/hr0.0 mm/hr 0.00 in0.0 mm
05:15 AM 33.8°F1.0°C 16.2°F-8.8°C 48% 9.2 mph N14.8 kmh N 22.8 mph36.7 kmh 29.90 in1012.5 mb 0.00 in0.0 mm 0.00 in/hr0.0 mm/hr 0.00 in0.0 mm
05:16 AM 33.6°F0.9°C 17.0°F-8.3°C 50% 9.8 mph N15.8 kmh N 22.8 mph36.7 kmh 29.90 in1012.5 mb 0.00 in0.0 mm 0.00 in/hr0.0 mm/hr 0.00 in0.0 mm
05:17 AM 33.6°F0.9°C 17.5°F-8.1°C 51% 7.6 mph N12.2 kmh N 22.8 mph36.7 kmh 29.90 in1012.5 mb 0.00 in0.0 mm 0.00 in/hr0.0 mm/hr 0.00 in0.0 mm
05:18 AM 33.4°F0.8°C 17.3°F-8.2°C 51% 6.0 mph NNE9.7 kmh NNE 22.8 mph36.7 kmh 29.90 in1012.5 mb 0.00 in0.0 mm 0.00 in/hr0.0 mm/hr 0.00 in0.0 mm
05:19 AM 33.4°F0.8°C 17.3°F-8.2°C 51% 9.2 mph N14.8 kmh N 22.8 mph36.7 kmh 29.90 in1012.5 mb 0.00 in0.0 mm 0.00 in/hr0.0 mm/hr 0.00 in0.0 mm
05:20 AM 33.4°F0.8°C 17.3°F-8.2°C 51% 7.6 mph N12.2 kmh N 17.4 mph28.0 kmh 29.90 in1012.5 mb 0.00 in0.0 mm 0.00 in/hr0.0 mm/hr 0.00 in0.0 mm
05:21 AM 33.4°F0.8°C 17.3°F-8.2°C 51% 7.6 mph N12.2 kmh N 17.4 mph28.0 kmh 29.90 in1012.5 mb 0.00 in0.0 mm 0.00 in/hr0.0 mm/hr 0.00 in0.0 mm
05:22 AM 33.4°F0.8°C 17.3°F-8.2°C 51% 6.0 mph N9.7 kmh N 17.4 mph28.0 kmh 29.90 in1012.5 mb 0.00 in0.0 mm 0.00 in/hr0.0 mm/hr 0.00 in0.0 mm
05:23 AM 33.4°F0.8°C 17.7°F-7.9°C 52% 8.3 mph N13.4 kmh N 17.4 mph28.0 kmh 29.90 in1012.5 mb 0.00 in0.0 mm 0.00 in/hr0.0 mm/hr 0.00 in0.0 mm
05:24 AM 33.4°F0.8°C 17.7°F-7.9°C 52% 8.3 mph N13.4 kmh N 17.4 mph28.0 kmh 29.90 in1012.5 mb 0.00 in0.0 mm 0.00 in/hr0.0 mm/hr 0.00 in0.0 mm
05:25 AM 33.4°F0.8°C 17.3°F-8.2°C 51% 6.9 mph NNW11.1 kmh NNW 14.5 mph23.3 kmh 29.90 in1012.5 mb 0.00 in0.0 mm 0.00 in/hr0.0 mm/hr 0.00 in0.0 mm
05:26 AM 33.4°F0.8°C 17.3°F-8.2°C 51% 6.9 mph NNW11.1 kmh NNW 14.5 mph23.3 kmh 29.91 in1012.9 mb 0.00 in0.0 mm 0.00 in/hr0.0 mm/hr 0.00 in0.0 mm
05:27 AM 33.4°F0.8°C 17.7°F-7.9°C 52% 8.3 mph NNW13.4 kmh NNW 14.5 mph23.3 kmh 29.91 in1012.9 mb 0.00 in0.0 mm 0.00 in/hr0.0 mm/hr 0.00 in0.0 mm
05:28 AM 33.4°F0.8°C 17.7°F-7.9°C 52% 9.8 mph NW15.8 kmh NW 15.2 mph24.5 kmh 29.90 in1012.5 mb 0.00 in0.0 mm 0.00 in/hr0.0 mm/hr 0.00 in0.0 mm
05:29 AM 33.4°F0.8°C 17.7°F-7.9°C 52% 6.0 mph NW9.7 kmh NW 15.2 mph24.5 kmh 29.90 in1012.5 mb 0.00 in0.0 mm 0.00 in/hr0.0 mm/hr 0.00 in0.0 mm
05:30 AM 33.4°F0.8°C 17.7°F-7.9°C 52% 6.9 mph NNW11.1 kmh NNW 15.2 mph24.5 kmh 29.91 in1012.9 mb 0.00 in0.0 mm 0.00 in/hr0.0 mm/hr 0.00 in0.0 mm
05:31 AM 33.3°F0.7°C 17.6°F-8.0°C 52% 5.4 mph NW8.7 kmh NW 15.2 mph24.5 kmh 29.91 in1012.9 mb 0.00 in0.0 mm 0.00 in/hr0.0 mm/hr 0.00 in0.0 mm
05:32 AM 33.3°F0.7°C 17.6°F-8.0°C 52% 4.5 mph NW7.2 kmh NW 15.2 mph24.5 kmh 29.91 in1012.9 mb 0.00 in0.0 mm 0.00 in/hr0.0 mm/hr 0.00 in0.0 mm
05:33 AM 33.3°F0.7°C 18.0°F-7.8°C 53% 8.3 mph NW13.4 kmh NW 15.2 mph24.5 kmh 29.91 in1012.9 mb 0.00 in0.0 mm 0.00 in/hr0.0 mm/hr 0.00 in0.0 mm
05:34 AM 33.4°F0.8°C 18.2°F-7.7°C 53% 3.8 mph NW6.1 kmh NW 15.2 mph24.5 kmh 29.91 in1012.9 mb 0.00 in0.0 mm 0.00 in/hr0.0 mm/hr 0.00 in0.0 mm
05:35 AM 33.3°F0.7°C 18.0°F-7.8°C 53% 6.0 mph NW9.7 kmh NW 15.2 mph24.5 kmh 29.91 in1012.9 mb 0.00 in0.0 mm 0.00 in/hr0.0 mm/hr 0.00 in0.0 mm
05:36 AM 33.4°F0.8°C 18.2°F-7.7°C 53% 8.3 mph NW13.4 kmh NW 15.2 mph24.5 kmh 29.91 in1012.9 mb 0.00 in0.0 mm 0.00 in/hr0.0 mm/hr 0.00 in0.0 mm
05:37 AM 33.3°F0.7°C 18.0°F-7.8°C 53% 4.5 mph NW7.2 kmh NW 15.2 mph24.5 kmh 29.91 in1012.9 mb 0.00 in0.0 mm 0.00 in/hr0.0 mm/hr 0.00 in0.0 mm
05:38 AM 33.3°F0.7°C 18.0°F-7.8°C 53% 5.4 mph NNW8.7 kmh NNW 10.7 mph17.2 kmh 29.91 in1012.9 mb 0.00 in0.0 mm 0.00 in/hr0.0 mm/hr 0.00 in0.0 mm
05:39 AM 33.3°F0.7°C 18.0°F-7.8°C 53% 2.2 mph NNW3.5 kmh NNW 10.7 mph17.2 kmh 29.91 in1012.9 mb 0.00 in0.0 mm 0.00 in/hr0.0 mm/hr 0.00 in0.0 mm
05:40 AM 33.3°F0.7°C 18.0°F-7.8°C 53% 9.2 mph N14.8 kmh N 13.6 mph21.9 kmh 29.92 in1013.2 mb 0.00 in0.0 mm 0.00 in/hr0.0 mm/hr 0.00 in0.0 mm
05:41 AM 33.3°F0.7°C 18.9°F-7.3°C 55% 5.4 mph N8.7 kmh N 13.6 mph21.9 kmh 29.92 in1013.2 mb 0.00 in0.0 mm 0.00 in/hr0.0 mm/hr 0.00 in0.0 mm
05:42 AM 33.3°F0.7°C 18.9°F-7.3°C 55% 4.5 mph N7.2 kmh N 13.6 mph21.9 kmh 29.91 in1012.9 mb 0.00 in0.0 mm 0.00 in/hr0.0 mm/hr 0.00 in0.0 mm
05:43 AM 33.3°F0.7°C 18.9°F-7.3°C 55% 6.0 mph N9.7 kmh N 13.6 mph21.9 kmh 29.92 in1013.2 mb 0.00 in0.0 mm 0.00 in/hr0.0 mm/hr 0.00 in0.0 mm
05:46 AM 33.6°F0.9°C 18.3°F-7.6°C 53% 9.8 mph N15.8 kmh N 15.9 mph25.6 kmh 29.92 in1013.2 mb 0.00 in0.0 mm 0.00 in/hr0.0 mm/hr 0.00 in0.0 mm
05:47 AM 33.6°F0.9°C 18.3°F-7.6°C 53% 6.9 mph N11.1 kmh N 15.9 mph25.6 kmh 29.92 in1013.2 mb 0.00 in0.0 mm 0.00 in/hr0.0 mm/hr 0.00 in0.0 mm
05:48 AM 33.6°F0.9°C 18.3°F-7.6°C 53% 5.4 mph N8.7 kmh N 15.9 mph25.6 kmh 29.92 in1013.2 mb 0.00 in0.0 mm 0.00 in/hr0.0 mm/hr 0.00 in0.0 mm
05:49 AM 33.6°F0.9°C 18.3°F-7.6°C 53% 6.0 mph NNE9.7 kmh NNE 15.9 mph25.6 kmh 29.92 in1013.2 mb 0.00 in0.0 mm 0.00 in/hr0.0 mm/hr 0.00 in0.0 mm
05:50 AM 33.6°F0.9°C 18.3°F-7.6°C 53% 6.9 mph N11.1 kmh N 15.9 mph25.6 kmh 29.92 in1013.2 mb 0.00 in0.0 mm 0.00 in/hr0.0 mm/hr 0.00 in0.0 mm
05:51 AM 33.4°F0.8°C 18.2°F-7.7°C 53% 6.9 mph N11.1 kmh N 15.9 mph25.6 kmh 29.92 in1013.2 mb 0.00 in0.0 mm 0.00 in/hr0.0 mm/hr 0.00 in0.0 mm
05:52 AM 33.6°F0.9°C 18.3°F-7.6°C 53% 8.3 mph N13.4 kmh N 15.9 mph25.6 kmh 29.92 in1013.2 mb 0.00 in0.0 mm 0.00 in/hr0.0 mm/hr 0.00 in0.0 mm
05:53 AM 33.6°F0.9°C 18.3°F-7.6°C 53% 6.9 mph N11.1 kmh N 15.9 mph25.6 kmh 29.92 in1013.2 mb 0.00 in0.0 mm 0.00 in/hr0.0 mm/hr 0.00 in0.0 mm
05:54 AM 33.6°F0.9°C 18.3°F-7.6°C 53% 6.0 mph N9.7 kmh N 15.9 mph25.6 kmh 29.92 in1013.2 mb 0.00 in0.0 mm 0.00 in/hr0.0 mm/hr 0.00 in0.0 mm
05:55 AM 33.6°F0.9°C 19.2°F-7.1°C 55% 5.4 mph N8.7 kmh N 13.6 mph21.9 kmh 29.92 in1013.2 mb 0.00 in0.0 mm 0.00 in/hr0.0 mm/hr 0.00 in0.0 mm
05:56 AM 33.6°F0.9°C 19.2°F-7.1°C 55% 5.4 mph N8.7 kmh N 13.6 mph21.9 kmh 29.92 in1013.2 mb 0.00 in0.0 mm 0.00 in/hr0.0 mm/hr 0.00 in0.0 mm
05:57 AM 33.4°F0.8°C 19.0°F-7.2°C 55% 7.6 mph N12.2 kmh N 13.6 mph21.9 kmh 29.92 in1013.2 mb 0.00 in0.0 mm 0.00 in/hr0.0 mm/hr 0.00 in0.0 mm
05:58 AM 33.4°F0.8°C 19.5°F-6.9°C 56% 7.6 mph N12.2 kmh N 13.6 mph21.9 kmh 29.92 in1013.2 mb 0.00 in0.0 mm 0.00 in/hr0.0 mm/hr 0.00 in0.0 mm
05:59 AM 33.4°F0.8°C 19.5°F-6.9°C 56% 6.9 mph NNW11.1 kmh NNW 13.6 mph21.9 kmh 29.92 in1013.2 mb 0.00 in0.0 mm 0.00 in/hr0.0 mm/hr 0.00 in0.0 mm
06:00 AM 33.4°F0.8°C 19.5°F-6.9°C 56% 6.0 mph N9.7 kmh N 13.6 mph21.9 kmh 29.92 in1013.2 mb 0.00 in0.0 mm 0.00 in/hr0.0 mm/hr 0.00 in0.0 mm
06:01 AM 33.4°F0.8°C 19.5°F-6.9°C 56% 7.6 mph N12.2 kmh N 13.6 mph21.9 kmh 29.92 in1013.2 mb 0.00 in0.0 mm 0.00 in/hr0.0 mm/hr 0.00 in0.0 mm
06:02 AM 33.4°F0.8°C 19.5°F-6.9°C 56% 9.2 mph N14.8 kmh N 13.6 mph21.9 kmh 29.92 in1013.2 mb 0.00 in0.0 mm 0.00 in/hr0.0 mm/hr 0.00 in0.0 mm
06:03 AM 33.6°F0.9°C 19.6°F-6.9°C 56% 6.0 mph N9.7 kmh N 11.4 mph18.3 kmh 29.92 in1013.2 mb 0.00 in0.0 mm 0.00 in/hr0.0 mm/hr 0.00 in0.0 mm
06:04 AM 33.6°F0.9°C 19.6°F-6.9°C 56% 6.9 mph N11.1 kmh N 11.4 mph18.3 kmh 29.92 in1013.2 mb 0.00 in0.0 mm 0.00 in/hr0.0 mm/hr 0.00 in0.0 mm
06:05 AM 33.6°F0.9°C 19.6°F-6.9°C 56% 6.9 mph N11.1 kmh N 13.6 mph21.9 kmh 29.92 in1013.2 mb 0.00 in0.0 mm 0.00 in/hr0.0 mm/hr 0.00 in0.0 mm
06:06 AM 33.8°F1.0°C 18.5°F-7.5°C 53% 6.0 mph N9.7 kmh N 13.6 mph21.9 kmh 29.92 in1013.2 mb 0.00 in0.0 mm 0.00 in/hr0.0 mm/hr 0.00 in0.0 mm
06:07 AM 33.6°F0.9°C 19.2°F-7.1°C 55% 6.9 mph NNW11.1 kmh NNW 13.6 mph21.9 kmh 29.92 in1013.2 mb 0.00 in0.0 mm 0.00 in/hr0.0 mm/hr 0.00 in0.0 mm
06:08 AM 33.6°F0.9°C 19.6°F-6.9°C 56% 6.0 mph NNW9.7 kmh NNW 13.6 mph21.9 kmh 29.92 in1013.2 mb 0.00 in0.0 mm 0.00 in/hr0.0 mm/hr 0.00 in0.0 mm
06:09 AM 33.6°F0.9°C 19.6°F-6.9°C 56% 6.0 mph NNW9.7 kmh NNW 13.6 mph21.9 kmh 29.92 in1013.2 mb 0.00 in0.0 mm 0.00 in/hr0.0 mm/hr 0.00 in0.0 mm
06:10 AM 33.6°F0.9°C 19.6°F-6.9°C 56% 7.6 mph NNW12.2 kmh NNW 13.6 mph21.9 kmh 29.92 in1013.2 mb 0.00 in0.0 mm 0.00 in/hr0.0 mm/hr 0.00 in0.0 mm
06:11 AM 33.6°F0.9°C 19.6°F-6.9°C 56% 9.8 mph NNW15.8 kmh NNW 15.9 mph25.6 kmh 29.92 in1013.2 mb 0.00 in0.0 mm 0.00 in/hr0.0 mm/hr 0.00 in0.0 mm
06:12 AM 33.8°F1.0°C 19.4°F-7.0°C 55% 10.7 mph NNW17.2 kmh NNW 15.9 mph25.6 kmh 29.92 in1013.2 mb 0.00 in0.0 mm 0.00 in/hr0.0 mm/hr 0.00 in0.0 mm
06:13 AM 33.8°F1.0°C 19.4°F-7.0°C 55% 10.7 mph NNW17.2 kmh NNW 15.9 mph25.6 kmh 29.92 in1013.2 mb 0.00 in0.0 mm 0.00 in/hr0.0 mm/hr 0.00 in0.0 mm
06:14 AM 33.8°F1.0°C 18.5°F-7.5°C 53% 10.7 mph NNW17.2 kmh NNW 15.9 mph25.6 kmh 29.92 in1013.2 mb 0.00 in0.0 mm 0.00 in/hr0.0 mm/hr 0.00 in0.0 mm
06:15 AM 33.8°F1.0°C 18.5°F-7.5°C 53% 5.4 mph N8.7 kmh N 15.9 mph25.6 kmh 29.92 in1013.2 mb 0.00 in0.0 mm 0.00 in/hr0.0 mm/hr 0.00 in0.0 mm
06:16 AM 33.8°F1.0°C 18.5°F-7.5°C 53% 6.0 mph N9.7 kmh N 15.9 mph25.6 kmh 29.92 in1013.2 mb 0.00 in0.0 mm 0.00 in/hr0.0 mm/hr 0.00 in0.0 mm
06:17 AM 33.8°F1.0°C 18.5°F-7.5°C 53% 5.4 mph N8.7 kmh N 15.9 mph25.6 kmh 29.92 in1013.2 mb 0.00 in0.0 mm 0.00 in/hr0.0 mm/hr 0.00 in0.0 mm
06:18 AM 33.6°F0.9°C 19.6°F-6.9°C 56% 6.0 mph N9.7 kmh N 15.9 mph25.6 kmh 29.92 in1013.2 mb 0.00 in0.0 mm 0.00 in/hr0.0 mm/hr 0.00 in0.0 mm
06:19 AM 33.6°F0.9°C 19.6°F-6.9°C 56% 7.6 mph N12.2 kmh N 15.9 mph25.6 kmh 29.93 in1013.5 mb 0.00 in0.0 mm 0.00 in/hr0.0 mm/hr 0.00 in0.0 mm
06:20 AM 33.6°F0.9°C 19.6°F-6.9°C 56% 9.8 mph N15.8 kmh N 15.9 mph25.6 kmh 29.92 in1013.2 mb 0.00 in0.0 mm 0.00 in/hr0.0 mm/hr 0.00 in0.0 mm
06:21 AM 33.6°F0.9°C 19.6°F-6.9°C 56% 9.8 mph N15.8 kmh N 15.9 mph25.6 kmh 29.92 in1013.2 mb 0.00 in0.0 mm 0.00 in/hr0.0 mm/hr 0.00 in0.0 mm
06:22 AM 33.6°F0.9°C 19.6°F-6.9°C 56% 8.3 mph N13.4 kmh N 16.8 mph27.0 kmh 29.92 in1013.2 mb 0.00 in0.0 mm 0.00 in/hr0.0 mm/hr 0.00 in0.0 mm
06:23 AM 33.8°F1.0°C 19.4°F-7.0°C 55% 7.6 mph N12.2 kmh N 16.8 mph27.0 kmh 29.93 in1013.5 mb 0.00 in0.0 mm 0.00 in/hr0.0 mm/hr 0.00 in0.0 mm
06:24 AM 33.8°F1.0°C 19.4°F-7.0°C 55% 7.6 mph N12.2 kmh N 16.8 mph27.0 kmh 29.93 in1013.5 mb 0.00 in0.0 mm 0.00 in/hr0.0 mm/hr 0.00 in0.0 mm
06:25 AM 33.6°F0.9°C 19.6°F-6.9°C 56% 7.6 mph N12.2 kmh N 16.8 mph27.0 kmh 29.93 in1013.5 mb 0.00 in0.0 mm 0.00 in/hr0.0 mm/hr 0.00 in0.0 mm
06:26 AM 33.8°F1.0°C 19.4°F-7.0°C 55% 7.6 mph N12.2 kmh N 16.8 mph27.0 kmh 29.93 in1013.5 mb 0.00 in0.0 mm 0.00 in/hr0.0 mm/hr 0.00 in0.0 mm
06:27 AM 33.8°F1.0°C 19.4°F-7.0°C 55% 7.6 mph N12.2 kmh N 16.8 mph27.0 kmh 29.93 in1013.5 mb 0.00 in0.0 mm 0.00 in/hr0.0 mm/hr 0.00 in0.0 mm
06:28 AM 33.8°F1.0°C 19.4°F-7.0°C 55% 12.1 mph N19.5 kmh N 16.8 mph27.0 kmh 29.93 in1013.5 mb 0.00 in0.0 mm 0.00 in/hr0.0 mm/hr 0.00 in0.0 mm
06:29 AM 33.6°F0.9°C 19.6°F-6.9°C 56% 9.2 mph N14.8 kmh N 16.8 mph27.0 kmh 29.93 in1013.5 mb 0.00 in0.0 mm 0.00 in/hr0.0 mm/hr 0.00 in0.0 mm
06:30 AM 33.8°F1.0°C 19.4°F-7.0°C 55% 9.8 mph N15.8 kmh N 16.8 mph27.0 kmh 29.93 in1013.5 mb 0.00 in0.0 mm 0.00 in/hr0.0 mm/hr 0.00 in0.0 mm
06:31 AM 33.8°F1.0°C 19.4°F-7.0°C 55% 5.4 mph N8.7 kmh N 16.8 mph27.0 kmh 29.93 in1013.5 mb 0.00 in0.0 mm 0.00 in/hr0.0 mm/hr 0.00 in0.0 mm
06:32 AM 33.8°F1.0°C 19.4°F-7.0°C 55% 5.4 mph N8.7 kmh N 16.8 mph27.0 kmh 29.93 in1013.5 mb 0.00 in0.0 mm 0.00 in/hr0.0 mm/hr 0.00 in0.0 mm
06:33 AM 33.8°F1.0°C 19.4°F-7.0°C 55% 6.0 mph N9.7 kmh N 13.6 mph21.9 kmh 29.93 in1013.5 mb 0.00 in0.0 mm 0.00 in/hr0.0 mm/hr 0.00 in0.0 mm
06:34 AM 33.8°F1.0°C 19.4°F-7.0°C 55% 5.4 mph N8.7 kmh N 13.6 mph21.9 kmh 29.93 in1013.5 mb 0.00 in0.0 mm 0.00 in/hr0.0 mm/hr 0.00 in0.0 mm
06:35 AM 33.8°F1.0°C 19.4°F-7.0°C 55% 6.9 mph N11.1 kmh N 13.6 mph21.9 kmh 29.93 in1013.5 mb 0.00 in0.0 mm 0.00 in/hr0.0 mm/hr 0.00 in0.0 mm
06:36 AM 33.8°F1.0°C 19.4°F-7.0°C 55% 3.8 mph N6.1 kmh N 13.6 mph21.9 kmh 29.93 in1013.5 mb 0.00 in0.0 mm 0.00 in/hr0.0 mm/hr 0.00 in0.0 mm
06:37 AM 33.6°F0.9°C 19.6°F-6.9°C 56% 3.8 mph N6.1 kmh N 13.6 mph21.9 kmh 29.93 in1013.5 mb 0.00 in0.0 mm 0.00 in/hr0.0 mm/hr 0.00 in0.0 mm
06:38 AM 33.6°F0.9°C 19.6°F-6.9°C 56% 2.2 mph N3.5 kmh N 13.6 mph21.9 kmh 29.93 in1013.5 mb 0.00 in0.0 mm 0.00 in/hr0.0 mm/hr 0.00 in0.0 mm
06:39 AM 33.6°F0.9°C 19.6°F-6.9°C 56% 5.4 mph N8.7 kmh N 13.6 mph21.9 kmh 29.93 in1013.5 mb 0.00 in0.0 mm 0.00 in/hr0.0 mm/hr 0.00 in0.0 mm
06:40 AM 33.8°F1.0°C 19.4°F-7.0°C 55% 5.4 mph N8.7 kmh N 12.1 mph19.5 kmh 29.94 in1013.9 mb 0.00 in0.0 mm 0.00 in/hr0.0 mm/hr 0.00 in0.0 mm
06:41 AM 33.6°F0.9°C 19.6°F-6.9°C 56% 7.6 mph N12.2 kmh N 11.4 mph18.3 kmh 29.93 in1013.5 mb 0.00 in0.0 mm 0.00 in/hr0.0 mm/hr 0.00 in0.0 mm
06:42 AM 33.6°F0.9°C 19.6°F-6.9°C 56% 8.3 mph N13.4 kmh N 13.0 mph20.9 kmh 29.93 in1013.5 mb 0.00 in0.0 mm 0.00 in/hr0.0 mm/hr 0.00 in0.0 mm
06:43 AM 33.8°F1.0°C 19.4°F-7.0°C 55% 6.9 mph N11.1 kmh N 13.0 mph20.9 kmh 29.93 in1013.5 mb 0.00 in0.0 mm 0.00 in/hr0.0 mm/hr 0.00 in0.0 mm
06:44 AM 33.8°F1.0°C 19.4°F-7.0°C 55% 6.0 mph N9.7 kmh N 13.0 mph20.9 kmh 29.93 in1013.5 mb 0.00 in0.0 mm 0.00 in/hr0.0 mm/hr 0.00 in0.0 mm
06:45 AM 33.8°F1.0°C 19.4°F-7.0°C 55% 6.9 mph NNE11.1 kmh NNE 13.0 mph20.9 kmh 29.93 in1013.5 mb 0.00 in0.0 mm 0.00 in/hr0.0 mm/hr 0.00 in0.0 mm
06:46 AM 33.6°F0.9°C 19.6°F-6.9°C 56% 5.4 mph N8.7 kmh N 13.0 mph20.9 kmh 29.93 in1013.5 mb 0.00 in0.0 mm 0.00 in/hr0.0 mm/hr 0.00 in0.0 mm
06:47 AM 33.6°F0.9°C 19.6°F-6.9°C 56% 6.0 mph N9.7 kmh N 13.0 mph20.9 kmh 29.93 in1013.5 mb 0.00 in0.0 mm 0.00 in/hr0.0 mm/hr 0.00 in0.0 mm
06:48 AM 33.6°F0.9°C 19.6°F-6.9°C 56% 6.9 mph N11.1 kmh N 13.6 mph21.9 kmh 29.93 in1013.5 mb 0.00 in0.0 mm 0.00 in/hr0.0 mm/hr 0.00 in0.0 mm
06:49 AM 33.6°F0.9°C 19.6°F-6.9°C 56% 6.9 mph N11.1 kmh N 13.6 mph21.9 kmh 29.93 in1013.5 mb 0.00 in0.0 mm 0.00 in/hr0.0 mm/hr 0.00 in0.0 mm
06:50 AM 33.6°F0.9°C 19.6°F-6.9°C 56% 9.2 mph N14.8 kmh N 14.5 mph23.3 kmh 29.93 in1013.5 mb 0.00 in0.0 mm 0.00 in/hr0.0 mm/hr 0.00 in0.0 mm
06:51 AM 33.6°F0.9°C 19.6°F-6.9°C 56% 6.9 mph NNE11.1 kmh NNE 14.5 mph23.3 kmh 29.93 in1013.5 mb 0.00 in0.0 mm 0.00 in/hr0.0 mm/hr 0.00 in0.0 mm
06:52 AM 33.6°F0.9°C 19.6°F-6.9°C 56% 7.6 mph NNE12.2 kmh NNE 14.5 mph23.3 kmh 29.93 in1013.5 mb 0.00 in0.0 mm 0.00 in/hr0.0 mm/hr 0.00 in0.0 mm
06:53 AM 33.6°F0.9°C 19.6°F-6.9°C 56% 8.3 mph NNE13.4 kmh NNE 14.5 mph23.3 kmh 29.93 in1013.5 mb 0.00 in0.0 mm 0.00 in/hr0.0 mm/hr 0.00 in0.0 mm
06:54 AM 33.6°F0.9°C 19.6°F-6.9°C 56% 8.3 mph NNE13.4 kmh NNE 16.8 mph27.0 kmh 29.93 in1013.5 mb 0.00 in0.0 mm 0.00 in/hr0.0 mm/hr 0.00 in0.0 mm
06:55 AM 33.6°F0.9°C 19.6°F-6.9°C 56% 8.3 mph N13.4 kmh N 16.8 mph27.0 kmh 29.92 in1013.2 mb 0.00 in0.0 mm 0.00 in/hr0.0 mm/hr 0.00 in0.0 mm
06:56 AM 33.6°F0.9°C 19.6°F-6.9°C 56% 9.2 mph N14.8 kmh N 16.8 mph27.0 kmh 29.93 in1013.5 mb 0.00 in0.0 mm 0.00 in/hr0.0 mm/hr 0.00 in0.0 mm
06:57 AM 33.6°F0.9°C 19.6°F-6.9°C 56% 6.0 mph N9.7 kmh N 16.8 mph27.0 kmh 29.92 in1013.2 mb 0.00 in0.0 mm 0.00 in/hr0.0 mm/hr 0.00 in0.0 mm
06:58 AM 33.6°F0.9°C 19.6°F-6.9°C 56% 8.3 mph NNE13.4 kmh NNE 16.8 mph27.0 kmh 29.93 in1013.5 mb 0.00 in0.0 mm 0.00 in/hr0.0 mm/hr 0.00 in0.0 mm
06:59 AM 33.6°F0.9°C 20.0°F-6.7°C 57% 7.6 mph NNE12.2 kmh NNE 16.8 mph27.0 kmh 29.92 in1013.2 mb 0.00 in0.0 mm 0.00 in/hr0.0 mm/hr 0.00 in0.0 mm
07:00 AM 33.6°F0.9°C 20.0°F-6.7°C 57% 9.8 mph N15.8 kmh N 16.8 mph27.0 kmh 29.92 in1013.2 mb 0.00 in0.0 mm 0.00 in/hr0.0 mm/hr 0.00 in0.0 mm
07:01 AM 33.6°F0.9°C 20.0°F-6.7°C 57% 9.8 mph N15.8 kmh N 16.8 mph27.0 kmh 29.93 in1013.5 mb 0.00 in0.0 mm 0.00 in/hr0.0 mm/hr 0.00 in0.0 mm
07:02 AM 33.6°F0.9°C 20.0°F-6.7°C 57% 9.8 mph N15.8 kmh N 16.8 mph27.0 kmh 29.93 in1013.5 mb 0.00 in0.0 mm 0.00 in/hr0.0 mm/hr 0.00 in0.0 mm
07:03 AM 33.6°F0.9°C 20.0°F-6.7°C 57% 9.8 mph N15.8 kmh N 16.8 mph27.0 kmh 29.93 in1013.5 mb 0.00 in0.0 mm 0.00 in/hr0.0 mm/hr 0.00 in0.0 mm
07:04 AM 33.6°F0.9°C 20.0°F-6.7°C 57% 9.8 mph N15.8 kmh N 16.8 mph27.0 kmh 29.93 in1013.5 mb 0.00 in0.0 mm 0.00 in/hr0.0 mm/hr 0.00 in0.0 mm
07:05 AM 33.6°F0.9°C 20.0°F-6.7°C 57% 9.8 mph N15.8 kmh N 14.5 mph23.3 kmh 29.93 in1013.5 mb 0.00 in0.0 mm 0.00 in/hr0.0 mm/hr 0.00 in0.0 mm
07:06 AM 33.6°F0.9°C 20.0°F-6.7°C 57% 9.8 mph N15.8 kmh N 14.5 mph23.3 kmh 29.93 in1013.5 mb 0.00 in0.0 mm 0.00 in/hr0.0 mm/hr 0.00 in0.0 mm
07:07 AM 33.6°F0.9°C 20.0°F-6.7°C 57% 9.8 mph N15.8 kmh N 14.5 mph23.3 kmh 29.93 in1013.5 mb 0.00 in0.0 mm 0.00 in/hr0.0 mm/hr 0.00 in0.0 mm
07:08 AM 33.8°F1.0°C 19.4°F-7.0°C 55% 4.5 mph NNW7.2 kmh NNW 14.5 mph23.3 kmh 29.93 in1013.5 mb 0.00 in0.0 mm 0.00 in/hr0.0 mm/hr 0.00 in0.0 mm
07:09 AM 33.6°F0.9°C 19.6°F-6.9°C 56% 3.8 mph NNW6.1 kmh NNW 13.6 mph21.9 kmh 29.93 in1013.5 mb 0.00 in0.0 mm 0.00 in/hr0.0 mm/hr 0.00 in0.0 mm
07:10 AM 33.6°F0.9°C 19.6°F-6.9°C 56% 2.2 mph NNW3.5 kmh NNW 13.6 mph21.9 kmh 29.93 in1013.5 mb 0.00 in0.0 mm 0.00 in/hr0.0 mm/hr 0.00 in0.0 mm
07:11 AM 33.6°F0.9°C 19.6°F-6.9°C 56% 2.2 mph N3.5 kmh N 13.6 mph21.9 kmh 29.93 in1013.5 mb 0.00 in0.0 mm 0.00 in/hr0.0 mm/hr 0.00 in0.0 mm
07:12 AM 33.6°F0.9°C 19.6°F-6.9°C 56% 3.1 mph N5.0 kmh N 13.6 mph21.9 kmh 29.94 in1013.9 mb 0.00 in0.0 mm 0.00 in/hr0.0 mm/hr 0.00 in0.0 mm
07:13 AM 33.6°F0.9°C 19.6°F-6.9°C 56% 6.0 mph N9.7 kmh N 13.6 mph21.9 kmh 29.94 in1013.9 mb 0.00 in0.0 mm 0.00 in/hr0.0 mm/hr 0.00 in0.0 mm
07:14 AM 33.6°F0.9°C 19.6°F-6.9°C 56% 4.5 mph N7.2 kmh N 13.6 mph21.9 kmh 29.94 in1013.9 mb 0.00 in0.0 mm 0.00 in/hr0.0 mm/hr 0.00 in0.0 mm
07:15 AM 33.6°F0.9°C 19.6°F-6.9°C 56% 6.0 mph N9.7 kmh N 13.6 mph21.9 kmh 29.94 in1013.9 mb 0.00 in0.0 mm 0.00 in/hr0.0 mm/hr 0.00 in0.0 mm
07:16 AM 33.6°F0.9°C 19.6°F-6.9°C 56% 4.5 mph N7.2 kmh N 13.6 mph21.9 kmh 29.94 in1013.9 mb 0.00 in0.0 mm 0.00 in/hr0.0 mm/hr 0.00 in0.0 mm
07:17 AM 33.6°F0.9°C 20.0°F-6.7°C 57% 3.8 mph N6.1 kmh N 10.7 mph17.2 kmh 29.94 in1013.9 mb 0.00 in0.0 mm 0.00 in/hr0.0 mm/hr 0.00 in0.0 mm
07:18 AM 33.6°F0.9°C 20.0°F-6.7°C 57% 8.3 mph N13.4 kmh N 10.7 mph17.2 kmh 29.94 in1013.9 mb 0.00 in0.0 mm 0.00 in/hr0.0 mm/hr 0.00 in0.0 mm
07:19 AM 33.6°F0.9°C 20.0°F-6.7°C 57% 6.0 mph N9.7 kmh N 10.7 mph17.2 kmh 29.94 in1013.9 mb 0.00 in0.0 mm 0.00 in/hr0.0 mm/hr 0.00 in0.0 mm
07:20 AM 33.6°F0.9°C 19.6°F-6.9°C 56% 4.5 mph NNE7.2 kmh NNE 10.7 mph17.2 kmh 29.94 in1013.9 mb 0.00 in0.0 mm 0.00 in/hr0.0 mm/hr 0.00 in0.0 mm
07:21 AM 33.6°F0.9°C 19.6°F-6.9°C 56% 6.9 mph N11.1 kmh N 10.7 mph17.2 kmh 29.94 in1013.9 mb 0.00 in0.0 mm 0.00 in/hr0.0 mm/hr 0.00 in0.0 mm
07:22 AM 33.6°F0.9°C 19.6°F-6.9°C 56% 6.0 mph NNE9.7 kmh NNE 10.7 mph17.2 kmh 29.94 in1013.9 mb 0.00 in0.0 mm 0.00 in/hr0.0 mm/hr 0.00 in0.0 mm
07:23 AM 33.6°F0.9°C 20.0°F-6.7°C 57% 4.5 mph NNE7.2 kmh NNE 10.7 mph17.2 kmh 29.94 in1013.9 mb 0.00 in0.0 mm 0.00 in/hr0.0 mm/hr 0.00 in0.0 mm
07:24 AM 33.4°F0.8°C 19.9°F-6.7°C 57% 6.0 mph NNE9.7 kmh NNE 10.7 mph17.2 kmh 29.94 in1013.9 mb 0.00 in0.0 mm 0.00 in/hr0.0 mm/hr 0.00 in0.0 mm
07:25 AM 33.4°F0.8°C 19.9°F-6.7°C 57% 5.4 mph NNE8.7 kmh NNE 10.7 mph17.2 kmh 29.94 in1013.9 mb 0.00 in0.0 mm 0.00 in/hr0.0 mm/hr 0.00 in0.0 mm
07:26 AM 33.4°F0.8°C 19.9°F-6.7°C 57% 6.0 mph NNE9.7 kmh NNE 10.7 mph17.2 kmh 29.94 in1013.9 mb 0.00 in0.0 mm 0.00 in/hr0.0 mm/hr 0.00 in0.0 mm
07:27 AM 33.6°F0.9°C 20.0°F-6.7°C 57% 5.4 mph NNE8.7 kmh NNE 10.7 mph17.2 kmh 29.93 in1013.5 mb 0.00 in0.0 mm 0.00 in/hr0.0 mm/hr 0.00 in0.0 mm
07:28 AM 33.4°F0.8°C 19.9°F-6.7°C 57% 5.4 mph NNE8.7 kmh NNE 10.7 mph17.2 kmh 29.94 in1013.9 mb 0.00 in0.0 mm 0.00 in/hr0.0 mm/hr 0.00 in0.0 mm
07:29 AM 33.4°F0.8°C 19.9°F-6.7°C 57% 6.0 mph NNE9.7 kmh NNE 10.7 mph17.2 kmh 29.94 in1013.9 mb 0.00 in0.0 mm 0.00 in/hr0.0 mm/hr 0.00 in0.0 mm
07:30 AM 33.4°F0.8°C 19.9°F-6.7°C 57% 6.0 mph N9.7 kmh N 10.7 mph17.2 kmh 29.94 in1013.9 mb 0.00 in0.0 mm 0.00 in/hr0.0 mm/hr 0.00 in0.0 mm
07:31 AM 33.4°F0.8°C 19.9°F-6.7°C 57% 6.9 mph N11.1 kmh N 10.7 mph17.2 kmh 29.94 in1013.9 mb 0.00 in0.0 mm 0.00 in/hr0.0 mm/hr 0.00 in0.0 mm
07:32 AM 33.4°F0.8°C 19.9°F-6.7°C 57% 4.5 mph N7.2 kmh N 10.7 mph17.2 kmh 29.94 in1013.9 mb 0.00 in0.0 mm 0.00 in/hr0.0 mm/hr 0.00 in0.0 mm
07:33 AM 33.4°F0.8°C 19.9°F-6.7°C 57% 4.5 mph N7.2 kmh N 10.7 mph17.2 kmh 29.94 in1013.9 mb 0.00 in0.0 mm 0.00 in/hr0.0 mm/hr 0.00 in0.0 mm
07:34 AM 33.4°F0.8°C 19.9°F-6.7°C 57% 5.4 mph N8.7 kmh N 10.7 mph17.2 kmh 29.94 in1013.9 mb 0.00 in0.0 mm 0.00 in/hr0.0 mm/hr 0.00 in0.0 mm
07:35 AM 33.4°F0.8°C 19.9°F-6.7°C 57% 6.0 mph N9.7 kmh N 10.7 mph17.2 kmh 29.94 in1013.9 mb 0.00 in0.0 mm 0.00 in/hr0.0 mm/hr 0.00 in0.0 mm
07:36 AM 33.4°F0.8°C 19.9°F-6.7°C 57% 9.2 mph N14.8 kmh N 10.7 mph17.2 kmh 29.94 in1013.9 mb 0.00 in0.0 mm 0.00 in/hr0.0 mm/hr 0.00 in0.0 mm
07:37 AM 33.4°F0.8°C 19.9°F-6.7°C 57% 7.6 mph N12.2 kmh N 10.7 mph17.2 kmh 29.94 in1013.9 mb 0.00 in0.0 mm 0.00 in/hr0.0 mm/hr 0.00 in0.0 mm
07:38 AM 33.4°F0.8°C 19.9°F-6.7°C 57% 8.3 mph N13.4 kmh N 15.2 mph24.5 kmh 29.94 in1013.9 mb 0.00 in0.0 mm 0.00 in/hr0.0 mm/hr 0.00 in0.0 mm
07:39 AM 33.4°F0.8°C 19.9°F-6.7°C 57% 6.9 mph N11.1 kmh N 15.2 mph24.5 kmh 29.94 in1013.9 mb 0.00 in0.0 mm 0.00 in/hr0.0 mm/hr 0.00 in0.0 mm
07:40 AM 33.4°F0.8°C 19.9°F-6.7°C 57% 3.8 mph N6.1 kmh N 15.2 mph24.5 kmh 29.94 in1013.9 mb 0.00 in0.0 mm 0.00 in/hr0.0 mm/hr 0.00 in0.0 mm
07:41 AM 33.4°F0.8°C 19.9°F-6.7°C 57% 6.9 mph N11.1 kmh N 15.2 mph24.5 kmh 29.94 in1013.9 mb 0.00 in0.0 mm 0.00 in/hr0.0 mm/hr 0.00 in0.0 mm
07:42 AM 33.4°F0.8°C 20.3°F-6.5°C 58% 6.9 mph N11.1 kmh N 15.2 mph24.5 kmh 29.94 in1013.9 mb 0.00 in0.0 mm 0.00 in/hr0.0 mm/hr 0.00 in0.0 mm
07:43 AM 33.4°F0.8°C 20.3°F-6.5°C 58% 8.3 mph N13.4 kmh N 15.2 mph24.5 kmh 29.94 in1013.9 mb 0.00 in0.0 mm 0.00 in/hr0.0 mm/hr 0.00 in0.0 mm
07:44 AM 33.4°F0.8°C 20.3°F-6.5°C 58% 8.3 mph N13.4 kmh N 15.2 mph24.5 kmh 29.94 in1013.9 mb 0.00 in0.0 mm 0.00 in/hr0.0 mm/hr 0.00 in0.0 mm
07:45 AM 33.6°F0.9°C 20.0°F-6.7°C 57% 5.4 mph N8.7 kmh N 15.2 mph24.5 kmh 29.95 in1014.2 mb 0.00 in0.0 mm 0.00 in/hr0.0 mm/hr 0.00 in0.0 mm
07:46 AM 33.4°F0.8°C 19.9°F-6.7°C 57% 6.0 mph N9.7 kmh N 15.2 mph24.5 kmh 29.95 in1014.2 mb 0.00 in0.0 mm 0.00 in/hr0.0 mm/hr 0.00 in0.0 mm
07:47 AM 33.6°F0.9°C 20.0°F-6.7°C 57% 6.0 mph N9.7 kmh N 15.2 mph24.5 kmh 29.95 in1014.2 mb 0.00 in0.0 mm 0.00 in/hr0.0 mm/hr 0.00 in0.0 mm
07:48 AM 33.6°F0.9°C 20.0°F-6.7°C 57% 6.9 mph NNE11.1 kmh NNE 15.2 mph24.5 kmh 29.95 in1014.2 mb 0.00 in0.0 mm 0.00 in/hr0.0 mm/hr 0.00 in0.0 mm
07:49 AM 33.6°F0.9°C 20.0°F-6.7°C 57% 6.9 mph NNE11.1 kmh NNE 15.9 mph25.6 kmh 29.95 in1014.2 mb 0.00 in0.0 mm 0.00 in/hr0.0 mm/hr 0.00 in0.0 mm
07:50 AM 33.6°F0.9°C 20.0°F-6.7°C 57% 8.3 mph NNE13.4 kmh NNE 15.9 mph25.6 kmh 29.95 in1014.2 mb 0.00 in0.0 mm 0.00 in/hr0.0 mm/hr 0.00 in0.0 mm
07:51 AM 33.6°F0.9°C 20.0°F-6.7°C 57% 9.2 mph N14.8 kmh N 15.9 mph25.6 kmh 29.95 in1014.2 mb 0.00 in0.0 mm 0.00 in/hr0.0 mm/hr 0.00 in0.0 mm
07:52 AM 33.6°F0.9°C 20.0°F-6.7°C 57% 8.3 mph N13.4 kmh N 15.9 mph25.6 kmh 29.95 in1014.2 mb 0.00 in0.0 mm 0.00 in/hr0.0 mm/hr 0.00 in0.0 mm
07:53 AM 33.6°F0.9°C 20.0°F-6.7°C 57% 9.8 mph N15.8 kmh N 15.9 mph25.6 kmh 29.94 in1013.9 mb 0.00 in0.0 mm 0.00 in/hr0.0 mm/hr 0.00 in0.0 mm
07:54 AM 33.6°F0.9°C 20.0°F-6.7°C 57% 6.9 mph N11.1 kmh N 15.9 mph25.6 kmh 29.95 in1014.2 mb 0.00 in0.0 mm 0.00 in/hr0.0 mm/hr 0.00 in0.0 mm
07:55 AM 33.6°F0.9°C 20.0°F-6.7°C 57% 6.9 mph N11.1 kmh N 15.9 mph25.6 kmh 29.94 in1013.9 mb 0.00 in0.0 mm 0.00 in/hr0.0 mm/hr 0.00 in0.0 mm
07:56 AM 33.6°F0.9°C 20.0°F-6.7°C 57% 6.9 mph N11.1 kmh N 15.9 mph25.6 kmh 29.94 in1013.9 mb 0.00 in0.0 mm 0.00 in/hr0.0 mm/hr 0.00 in0.0 mm
07:57 AM 33.6°F0.9°C 20.0°F-6.7°C 57% 7.6 mph N12.2 kmh N 15.9 mph25.6 kmh 29.94 in1013.9 mb 0.00 in0.0 mm 0.00 in/hr0.0 mm/hr 0.00 in0.0 mm
07:58 AM 33.6°F0.9°C 20.0°F-6.7°C 57% 5.4 mph N8.7 kmh N 15.9 mph25.6 kmh 29.94 in1013.9 mb 0.00 in0.0 mm 0.00 in/hr0.0 mm/hr 0.00 in0.0 mm
07:59 AM 33.6°F0.9°C 20.4°F-6.4°C 58% 6.9 mph N11.1 kmh N 13.6 mph21.9 kmh 29.94 in1013.9 mb 0.00 in0.0 mm 0.00 in/hr0.0 mm/hr 0.00 in0.0 mm
08:00 AM 33.4°F0.8°C 20.3°F-6.5°C 58% 4.5 mph NNE7.2 kmh NNE 13.6 mph21.9 kmh 29.94 in1013.9 mb 0.00 in0.0 mm 0.00 in/hr0.0 mm/hr 0.00 in0.0 mm
08:01 AM 33.4°F0.8°C 20.3°F-6.5°C 58% 4.5 mph N7.2 kmh N 13.6 mph21.9 kmh 29.94 in1013.9 mb 0.00 in0.0 mm 0.00 in/hr0.0 mm/hr 0.00 in0.0 mm
08:02 AM 33.4°F0.8°C 20.3°F-6.5°C 58% 6.9 mph N11.1 kmh N 12.1 mph19.5 kmh 29.95 in1014.2 mb 0.00 in0.0 mm 0.00 in/hr0.0 mm/hr 0.00 in0.0 mm
08:03 AM 33.6°F0.9°C 20.4°F-6.4°C 58% 6.9 mph NNE11.1 kmh NNE 12.1 mph19.5 kmh 29.95 in1014.2 mb 0.00 in0.0 mm 0.00 in/hr0.0 mm/hr 0.00 in0.0 mm
08:04 AM 33.6°F0.9°C 20.4°F-6.4°C 58% 7.6 mph N12.2 kmh N 12.1 mph19.5 kmh 29.95 in1014.2 mb 0.00 in0.0 mm 0.00 in/hr0.0 mm/hr 0.00 in0.0 mm
08:05 AM 33.6°F0.9°C 20.0°F-6.7°C 57% 6.9 mph N11.1 kmh N 12.1 mph19.5 kmh 29.95 in1014.2 mb 0.00 in0.0 mm 0.00 in/hr0.0 mm/hr 0.00 in0.0 mm
08:06 AM 33.6°F0.9°C 20.0°F-6.7°C 57% 9.2 mph N14.8 kmh N 13.6 mph21.9 kmh 29.95 in1014.2 mb 0.00 in0.0 mm 0.00 in/hr0.0 mm/hr 0.00 in0.0 mm
08:07 AM 33.6°F0.9°C 20.0°F-6.7°C 57% 8.3 mph N13.4 kmh N 13.6 mph21.9 kmh 29.96 in1014.6 mb 0.00 in0.0 mm 0.00 in/hr0.0 mm/hr 0.00 in0.0 mm
08:08 AM 33.6°F0.9°C 20.0°F-6.7°C 57% 6.0 mph N9.7 kmh N 13.6 mph21.9 kmh 29.95 in1014.2 mb 0.00 in0.0 mm 0.00 in/hr0.0 mm/hr 0.00 in0.0 mm
08:09 AM 33.6°F0.9°C 20.0°F-6.7°C 57% 6.9 mph N11.1 kmh N 13.6 mph21.9 kmh 29.95 in1014.2 mb 0.00 in0.0 mm 0.00 in/hr0.0 mm/hr 0.00 in0.0 mm
08:10 AM 33.6°F0.9°C 20.0°F-6.7°C 57% 6.9 mph N11.1 kmh N 13.6 mph21.9 kmh 29.95 in1014.2 mb 0.00 in0.0 mm 0.00 in/hr0.0 mm/hr 0.00 in0.0 mm
08:11 AM 33.6°F0.9°C 20.0°F-6.7°C 57% 5.4 mph NNW8.7 kmh NNW 13.6 mph21.9 kmh 29.96 in1014.6 mb 0.00 in0.0 mm 0.00 in/hr0.0 mm/hr 0.00 in0.0 mm
08:12 AM 33.6°F0.9°C 20.4°F-6.4°C 58% 3.8 mph NNW6.1 kmh NNW 13.6 mph21.9 kmh 29.95 in1014.2 mb 0.00 in0.0 mm 0.00 in/hr0.0 mm/hr 0.00 in0.0 mm
08:13 AM 33.4°F0.8°C 20.3°F-6.5°C 58% 4.5 mph NNW7.2 kmh NNW 13.6 mph21.9 kmh 29.96 in1014.6 mb 0.00 in0.0 mm 0.00 in/hr0.0 mm/hr 0.00 in0.0 mm
08:14 AM 33.4°F0.8°C 20.3°F-6.5°C 58% 5.4 mph NNW8.7 kmh NNW 13.6 mph21.9 kmh 29.95 in1014.2 mb 0.00 in0.0 mm 0.00 in/hr0.0 mm/hr 0.00 in0.0 mm
08:15 AM 33.6°F0.9°C 20.4°F-6.4°C 58% 6.9 mph NNW11.1 kmh NNW 13.6 mph21.9 kmh 29.95 in1014.2 mb 0.00 in0.0 mm 0.00 in/hr0.0 mm/hr 0.00 in0.0 mm
08:16 AM 33.6°F0.9°C 20.4°F-6.4°C 58% 6.0 mph NNW9.7 kmh NNW 13.6 mph21.9 kmh 29.95 in1014.2 mb 0.00 in0.0 mm 0.00 in/hr0.0 mm/hr 0.00 in0.0 mm
08:17 AM 33.6°F0.9°C 20.4°F-6.4°C 58% 5.4 mph NNW8.7 kmh NNW 13.0 mph20.9 kmh 29.95 in1014.2 mb 0.00 in0.0 mm 0.00 in/hr0.0 mm/hr 0.00 in0.0 mm
08:18 AM 33.6°F0.9°C 20.4°F-6.4°C 58% 8.3 mph NNW13.4 kmh NNW 13.0 mph20.9 kmh 29.95 in1014.2 mb 0.00 in0.0 mm 0.00 in/hr0.0 mm/hr 0.00 in0.0 mm
08:19 AM 33.6°F0.9°C 20.4°F-6.4°C 58% 6.9 mph NNW11.1 kmh NNW 13.0 mph20.9 kmh 29.95 in1014.2 mb 0.00 in0.0 mm 0.00 in/hr0.0 mm/hr 0.00 in0.0 mm
08:20 AM 33.6°F0.9°C 20.4°F-6.4°C 58% 7.6 mph NNW12.2 kmh NNW 13.6 mph21.9 kmh 29.95 in1014.2 mb 0.00 in0.0 mm 0.00 in/hr0.0 mm/hr 0.00 in0.0 mm
08:21 AM 33.6°F0.9°C 20.4°F-6.4°C 58% 6.9 mph NNW11.1 kmh NNW 15.2 mph24.5 kmh 29.96 in1014.6 mb 0.00 in0.0 mm 0.00 in/hr0.0 mm/hr 0.00 in0.0 mm
08:22 AM 33.6°F0.9°C 20.4°F-6.4°C 58% 6.0 mph NNW9.7 kmh NNW 15.2 mph24.5 kmh 29.95 in1014.2 mb 0.00 in0.0 mm 0.00 in/hr0.0 mm/hr 0.00 in0.0 mm
08:23 AM 33.6°F0.9°C 20.4°F-6.4°C 58% 6.9 mph NNW11.1 kmh NNW 15.2 mph24.5 kmh 29.95 in1014.2 mb 0.00 in0.0 mm 0.00 in/hr0.0 mm/hr 0.00 in0.0 mm
08:24 AM 33.6°F0.9°C 20.4°F-6.4°C 58% 7.6 mph NNW12.2 kmh NNW 15.2 mph24.5 kmh 29.95 in1014.2 mb 0.00 in0.0 mm 0.00 in/hr0.0 mm/hr 0.00 in0.0 mm
08:25 AM 33.6°F0.9°C 20.4°F-6.4°C 58% 6.9 mph NNW11.1 kmh NNW 15.2 mph24.5 kmh 29.95 in1014.2 mb 0.00 in0.0 mm 0.00 in/hr0.0 mm/hr 0.00 in0.0 mm
08:26 AM 33.6°F0.9°C 20.4°F-6.4°C 58% 6.0 mph NNW9.7 kmh NNW 15.2 mph24.5 kmh 29.96 in1014.6 mb 0.00 in0.0 mm 0.00 in/hr0.0 mm/hr 0.00 in0.0 mm
08:27 AM 33.6°F0.9°C 20.4°F-6.4°C 58% 7.6 mph NNW12.2 kmh NNW 15.2 mph24.5 kmh 29.96 in1014.6 mb 0.00 in0.0 mm 0.00 in/hr0.0 mm/hr 0.00 in0.0 mm
08:28 AM 33.6°F0.9°C 20.4°F-6.4°C 58% 5.4 mph NNW8.7 kmh NNW 15.2 mph24.5 kmh 29.96 in1014.6 mb 0.00 in0.0 mm 0.00 in/hr0.0 mm/hr 0.00 in0.0 mm
08:29 AM 33.6°F0.9°C 20.4°F-6.4°C 58% 7.6 mph NNW12.2 kmh NNW 15.2 mph24.5 kmh 29.96 in1014.6 mb 0.00 in0.0 mm 0.00 in/hr0.0 mm/hr 0.00 in0.0 mm
08:30 AM 33.6°F0.9°C 20.4°F-6.4°C 58% 8.3 mph NNW13.4 kmh NNW 15.2 mph24.5 kmh 29.96 in1014.6 mb 0.00 in0.0 mm 0.00 in/hr0.0 mm/hr 0.00 in0.0 mm
08:31 AM 33.6°F0.9°C 20.4°F-6.4°C 58% 6.9 mph NNW11.1 kmh NNW 13.6 mph21.9 kmh 29.96 in1014.6 mb 0.00 in0.0 mm 0.00 in/hr0.0 mm/hr 0.00 in0.0 mm
08:32 AM 33.6°F0.9°C 20.4°F-6.4°C 58% 5.4 mph N8.7 kmh N 13.6 mph21.9 kmh 29.96 in1014.6 mb 0.00 in0.0 mm 0.00 in/hr0.0 mm/hr 0.00 in0.0 mm
08:33 AM 33.6°F0.9°C 20.4°F-6.4°C 58% 6.0 mph N9.7 kmh N 13.6 mph21.9 kmh 29.96 in1014.6 mb 0.00 in0.0 mm 0.00 in/hr0.0 mm/hr 0.00 in0.0 mm
08:34 AM 33.6°F0.9°C 20.4°F-6.4°C 58% 6.9 mph N11.1 kmh N 13.6 mph21.9 kmh 29.96 in1014.6 mb 0.00 in0.0 mm 0.00 in/hr0.0 mm/hr 0.00 in0.0 mm
08:35 AM 33.6°F0.9°C 20.4°F-6.4°C 58% 7.6 mph N12.2 kmh N 13.6 mph21.9 kmh 29.96 in1014.6 mb 0.00 in0.0 mm 0.00 in/hr0.0 mm/hr 0.00 in0.0 mm
08:36 AM 33.6°F0.9°C 20.4°F-6.4°C 58% 6.9 mph N11.1 kmh N 13.6 mph21.9 kmh 29.96 in1014.6 mb 0.00 in0.0 mm 0.00 in/hr0.0 mm/hr 0.00 in0.0 mm
08:37 AM 33.6°F0.9°C 20.4°F-6.4°C 58% 5.4 mph N8.7 kmh N 13.6 mph21.9 kmh 29.96 in1014.6 mb 0.00 in0.0 mm 0.00 in/hr0.0 mm/hr 0.00 in0.0 mm
08:38 AM 33.6°F0.9°C 20.4°F-6.4°C 58% 5.4 mph N8.7 kmh N 13.6 mph21.9 kmh 29.96 in1014.6 mb 0.00 in0.0 mm 0.00 in/hr0.0 mm/hr 0.00 in0.0 mm
08:39 AM 33.6°F0.9°C 20.4°F-6.4°C 58% 6.0 mph N9.7 kmh N 13.6 mph21.9 kmh 29.96 in1014.6 mb 0.00 in0.0 mm 0.00 in/hr0.0 mm/hr 0.00 in0.0 mm
08:40 AM 33.6°F0.9°C 20.4°F-6.4°C 58% 7.6 mph NNE12.2 kmh NNE 13.6 mph21.9 kmh 29.96 in1014.6 mb 0.00 in0.0 mm 0.00 in/hr0.0 mm/hr 0.00 in0.0 mm
08:41 AM 33.6°F0.9°C 20.4°F-6.4°C 58% 6.9 mph NNE11.1 kmh NNE 13.6 mph21.9 kmh 29.96 in1014.6 mb 0.00 in0.0 mm 0.00 in/hr0.0 mm/hr 0.00 in0.0 mm
08:42 AM 33.6°F0.9°C 20.4°F-6.4°C 58% 6.0 mph N9.7 kmh N 13.6 mph21.9 kmh 29.96 in1014.6 mb 0.00 in0.0 mm 0.00 in/hr0.0 mm/hr 0.00 in0.0 mm
08:43 AM 33.6°F0.9°C 20.4°F-6.4°C 58% 6.9 mph N11.1 kmh N 13.6 mph21.9 kmh 29.96 in1014.6 mb 0.00 in0.0 mm 0.00 in/hr0.0 mm/hr 0.00 in0.0 mm
08:44 AM 33.6°F0.9°C 20.4°F-6.4°C 58% 6.9 mph N11.1 kmh N 13.6 mph21.9 kmh 29.96 in1014.6 mb 0.00 in0.0 mm 0.00 in/hr0.0 mm/hr 0.00 in0.0 mm
08:45 AM 33.6°F0.9°C 20.4°F-6.4°C 58% 4.5 mph NNE7.2 kmh NNE 13.0 mph20.9 kmh 29.96 in1014.6 mb 0.00 in0.0 mm 0.00 in/hr0.0 mm/hr 0.00 in0.0 mm
08:46 AM 33.6°F0.9°C 20.4°F-6.4°C 58% 6.0 mph N9.7 kmh N 13.0 mph20.9 kmh 29.96 in1014.6 mb 0.00 in0.0 mm 0.00 in/hr0.0 mm/hr 0.00 in0.0 mm
08:47 AM 33.6°F0.9°C 20.4°F-6.4°C 58% 5.4 mph N8.7 kmh N 13.0 mph20.9 kmh 29.96 in1014.6 mb 0.00 in0.0 mm 0.00 in/hr0.0 mm/hr 0.00 in0.0 mm
08:48 AM 33.6°F0.9°C 20.4°F-6.4°C 58% 8.3 mph N13.4 kmh N 13.0 mph20.9 kmh 29.96 in1014.6 mb 0.00 in0.0 mm 0.00 in/hr0.0 mm/hr 0.00 in0.0 mm
08:49 AM 33.6°F0.9°C 20.4°F-6.4°C 58% 6.9 mph N11.1 kmh N 13.0 mph20.9 kmh 29.96 in1014.6 mb 0.00 in0.0 mm 0.00 in/hr0.0 mm/hr 0.00 in0.0 mm
08:50 AM 33.6°F0.9°C 21.2°F-6.0°C 60% 6.9 mph N11.1 kmh N 13.0 mph20.9 kmh 29.96 in1014.6 mb 0.00 in0.0 mm 0.00 in/hr0.0 mm/hr 0.00 in0.0 mm
08:51 AM 33.6°F0.9°C 21.2°F-6.0°C 60% 7.6 mph N12.2 kmh N 15.9 mph25.6 kmh 29.96 in1014.6 mb 0.00 in0.0 mm 0.00 in/hr0.0 mm/hr 0.00 in0.0 mm
08:52 AM 33.6°F0.9°C 21.2°F-6.0°C 60% 4.5 mph N7.2 kmh N 15.9 mph25.6 kmh 29.96 in1014.6 mb 0.00 in0.0 mm 0.00 in/hr0.0 mm/hr 0.00 in0.0 mm
08:53 AM 33.6°F0.9°C 21.2°F-6.0°C 60% 4.5 mph N7.2 kmh N 15.9 mph25.6 kmh 29.96 in1014.6 mb 0.00 in0.0 mm 0.00 in/hr0.0 mm/hr 0.00 in0.0 mm
08:54 AM 33.6°F0.9°C 21.2°F-6.0°C 60% 6.0 mph NNW9.7 kmh NNW 15.9 mph25.6 kmh 29.96 in1014.6 mb 0.00 in0.0 mm 0.00 in/hr0.0 mm/hr 0.00 in0.0 mm
08:55 AM 33.6°F0.9°C 21.2°F-6.0°C 60% 9.8 mph NNW15.8 kmh NNW 15.9 mph25.6 kmh 29.96 in1014.6 mb 0.00 in0.0 mm 0.00 in/hr0.0 mm/hr 0.00 in0.0 mm
08:56 AM 33.6°F0.9°C 21.2°F-6.0°C 60% 7.6 mph NNW12.2 kmh NNW 15.9 mph25.6 kmh 29.96 in1014.6 mb 0.00 in0.0 mm 0.00 in/hr0.0 mm/hr 0.00 in0.0 mm
08:57 AM 33.6°F0.9°C 21.2°F-6.0°C 60% 6.9 mph NNW11.1 kmh NNW 15.9 mph25.6 kmh 29.96 in1014.6 mb 0.00 in0.0 mm 0.00 in/hr0.0 mm/hr 0.00 in0.0 mm
08:58 AM 33.6°F0.9°C 21.2°F-6.0°C 60% 6.9 mph NNW11.1 kmh NNW 15.9 mph25.6 kmh 29.96 in1014.6 mb 0.00 in0.0 mm 0.00 in/hr0.0 mm/hr 0.00 in0.0 mm
08:59 AM 33.6°F0.9°C 21.2°F-6.0°C 60% 6.0 mph NNW9.7 kmh NNW 15.9 mph25.6 kmh 29.96 in1014.6 mb 0.00 in0.0 mm 0.00 in/hr0.0 mm/hr 0.00 in0.0 mm
09:00 AM 33.6°F0.9°C 21.2°F-6.0°C 60% 6.9 mph N11.1 kmh N 15.9 mph25.6 kmh 29.96 in1014.6 mb 0.00 in0.0 mm 0.00 in/hr0.0 mm/hr 0.00 in0.0 mm
09:01 AM 33.6°F0.9°C 21.2°F-6.0°C 60% 6.9 mph N11.1 kmh N 13.6 mph21.9 kmh 29.96 in1014.6 mb 0.00 in0.0 mm 0.00 in/hr0.0 mm/hr 0.00 in0.0 mm
09:02 AM 33.6°F0.9°C 21.2°F-6.0°C 60% 5.4 mph N8.7 kmh N 13.6 mph21.9 kmh 29.96 in1014.6 mb 0.00 in0.0 mm 0.00 in/hr0.0 mm/hr 0.00 in0.0 mm
09:03 AM 33.6°F0.9°C 21.2°F-6.0°C 60% 4.5 mph N7.2 kmh N 13.6 mph21.9 kmh 29.97 in1014.9 mb 0.00 in0.0 mm 0.00 in/hr0.0 mm/hr 0.00 in0.0 mm
09:04 AM 33.6°F0.9°C 21.6°F-5.8°C 61% 6.0 mph N9.7 kmh N 13.6 mph21.9 kmh 29.97 in1014.9 mb 0.00 in0.0 mm 0.00 in/hr0.0 mm/hr 0.00 in0.0 mm
09:05 AM 33.4°F0.8°C 21.5°F-5.8°C 61% 7.6 mph N12.2 kmh N 13.6 mph21.9 kmh 29.97 in1014.9 mb 0.00 in0.0 mm 0.00 in/hr0.0 mm/hr 0.00 in0.0 mm
09:06 AM 33.4°F0.8°C 21.5°F-5.8°C 61% 6.0 mph NNE9.7 kmh NNE 13.6 mph21.9 kmh 29.97 in1014.9 mb 0.00 in0.0 mm 0.00 in/hr0.0 mm/hr 0.00 in0.0 mm
09:07 AM 33.4°F0.8°C 21.5°F-5.8°C 61% 6.9 mph NNE11.1 kmh NNE 13.6 mph21.9 kmh 29.97 in1014.9 mb 0.00 in0.0 mm 0.00 in/hr0.0 mm/hr 0.00 in0.0 mm
09:08 AM 33.4°F0.8°C 21.5°F-5.8°C 61% 6.9 mph N11.1 kmh N 15.2 mph24.5 kmh 29.97 in1014.9 mb 0.00 in0.0 mm 0.00 in/hr0.0 mm/hr 0.00 in0.0 mm
09:09 AM 33.4°F0.8°C 21.8°F-5.7°C 62% 5.4 mph N8.7 kmh N 15.2 mph24.5 kmh 29.97 in1014.9 mb 0.00 in0.0 mm 0.00 in/hr0.0 mm/hr 0.00 in0.0 mm
09:10 AM 33.4°F0.8°C 21.8°F-5.7°C 62% 7.6 mph N12.2 kmh N 15.2 mph24.5 kmh 29.97 in1014.9 mb 0.00 in0.0 mm 0.00 in/hr0.0 mm/hr 0.00 in0.0 mm
09:11 AM 33.4°F0.8°C 21.8°F-5.7°C 62% 6.0 mph N9.7 kmh N 15.2 mph24.5 kmh 29.97 in1014.9 mb 0.00 in0.0 mm 0.00 in/hr0.0 mm/hr 0.00 in0.0 mm
09:12 AM 33.4°F0.8°C 21.8°F-5.7°C 62% 6.0 mph N9.7 kmh N 15.2 mph24.5 kmh 29.97 in1014.9 mb 0.00 in0.0 mm 0.00 in/hr0.0 mm/hr 0.00 in0.0 mm
09:13 AM 33.4°F0.8°C 21.8°F-5.7°C 62% 5.4 mph N8.7 kmh N 15.2 mph24.5 kmh 29.97 in1014.9 mb 0.00 in0.0 mm 0.00 in/hr0.0 mm/hr 0.00 in0.0 mm
09:14 AM 33.4°F0.8°C 21.8°F-5.7°C 62% 4.5 mph N7.2 kmh N 15.2 mph24.5 kmh 29.97 in1014.9 mb 0.00 in0.0 mm 0.00 in/hr0.0 mm/hr 0.00 in0.0 mm
09:15 AM 33.4°F0.8°C 22.2°F-5.4°C 63% 4.5 mph N7.2 kmh N 15.2 mph24.5 kmh 29.97 in1014.9 mb 0.00 in0.0 mm 0.00 in/hr0.0 mm/hr 0.00 in0.0 mm
09:16 AM 33.4°F0.8°C 22.2°F-5.4°C 63% 8.3 mph N13.4 kmh N 15.9 mph25.6 kmh 29.97 in1014.9 mb 0.00 in0.0 mm 0.00 in/hr0.0 mm/hr 0.00 in0.0 mm
09:17 AM 33.4°F0.8°C 22.2°F-5.4°C 63% 6.9 mph N11.1 kmh N 15.9 mph25.6 kmh 29.97 in1014.9 mb 0.00 in0.0 mm 0.00 in/hr0.0 mm/hr 0.00 in0.0 mm
09:18 AM 33.3°F0.7°C 22.8°F-5.1°C 65% 8.3 mph NNE13.4 kmh NNE 15.9 mph25.6 kmh 29.97 in1014.9 mb 0.00 in0.0 mm 0.00 in/hr0.0 mm/hr 0.00 in0.0 mm
09:19 AM 33.3°F0.7°C 22.8°F-5.1°C 65% 6.9 mph NNE11.1 kmh NNE 15.9 mph25.6 kmh 29.97 in1014.9 mb 0.00 in0.0 mm 0.00 in/hr0.0 mm/hr 0.00 in0.0 mm
09:20 AM 33.3°F0.7°C 22.8°F-5.1°C 65% 9.2 mph NNE14.8 kmh NNE 15.9 mph25.6 kmh 29.97 in1014.9 mb 0.00 in0.0 mm 0.00 in/hr0.0 mm/hr 0.00 in0.0 mm
09:21 AM 33.3°F0.7°C 22.8°F-5.1°C 65% 6.9 mph NNE11.1 kmh NNE 15.9 mph25.6 kmh 29.97 in1014.9 mb 0.00 in0.0 mm 0.00 in/hr0.0 mm/hr 0.00 in0.0 mm
09:22 AM 33.3°F0.7°C 23.2°F-4.9°C 66% 7.6 mph N12.2 kmh N 15.9 mph25.6 kmh 29.97 in1014.9 mb 0.00 in0.0 mm 0.00 in/hr0.0 mm/hr 0.00 in0.0 mm
09:23 AM 33.3°F0.7°C 23.2°F-4.9°C 66% 4.5 mph N7.2 kmh N 15.9 mph25.6 kmh 29.98 in1015.2 mb 0.00 in0.0 mm 0.00 in/hr0.0 mm/hr 0.00 in0.0 mm
09:24 AM 33.3°F0.7°C 23.2°F-4.9°C 66% 4.5 mph N7.2 kmh N 15.9 mph25.6 kmh 29.97 in1014.9 mb 0.00 in0.0 mm 0.00 in/hr0.0 mm/hr 0.00 in0.0 mm
09:25 AM 33.3°F0.7°C 23.2°F-4.9°C 66% 9.8 mph N15.8 kmh N 15.9 mph25.6 kmh 29.97 in1014.9 mb 0.00 in0.0 mm 0.00 in/hr0.0 mm/hr 0.00 in0.0 mm
09:26 AM 33.3°F0.7°C 23.2°F-4.9°C 66% 6.9 mph N11.1 kmh N 13.6 mph21.9 kmh 29.97 in1014.9 mb 0.00 in0.0 mm 0.00 in/hr0.0 mm/hr 0.00 in0.0 mm
09:27 AM 33.3°F0.7°C 23.5°F-4.7°C 67% 8.3 mph N13.4 kmh N 13.6 mph21.9 kmh 29.97 in1014.9 mb 0.00 in0.0 mm 0.00 in/hr0.0 mm/hr 0.00 in0.0 mm
09:28 AM 33.3°F0.7°C 23.5°F-4.7°C 67% 6.0 mph N9.7 kmh N 13.6 mph21.9 kmh 29.97 in1014.9 mb 0.00 in0.0 mm 0.00 in/hr0.0 mm/hr 0.00 in0.0 mm
09:29 AM 33.1°F0.6°C 23.3°F-4.8°C 67% 6.9 mph N11.1 kmh N 13.6 mph21.9 kmh 29.98 in1015.2 mb 0.00 in0.0 mm 0.00 in/hr0.0 mm/hr 0.00 in0.0 mm
09:30 AM 33.1°F0.6°C 23.7°F-4.6°C 68% 5.4 mph N8.7 kmh N 13.0 mph20.9 kmh 29.98 in1015.2 mb 0.00 in0.0 mm 0.00 in/hr0.0 mm/hr 0.00 in0.0 mm
09:31 AM 33.1°F0.6°C 23.7°F-4.6°C 68% 7.6 mph N12.2 kmh N 15.9 mph25.6 kmh 29.97 in1014.9 mb 0.00 in0.0 mm 0.00 in/hr0.0 mm/hr 0.00 in0.0 mm
09:32 AM 33.3°F0.7°C 23.9°F-4.5°C 68% 6.0 mph N9.7 kmh N 15.9 mph25.6 kmh 29.97 in1014.9 mb 0.00 in0.0 mm 0.00 in/hr0.0 mm/hr 0.00 in0.0 mm
09:33 AM 33.3°F0.7°C 23.9°F-4.5°C 68% 6.0 mph N9.7 kmh N 15.9 mph25.6 kmh 29.97 in1014.9 mb 0.00 in0.0 mm 0.00 in/hr0.0 mm/hr 0.00 in0.0 mm
09:34 AM 33.1°F0.6°C 23.7°F-4.6°C 68% 6.9 mph N11.1 kmh N 15.9 mph25.6 kmh 29.97 in1014.9 mb 0.00 in0.0 mm 0.00 in/hr0.0 mm/hr 0.00 in0.0 mm
09:35 AM 33.1°F0.6°C 23.7°F-4.6°C 68% 7.6 mph NNW12.2 kmh NNW 15.9 mph25.6 kmh 29.98 in1015.2 mb 0.00 in0.0 mm 0.00 in/hr0.0 mm/hr 0.00 in0.0 mm
09:36 AM 33.3°F0.7°C 23.9°F-4.5°C 68% 6.9 mph NNW11.1 kmh NNW 15.9 mph25.6 kmh 29.97 in1014.9 mb 0.00 in0.0 mm 0.00 in/hr0.0 mm/hr 0.00 in0.0 mm
09:37 AM 33.1°F0.6°C 23.7°F-4.6°C 68% 6.0 mph NNW9.7 kmh NNW 15.9 mph25.6 kmh 29.98 in1015.2 mb 0.00 in0.0 mm 0.00 in/hr0.0 mm/hr 0.00 in0.0 mm
09:38 AM 33.1°F0.6°C 23.7°F-4.6°C 68% 3.8 mph N6.1 kmh N 15.9 mph25.6 kmh 29.98 in1015.2 mb 0.00 in0.0 mm 0.00 in/hr0.0 mm/hr 0.00 in0.0 mm
09:39 AM 33.1°F0.6°C 23.7°F-4.6°C 68% 5.4 mph N8.7 kmh N 15.9 mph25.6 kmh 29.98 in1015.2 mb 0.00 in0.0 mm 0.00 in/hr0.0 mm/hr 0.00 in0.0 mm
09:40 AM 33.1°F0.6°C 23.7°F-4.6°C 68% 6.0 mph N9.7 kmh N 15.9 mph25.6 kmh 29.98 in1015.2 mb 0.00 in0.0 mm 0.00 in/hr0.0 mm/hr 0.00 in0.0 mm
09:41 AM 33.1°F0.6°C 23.7°F-4.6°C 68% 8.3 mph N13.4 kmh N 12.1 mph19.5 kmh 29.98 in1015.2 mb 0.00 in0.0 mm 0.00 in/hr0.0 mm/hr 0.00 in0.0 mm
09:42 AM 33.1°F0.6°C 23.7°F-4.6°C 68% 7.6 mph N12.2 kmh N 12.1 mph19.5 kmh 29.98 in1015.2 mb 0.00 in0.0 mm 0.00 in/hr0.0 mm/hr 0.00 in0.0 mm
09:43 AM 33.1°F0.6°C 24.4°F-4.2°C 70% 7.6 mph N12.2 kmh N 12.1 mph19.5 kmh 29.98 in1015.2 mb 0.00 in0.0 mm 0.00 in/hr0.0 mm/hr 0.00 in0.0 mm
09:44 AM 33.1°F0.6°C 24.4°F-4.2°C 70% 6.0 mph N9.7 kmh N 12.1 mph19.5 kmh 29.98 in1015.2 mb 0.00 in0.0 mm 0.00 in/hr0.0 mm/hr 0.00 in0.0 mm
09:45 AM 33.1°F0.6°C 24.4°F-4.2°C 70% 8.3 mph N13.4 kmh N 13.0 mph20.9 kmh 29.98 in1015.2 mb 0.00 in0.0 mm 0.00 in/hr0.0 mm/hr 0.00 in0.0 mm
09:46 AM 32.9°F0.5°C 24.2°F-4.3°C 70% 7.6 mph N12.2 kmh N 13.0 mph20.9 kmh 29.97 in1014.9 mb 0.00 in0.0 mm 0.00 in/hr0.0 mm/hr 0.00 in0.0 mm
09:47 AM 32.9°F0.5°C 24.2°F-4.3°C 70% 9.8 mph N15.8 kmh N 13.0 mph20.9 kmh 29.98 in1015.2 mb 0.00 in0.0 mm 0.00 in/hr0.0 mm/hr 0.00 in0.0 mm
09:48 AM 32.9°F0.5°C 24.2°F-4.3°C 70% 4.5 mph NNW7.2 kmh NNW 13.0 mph20.9 kmh 29.98 in1015.2 mb 0.00 in0.0 mm 0.00 in/hr0.0 mm/hr 0.00 in0.0 mm
09:49 AM 33.1°F0.6°C 24.7°F-4.1°C 71% 5.4 mph NNW8.7 kmh NNW 13.0 mph20.9 kmh 29.98 in1015.2 mb 0.00 in0.0 mm 0.00 in/hr0.0 mm/hr 0.00 in0.0 mm
09:50 AM 32.9°F0.5°C 24.6°F-4.1°C 71% 7.6 mph N12.2 kmh N 13.0 mph20.9 kmh 29.98 in1015.2 mb 0.00 in0.0 mm 0.00 in/hr0.0 mm/hr 0.00 in0.0 mm
09:51 AM 32.9°F0.5°C 24.6°F-4.1°C 71% 5.4 mph N8.7 kmh N 13.0 mph20.9 kmh 29.97 in1014.9 mb 0.00 in0.0 mm 0.00 in/hr0.0 mm/hr 0.00 in0.0 mm
09:52 AM 32.9°F0.5°C 24.6°F-4.1°C 71% 9.8 mph N15.8 kmh N 13.0 mph20.9 kmh 29.97 in1014.9 mb 0.00 in0.0 mm 0.00 in/hr0.0 mm/hr 0.00 in0.0 mm
09:53 AM 32.9°F0.5°C 24.6°F-4.1°C 71% 8.3 mph N13.4 kmh N 13.0 mph20.9 kmh 29.97 in1014.9 mb 0.00 in0.0 mm 0.00 in/hr0.0 mm/hr 0.00 in0.0 mm
09:54 AM 32.9°F0.5°C 24.6°F-4.1°C 71% 9.2 mph N14.8 kmh N 13.0 mph20.9 kmh 29.98 in1015.2 mb 0.00 in0.0 mm 0.00 in/hr0.0 mm/hr 0.00 in0.0 mm
09:55 AM 32.9°F0.5°C 24.6°F-4.1°C 71% 8.3 mph N13.4 kmh N 13.0 mph20.9 kmh 29.97 in1014.9 mb 0.00 in0.0 mm 0.00 in/hr0.0 mm/hr 0.00 in0.0 mm
09:56 AM 32.9°F0.5°C 24.6°F-4.1°C 71% 6.0 mph N9.7 kmh N 13.6 mph21.9 kmh 29.98 in1015.2 mb 0.00 in0.0 mm 0.00 in/hr0.0 mm/hr 0.00 in0.0 mm
09:57 AM 33.1°F0.6°C 24.7°F-4.1°C 71% 6.9 mph N11.1 kmh N 13.6 mph21.9 kmh 29.97 in1014.9 mb 0.00 in0.0 mm 0.00 in/hr0.0 mm/hr 0.00 in0.0 mm
09:58 AM 33.1°F0.6°C 24.7°F-4.1°C 71% 5.4 mph N8.7 kmh N 13.6 mph21.9 kmh 29.97 in1014.9 mb 0.00 in0.0 mm 0.00 in/hr0.0 mm/hr 0.00 in0.0 mm
09:59 AM 33.1°F0.6°C 24.7°F-4.1°C 71% 8.3 mph N13.4 kmh N 13.6 mph21.9 kmh 29.98 in1015.2 mb 0.00 in0.0 mm 0.00 in/hr0.0 mm/hr 0.00 in0.0 mm
10:00 AM 32.9°F0.5°C 24.6°F-4.1°C 71% 7.6 mph N12.2 kmh N 13.6 mph21.9 kmh 29.97 in1014.9 mb 0.00 in0.0 mm 0.00 in/hr0.0 mm/hr 0.00 in0.0 mm
10:01 AM 32.9°F0.5°C 24.6°F-4.1°C 71% 9.2 mph N14.8 kmh N 13.6 mph21.9 kmh 29.97 in1014.9 mb 0.00 in0.0 mm 0.00 in/hr0.0 mm/hr 0.00 in0.0 mm
10:02 AM 32.9°F0.5°C 24.6°F-4.1°C 71% 8.3 mph NNW13.4 kmh NNW 13.6 mph21.9 kmh 29.97 in1014.9 mb 0.00 in0.0 mm 0.00 in/hr0.0 mm/hr 0.00 in0.0 mm
10:03 AM 32.9°F0.5°C 24.9°F-3.9°C 72% 6.9 mph NNW11.1 kmh NNW 13.6 mph21.9 kmh 29.97 in1014.9 mb 0.00 in0.0 mm 0.00 in/hr0.0 mm/hr 0.00 in0.0 mm
10:04 AM 32.9°F0.5°C 24.9°F-3.9°C 72% 6.9 mph NNW11.1 kmh NNW 13.6 mph21.9 kmh 29.97 in1014.9 mb 0.00 in0.0 mm 0.00 in/hr0.0 mm/hr 0.00 in0.0 mm
10:05 AM 32.9°F0.5°C 24.9°F-3.9°C 72% 6.0 mph NNW9.7 kmh NNW 13.6 mph21.9 kmh 29.97 in1014.9 mb 0.00 in0.0 mm 0.00 in/hr0.0 mm/hr 0.00 in0.0 mm
10:06 AM 32.9°F0.5°C 24.9°F-3.9°C 72% 6.0 mph NNW9.7 kmh NNW 13.0 mph20.9 kmh 29.97 in1014.9 mb 0.00 in0.0 mm 0.00 in/hr0.0 mm/hr 0.00 in0.0 mm
10:07 AM 32.9°F0.5°C 24.9°F-3.9°C 72% 5.4 mph NNW8.7 kmh NNW 13.0 mph20.9 kmh 29.97 in1014.9 mb 0.00 in0.0 mm 0.00 in/hr0.0 mm/hr 0.00 in0.0 mm
10:08 AM 32.9°F0.5°C 24.9°F-3.9°C 72% 6.0 mph NNW9.7 kmh NNW 13.0 mph20.9 kmh 29.97 in1014.9 mb 0.00 in0.0 mm 0.00 in/hr0.0 mm/hr 0.00 in0.0 mm
10:09 AM 32.9°F0.5°C 24.9°F-3.9°C 72% 7.6 mph NNW12.2 kmh NNW 13.0 mph20.9 kmh 29.97 in1014.9 mb 0.00 in0.0 mm 0.00 in/hr0.0 mm/hr 0.00 in0.0 mm
10:10 AM 32.9°F0.5°C 24.9°F-3.9°C 72% 5.4 mph NNW8.7 kmh NNW 13.0 mph20.9 kmh 29.97 in1014.9 mb 0.00 in0.0 mm 0.00 in/hr0.0 mm/hr 0.00 in0.0 mm
10:11 AM 32.9°F0.5°C 24.9°F-3.9°C 72% 5.4 mph NNW8.7 kmh NNW 13.0 mph20.9 kmh 29.97 in1014.9 mb 0.00 in0.0 mm 0.00 in/hr0.0 mm/hr 0.00 in0.0 mm
10:12 AM 33.1°F0.6°C 25.1°F-3.8°C 72% 5.4 mph NNW8.7 kmh NNW 12.1 mph19.5 kmh 29.97 in1014.9 mb 0.00 in0.0 mm 0.00 in/hr0.0 mm/hr 0.00 in0.0 mm
10:13 AM 33.1°F0.6°C 25.4°F-3.7°C 73% 6.0 mph N9.7 kmh N 9.8 mph15.8 kmh 29.97 in1014.9 mb 0.00 in0.0 mm 0.00 in/hr0.0 mm/hr 0.00 in0.0 mm
10:14 AM 33.1°F0.6°C 25.4°F-3.7°C 73% 6.0 mph NNW9.7 kmh NNW 9.8 mph15.8 kmh 29.97 in1014.9 mb 0.00 in0.0 mm 0.00 in/hr0.0 mm/hr 0.00 in0.0 mm
10:15 AM 33.1°F0.6°C 25.4°F-3.7°C 73% 6.9 mph NNW11.1 kmh NNW 10.7 mph17.2 kmh 29.97 in1014.9 mb 0.00 in0.0 mm 0.00 in/hr0.0 mm/hr 0.00 in0.0 mm
10:16 AM 32.9°F0.5°C 25.2°F-3.8°C 73% 6.0 mph NNW9.7 kmh NNW 10.7 mph17.2 kmh 29.97 in1014.9 mb 0.00 in0.0 mm 0.00 in/hr0.0 mm/hr 0.00 in0.0 mm
10:17 AM 33.1°F0.6°C 25.4°F-3.7°C 73% 5.4 mph NNW8.7 kmh NNW 10.7 mph17.2 kmh 29.97 in1014.9 mb 0.00 in0.0 mm 0.00 in/hr0.0 mm/hr 0.00 in0.0 mm
10:18 AM 33.1°F0.6°C 25.4°F-3.7°C 73% 4.5 mph NNW7.2 kmh NNW 10.7 mph17.2 kmh 29.97 in1014.9 mb 0.00 in0.0 mm 0.00 in/hr0.0 mm/hr 0.00 in0.0 mm
10:19 AM 33.1°F0.6°C 25.4°F-3.7°C 73% 6.0 mph N9.7 kmh N 10.7 mph17.2 kmh 29.97 in1014.9 mb 0.00 in0.0 mm 0.00 in/hr0.0 mm/hr 0.00 in0.0 mm
10:20 AM 33.1°F0.6°C 25.4°F-3.7°C 73% 6.0 mph N9.7 kmh N 10.7 mph17.2 kmh 29.97 in1014.9 mb 0.00 in0.0 mm 0.00 in/hr0.0 mm/hr 0.00 in0.0 mm
10:21 AM 33.1°F0.6°C 25.4°F-3.7°C 73% 6.0 mph N9.7 kmh N 10.7 mph17.2 kmh 29.97 in1014.9 mb 0.00 in0.0 mm 0.00 in/hr0.0 mm/hr 0.00 in0.0 mm
10:22 AM 32.9°F0.5°C 25.2°F-3.8°C 73% 6.9 mph N11.1 kmh N 10.7 mph17.2 kmh 29.97 in1014.9 mb 0.00 in0.0 mm 0.00 in/hr0.0 mm/hr 0.00 in0.0 mm
10:23 AM 32.9°F0.5°C 25.2°F-3.8°C 73% 6.9 mph N11.1 kmh N 10.7 mph17.2 kmh 29.97 in1014.9 mb 0.00 in0.0 mm 0.00 in/hr0.0 mm/hr 0.00 in0.0 mm
10:24 AM 32.9°F0.5°C 25.9°F-3.4°C 75% 7.6 mph N12.2 kmh N 12.1 mph19.5 kmh 29.97 in1014.9 mb 0.00 in0.0 mm 0.00 in/hr0.0 mm/hr 0.00 in0.0 mm
10:25 AM 32.9°F0.5°C 25.9°F-3.4°C 75% 7.6 mph N12.2 kmh N 12.1 mph19.5 kmh 29.97 in1014.9 mb 0.00 in0.0 mm 0.00 in/hr0.0 mm/hr 0.00 in0.0 mm
10:26 AM 32.9°F0.5°C 25.9°F-3.4°C 75% 7.6 mph N12.2 kmh N 12.1 mph19.5 kmh 29.97 in1014.9 mb 0.00 in0.0 mm 0.00 in/hr0.0 mm/hr 0.00 in0.0 mm
10:27 AM 32.9°F0.5°C 25.9°F-3.4°C 75% 9.2 mph N14.8 kmh N 12.1 mph19.5 kmh 29.97 in1014.9 mb 0.00 in0.0 mm 0.00 in/hr0.0 mm/hr 0.00 in0.0 mm
10:28 AM 32.9°F0.5°C 25.9°F-3.4°C 75% 7.6 mph N12.2 kmh N 12.1 mph19.5 kmh 29.97 in1014.9 mb 0.00 in0.0 mm 0.00 in/hr0.0 mm/hr 0.00 in0.0 mm
10:29 AM 32.9°F0.5°C 25.9°F-3.4°C 75% 6.0 mph N9.7 kmh N 12.1 mph19.5 kmh 29.97 in1014.9 mb 0.00 in0.0 mm 0.00 in/hr0.0 mm/hr 0.00 in0.0 mm
10:30 AM 32.9°F0.5°C 25.9°F-3.4°C 75% 5.4 mph N8.7 kmh N 12.1 mph19.5 kmh 29.97 in1014.9 mb 0.00 in0.0 mm 0.00 in/hr0.0 mm/hr 0.00 in0.0 mm
10:31 AM 33.1°F0.6°C 26.0°F-3.3°C 75% 5.4 mph N8.7 kmh N 12.1 mph19.5 kmh 29.97 in1014.9 mb 0.00 in0.0 mm 0.00 in/hr0.0 mm/hr 0.00 in0.0 mm
10:32 AM 33.1°F0.6°C 26.0°F-3.3°C 75% 6.0 mph N9.7 kmh N 12.1 mph19.5 kmh 29.97 in1014.9 mb 0.00 in0.0 mm 0.00 in/hr0.0 mm/hr 0.00 in0.0 mm
10:33 AM 33.1°F0.6°C 26.0°F-3.3°C 75% 6.9 mph N11.1 kmh N 12.1 mph19.5 kmh 29.97 in1014.9 mb 0.00 in0.0 mm 0.00 in/hr0.0 mm/hr 0.00 in0.0 mm
10:34 AM 33.1°F0.6°C 26.0°F-3.3°C 75% 8.3 mph N13.4 kmh N 13.0 mph20.9 kmh 29.97 in1014.9 mb 0.00 in0.0 mm 0.00 in/hr0.0 mm/hr 0.00 in0.0 mm
10:35 AM 33.1°F0.6°C 26.0°F-3.3°C 75% 7.6 mph NNW12.2 kmh NNW 13.0 mph20.9 kmh 29.97 in1014.9 mb 0.00 in0.0 mm 0.00 in/hr0.0 mm/hr 0.00 in0.0 mm
10:36 AM 33.1°F0.6°C 26.0°F-3.3°C 75% 6.0 mph NNW9.7 kmh NNW 13.0 mph20.9 kmh 29.97 in1014.9 mb 0.00 in0.0 mm 0.00 in/hr0.0 mm/hr 0.00 in0.0 mm
10:37 AM 33.1°F0.6°C 26.0°F-3.3°C 75% 7.6 mph NNW12.2 kmh NNW 13.0 mph20.9 kmh 29.97 in1014.9 mb 0.00 in0.0 mm 0.00 in/hr0.0 mm/hr 0.00 in0.0 mm
10:38 AM 33.1°F0.6°C 26.0°F-3.3°C 75% 7.6 mph N12.2 kmh N 13.0 mph20.9 kmh 29.97 in1014.9 mb 0.00 in0.0 mm 0.00 in/hr0.0 mm/hr 0.00 in0.0 mm
10:39 AM 33.1°F0.6°C 26.0°F-3.3°C 75% 6.9 mph N11.1 kmh N 13.0 mph20.9 kmh 29.97 in1014.9 mb 0.00 in0.0 mm 0.00 in/hr0.0 mm/hr 0.00 in0.0 mm
10:40 AM 33.1°F0.6°C 26.0°F-3.3°C 75% 6.9 mph N11.1 kmh N 13.0 mph20.9 kmh 29.97 in1014.9 mb 0.00 in0.0 mm 0.00 in/hr0.0 mm/hr 0.00 in0.0 mm
10:41 AM 33.1°F0.6°C 26.0°F-3.3°C 75% 6.9 mph N11.1 kmh N 13.0 mph20.9 kmh 29.97 in1014.9 mb 0.00 in0.0 mm 0.00 in/hr0.0 mm/hr 0.00 in0.0 mm
10:42 AM 33.1°F0.6°C 26.0°F-3.3°C 75% 3.8 mph N6.1 kmh N 13.0 mph20.9 kmh 29.96 in1014.6 mb 0.00 in0.0 mm 0.00 in/hr0.0 mm/hr 0.00 in0.0 mm
10:43 AM 33.3°F0.7°C 26.2°F-3.2°C 75% 4.5 mph N7.2 kmh N 13.0 mph20.9 kmh 29.97 in1014.9 mb 0.00 in0.0 mm 0.00 in/hr0.0 mm/hr 0.00 in0.0 mm
10:44 AM 33.3°F0.7°C 26.2°F-3.2°C 75% 4.5 mph N7.2 kmh N 13.0 mph20.9 kmh 29.97 in1014.9 mb 0.00 in0.0 mm 0.00 in/hr0.0 mm/hr 0.00 in0.0 mm
10:45 AM 33.3°F0.7°C 26.2°F-3.2°C 75% 5.4 mph N8.7 kmh N 13.0 mph20.9 kmh 29.97 in1014.9 mb 0.00 in0.0 mm 0.00 in/hr0.0 mm/hr 0.00 in0.0 mm
10:46 AM 33.4°F0.8°C 26.4°F-3.1°C 75% 7.6 mph N12.2 kmh N 13.0 mph20.9 kmh 29.97 in1014.9 mb 0.00 in0.0 mm 0.00 in/hr0.0 mm/hr 0.00 in0.0 mm
10:47 AM 33.1°F0.6°C 26.0°F-3.3°C 75% 6.0 mph N9.7 kmh N 13.0 mph20.9 kmh 29.97 in1014.9 mb 0.00 in0.0 mm 0.00 in/hr0.0 mm/hr 0.00 in0.0 mm
10:48 AM 33.3°F0.7°C 26.2°F-3.2°C 75% 4.5 mph N7.2 kmh N 13.0 mph20.9 kmh 29.97 in1014.9 mb 0.00 in0.0 mm 0.00 in/hr0.0 mm/hr 0.00 in0.0 mm
10:49 AM 33.3°F0.7°C 26.2°F-3.2°C 75% 6.9 mph NNW11.1 kmh NNW 13.0 mph20.9 kmh 29.96 in1014.6 mb 0.00 in0.0 mm 0.00 in/hr0.0 mm/hr 0.00 in0.0 mm
10:50 AM 33.3°F0.7°C 26.2°F-3.2°C 75% 6.0 mph NNW9.7 kmh NNW 11.4 mph18.3 kmh 29.97 in1014.9 mb 0.00 in0.0 mm 0.00 in/hr0.0 mm/hr 0.00 in0.0 mm
10:51 AM 33.3°F0.7°C 26.2°F-3.2°C 75% 4.5 mph NW7.2 kmh NW 10.7 mph17.2 kmh 29.96 in1014.6 mb 0.00 in0.0 mm 0.00 in/hr0.0 mm/hr 0.00 in0.0 mm
10:52 AM 33.3°F0.7°C 26.2°F-3.2°C 75% 4.5 mph NW7.2 kmh NW 10.7 mph17.2 kmh 29.97 in1014.9 mb 0.00 in0.0 mm 0.00 in/hr0.0 mm/hr 0.00 in0.0 mm
10:53 AM 33.3°F0.7°C 26.2°F-3.2°C 75% 6.9 mph NNW11.1 kmh NNW 13.0 mph20.9 kmh 29.97 in1014.9 mb 0.00 in0.0 mm 0.00 in/hr0.0 mm/hr 0.00 in0.0 mm
10:54 AM 33.3°F0.7°C 26.2°F-3.2°C 75% 5.4 mph NNW8.7 kmh NNW 13.0 mph20.9 kmh 29.97 in1014.9 mb 0.00 in0.0 mm 0.00 in/hr0.0 mm/hr 0.00 in0.0 mm
10:55 AM 33.3°F0.7°C 26.2°F-3.2°C 75% 5.4 mph NNW8.7 kmh NNW 13.0 mph20.9 kmh 29.97 in1014.9 mb 0.00 in0.0 mm 0.00 in/hr0.0 mm/hr 0.00 in0.0 mm
10:56 AM 33.3°F0.7°C 26.2°F-3.2°C 75% 4.5 mph NNW7.2 kmh NNW 13.0 mph20.9 kmh 29.97 in1014.9 mb 0.00 in0.0 mm 0.00 in/hr0.0 mm/hr 0.00 in0.0 mm
10:57 AM 33.4°F0.8°C 26.4°F-3.1°C 75% 3.1 mph NNW5.0 kmh NNW 13.0 mph20.9 kmh 29.97 in1014.9 mb 0.00 in0.0 mm 0.00 in/hr0.0 mm/hr 0.00 in0.0 mm
10:58 AM 33.4°F0.8°C 26.4°F-3.1°C 75% 3.1 mph NNW5.0 kmh NNW 13.0 mph20.9 kmh 29.97 in1014.9 mb 0.00 in0.0 mm 0.00 in/hr0.0 mm/hr 0.00 in0.0 mm
10:59 AM 33.4°F0.8°C 26.7°F-2.9°C 76% 3.8 mph NNW6.1 kmh NNW 13.0 mph20.9 kmh 29.97 in1014.9 mb 0.00 in0.0 mm 0.00 in/hr0.0 mm/hr 0.00 in0.0 mm
11:00 AM 33.4°F0.8°C 26.7°F-2.9°C 76% 5.4 mph NNW8.7 kmh NNW 13.0 mph20.9 kmh 29.97 in1014.9 mb 0.00 in0.0 mm 0.00 in/hr0.0 mm/hr 0.00 in0.0 mm
11:01 AM 33.3°F0.7°C 26.2°F-3.2°C 75% 6.0 mph NNW9.7 kmh NNW 13.0 mph20.9 kmh 29.97 in1014.9 mb 0.00 in0.0 mm 0.00 in/hr0.0 mm/hr 0.00 in0.0 mm
11:02 AM 33.3°F0.7°C 26.2°F-3.2°C 75% 5.4 mph NNW8.7 kmh NNW 13.0 mph20.9 kmh 29.97 in1014.9 mb 0.00 in0.0 mm 0.00 in/hr0.0 mm/hr 0.00 in0.0 mm
11:03 AM 33.3°F0.7°C 26.2°F-3.2°C 75% 3.8 mph NW6.1 kmh NW 9.8 mph15.8 kmh 29.97 in1014.9 mb 0.00 in0.0 mm 0.00 in/hr0.0 mm/hr 0.00 in0.0 mm
11:04 AM 33.4°F0.8°C 26.4°F-3.1°C 75% 6.0 mph NW9.7 kmh NW 9.8 mph15.8 kmh 29.97 in1014.9 mb 0.00 in0.0 mm 0.00 in/hr0.0 mm/hr 0.00 in0.0 mm
11:05 AM 33.3°F0.7°C 26.2°F-3.2°C 75% 4.5 mph NNW7.2 kmh NNW 9.8 mph15.8 kmh 29.97 in1014.9 mb 0.00 in0.0 mm 0.00 in/hr0.0 mm/hr 0.00 in0.0 mm
11:06 AM 33.4°F0.8°C 26.4°F-3.1°C 75% 5.4 mph NNW8.7 kmh NNW 9.8 mph15.8 kmh 29.97 in1014.9 mb 0.00 in0.0 mm 0.00 in/hr0.0 mm/hr 0.00 in0.0 mm
11:07 AM 33.4°F0.8°C 26.4°F-3.1°C 75% 4.5 mph NNW7.2 kmh NNW 9.8 mph15.8 kmh 29.97 in1014.9 mb 0.00 in0.0 mm 0.00 in/hr0.0 mm/hr 0.00 in0.0 mm
11:08 AM 33.4°F0.8°C 26.4°F-3.1°C 75% 5.4 mph NW8.7 kmh NW 9.8 mph15.8 kmh 29.97 in1014.9 mb 0.00 in0.0 mm 0.00 in/hr0.0 mm/hr 0.00 in0.0 mm
11:09 AM 33.3°F0.7°C 26.2°F-3.2°C 75% 6.9 mph NW11.1 kmh NW 13.0 mph20.9 kmh 29.97 in1014.9 mb 0.00 in0.0 mm 0.00 in/hr0.0 mm/hr 0.00 in0.0 mm
11:10 AM 33.4°F0.8°C 26.4°F-3.1°C 75% 10.7 mph NW17.2 kmh NW 13.6 mph21.9 kmh 29.97 in1014.9 mb 0.00 in0.0 mm 0.00 in/hr0.0 mm/hr 0.00 in0.0 mm
11:11 AM 33.3°F0.7°C 26.2°F-3.2°C 75% 9.2 mph NW14.8 kmh NW 13.6 mph21.9 kmh 29.96 in1014.6 mb 0.00 in0.0 mm 0.00 in/hr0.0 mm/hr 0.00 in0.0 mm
11:12 AM 33.3°F0.7°C 26.2°F-3.2°C 75% 5.4 mph NW8.7 kmh NW 13.6 mph21.9 kmh 29.97 in1014.9 mb 0.00 in0.0 mm 0.00 in/hr0.0 mm/hr 0.00 in0.0 mm
11:13 AM 33.4°F0.8°C 26.4°F-3.1°C 75% 6.0 mph NW9.7 kmh NW 13.6 mph21.9 kmh 29.97 in1014.9 mb 0.00 in0.0 mm 0.00 in/hr0.0 mm/hr 0.00 in0.0 mm
11:14 AM 33.4°F0.8°C 26.4°F-3.1°C 75% 3.1 mph NW5.0 kmh NW 13.6 mph21.9 kmh 29.96 in1014.6 mb 0.00 in0.0 mm 0.00 in/hr0.0 mm/hr 0.00 in0.0 mm
11:15 AM 33.6°F0.9°C 26.6°F-3.0°C 75% 7.6 mph NNW12.2 kmh NNW 13.6 mph21.9 kmh 29.96 in1014.6 mb 0.00 in0.0 mm 0.00 in/hr0.0 mm/hr 0.00 in0.0 mm
11:16 AM 33.6°F0.9°C 26.6°F-3.0°C 75% 7.6 mph NNW12.2 kmh NNW 13.6 mph21.9 kmh 29.96 in1014.6 mb 0.00 in0.0 mm 0.00 in/hr0.0 mm/hr 0.00 in0.0 mm
11:17 AM 33.4°F0.8°C 26.4°F-3.1°C 75% 6.0 mph NNW9.7 kmh NNW 13.6 mph21.9 kmh 29.96 in1014.6 mb 0.00 in0.0 mm 0.00 in/hr0.0 mm/hr 0.00 in0.0 mm
11:18 AM 33.6°F0.9°C 26.6°F-3.0°C 75% 6.0 mph N9.7 kmh N 13.6 mph21.9 kmh 29.96 in1014.6 mb 0.00 in0.0 mm 0.00 in/hr0.0 mm/hr 0.00 in0.0 mm
11:19 AM 33.6°F0.9°C 26.6°F-3.0°C 75% 6.0 mph N9.7 kmh N 13.6 mph21.9 kmh 29.97 in1014.9 mb 0.00 in0.0 mm 0.00 in/hr0.0 mm/hr 0.00 in0.0 mm
11:20 AM 33.6°F0.9°C 26.6°F-3.0°C 75% 6.0 mph N9.7 kmh N 13.6 mph21.9 kmh 29.96 in1014.6 mb 0.00 in0.0 mm 0.00 in/hr0.0 mm/hr 0.00 in0.0 mm
11:21 AM 33.6°F0.9°C 26.6°F-3.0°C 75% 8.3 mph N13.4 kmh N 12.1 mph19.5 kmh 29.96 in1014.6 mb 0.00 in0.0 mm 0.00 in/hr0.0 mm/hr 0.00 in0.0 mm
11:22 AM 33.6°F0.9°C 26.6°F-3.0°C 75% 5.4 mph N8.7 kmh N 12.1 mph19.5 kmh 29.96 in1014.6 mb 0.00 in0.0 mm 0.00 in/hr0.0 mm/hr 0.00 in0.0 mm
11:23 AM 33.6°F0.9°C 26.6°F-3.0°C 75% 6.0 mph N9.7 kmh N 12.1 mph19.5 kmh 29.96 in1014.6 mb 0.00 in0.0 mm 0.00 in/hr0.0 mm/hr 0.00 in0.0 mm
11:24 AM 33.6°F0.9°C 26.6°F-3.0°C 75% 6.9 mph N11.1 kmh N 12.1 mph19.5 kmh 29.96 in1014.6 mb 0.00 in0.0 mm 0.00 in/hr0.0 mm/hr 0.00 in0.0 mm
11:25 AM 33.8°F1.0°C 25.8°F-3.4°C 72% 6.0 mph NNW9.7 kmh NNW 12.1 mph19.5 kmh 29.96 in1014.6 mb 0.00 in0.0 mm 0.00 in/hr0.0 mm/hr 0.00 in0.0 mm
11:26 AM 33.8°F1.0°C 26.1°F-3.3°C 73% 7.6 mph NNW12.2 kmh NNW 10.7 mph17.2 kmh 29.96 in1014.6 mb 0.00 in0.0 mm 0.00 in/hr0.0 mm/hr 0.00 in0.0 mm
11:27 AM 33.8°F1.0°C 25.8°F-3.4°C 72% 6.0 mph NNW9.7 kmh NNW 11.4 mph18.3 kmh 29.96 in1014.6 mb 0.00 in0.0 mm 0.00 in/hr0.0 mm/hr 0.00 in0.0 mm
11:28 AM 33.8°F1.0°C 26.1°F-3.3°C 73% 6.0 mph NNW9.7 kmh NNW 11.4 mph18.3 kmh 29.96 in1014.6 mb 0.00 in0.0 mm 0.00 in/hr0.0 mm/hr 0.00 in0.0 mm
11:29 AM 34.0°F1.1°C 25.9°F-3.4°C 72% 5.4 mph NNW8.7 kmh NNW 11.4 mph18.3 kmh 29.96 in1014.6 mb 0.00 in0.0 mm 0.00 in/hr0.0 mm/hr 0.00 in0.0 mm
11:30 AM 34.2°F1.2°C 26.1°F-3.3°C 72% 6.0 mph NNW9.7 kmh NNW 11.4 mph18.3 kmh 29.96 in1014.6 mb 0.00 in0.0 mm 0.00 in/hr0.0 mm/hr 0.00 in0.0 mm
11:31 AM 34.2°F1.2°C 26.1°F-3.3°C 72% 6.0 mph NNW9.7 kmh NNW 11.4 mph18.3 kmh 29.95 in1014.2 mb 0.00 in0.0 mm 0.00 in/hr0.0 mm/hr 0.00 in0.0 mm
11:32 AM 34.2°F1.2°C 26.1°F-3.3°C 72% 6.9 mph NNW11.1 kmh NNW 11.4 mph18.3 kmh 29.95 in1014.2 mb 0.00 in0.0 mm 0.00 in/hr0.0 mm/hr 0.00 in0.0 mm
11:33 AM 34.2°F1.2°C 25.8°F-3.4°C 71% 6.0 mph NNW9.7 kmh NNW 11.4 mph18.3 kmh 29.95 in1014.2 mb 0.00 in0.0 mm 0.00 in/hr0.0 mm/hr 0.00 in0.0 mm
11:34 AM 34.2°F1.2°C 25.8°F-3.4°C 71% 6.9 mph NNW11.1 kmh NNW 11.4 mph18.3 kmh 29.95 in1014.2 mb 0.00 in0.0 mm 0.00 in/hr0.0 mm/hr 0.00 in0.0 mm
11:35 AM 34.2°F1.2°C 25.8°F-3.4°C 71% 4.5 mph N7.2 kmh N 11.4 mph18.3 kmh 29.95 in1014.2 mb 0.00 in0.0 mm 0.00 in/hr0.0 mm/hr 0.00 in0.0 mm
11:36 AM 34.5°F1.4°C 26.1°F-3.3°C 71% 5.4 mph N8.7 kmh N 11.4 mph18.3 kmh 29.95 in1014.2 mb 0.00 in0.0 mm 0.00 in/hr0.0 mm/hr 0.00 in0.0 mm
11:37 AM 34.3°F1.3°C 25.9°F-3.4°C 71% 7.6 mph N12.2 kmh N 13.0 mph20.9 kmh 29.95 in1014.2 mb 0.00 in0.0 mm 0.00 in/hr0.0 mm/hr 0.00 in0.0 mm
11:38 AM 34.3°F1.3°C 25.6°F-3.6°C 70% 6.9 mph N11.1 kmh N 13.0 mph20.9 kmh 29.95 in1014.2 mb 0.00 in0.0 mm 0.00 in/hr0.0 mm/hr 0.00 in0.0 mm
11:39 AM 34.3°F1.3°C 25.6°F-3.6°C 70% 9.8 mph NNW15.8 kmh NNW 14.5 mph23.3 kmh 29.95 in1014.2 mb 0.00 in0.0 mm 0.00 in/hr0.0 mm/hr 0.00 in0.0 mm
11:40 AM 34.2°F1.2°C 25.4°F-3.7°C 70% 11.4 mph NNW18.3 kmh NNW 14.5 mph23.3 kmh 29.95 in1014.2 mb 0.00 in0.0 mm 0.00 in/hr0.0 mm/hr 0.00 in0.0 mm
11:41 AM 34.2°F1.2°C 24.7°F-4.1°C 68% 6.9 mph NNW11.1 kmh NNW 14.5 mph23.3 kmh 29.95 in1014.2 mb 0.00 in0.0 mm 0.00 in/hr0.0 mm/hr 0.00 in0.0 mm
11:42 AM 34.2°F1.2°C 24.7°F-4.1°C 68% 7.6 mph NNW12.2 kmh NNW 14.5 mph23.3 kmh 29.95 in1014.2 mb 0.00 in0.0 mm 0.00 in/hr0.0 mm/hr 0.00 in0.0 mm
11:43 AM 34.3°F1.3°C 24.9°F-3.9°C 68% 6.9 mph NNW11.1 kmh NNW 14.5 mph23.3 kmh 29.95 in1014.2 mb 0.00 in0.0 mm 0.00 in/hr0.0 mm/hr 0.00 in0.0 mm
11:44 AM 34.3°F1.3°C 24.9°F-3.9°C 68% 6.0 mph NNW9.7 kmh NNW 14.5 mph23.3 kmh 29.95 in1014.2 mb 0.00 in0.0 mm 0.00 in/hr0.0 mm/hr 0.00 in0.0 mm
11:45 AM 34.3°F1.3°C 24.9°F-3.9°C 68% 8.3 mph NNW13.4 kmh NNW 14.5 mph23.3 kmh 29.95 in1014.2 mb 0.00 in0.0 mm 0.00 in/hr0.0 mm/hr 0.00 in0.0 mm
11:46 AM 34.5°F1.4°C 25.1°F-3.8°C 68% 5.4 mph NNW8.7 kmh NNW 14.5 mph23.3 kmh 29.95 in1014.2 mb 0.00 in0.0 mm 0.00 in/hr0.0 mm/hr 0.00 in0.0 mm
11:47 AM 34.5°F1.4°C 25.1°F-3.8°C 68% 4.5 mph NNW7.2 kmh NNW 14.5 mph23.3 kmh 29.95 in1014.2 mb 0.00 in0.0 mm 0.00 in/hr0.0 mm/hr 0.00 in0.0 mm
11:48 AM 34.7°F1.5°C 25.2°F-3.8°C 68% 7.6 mph NNW12.2 kmh NNW 14.5 mph23.3 kmh 29.95 in1014.2 mb 0.00 in0.0 mm 0.00 in/hr0.0 mm/hr 0.00 in0.0 mm
11:49 AM 34.7°F1.5°C 25.2°F-3.8°C 68% 6.0 mph NNW9.7 kmh NNW 14.5 mph23.3 kmh 29.95 in1014.2 mb 0.00 in0.0 mm 0.00 in/hr0.0 mm/hr 0.00 in0.0 mm
11:50 AM 34.7°F1.5°C 25.2°F-3.8°C 68% 7.6 mph NNW12.2 kmh NNW 14.5 mph23.3 kmh 29.95 in1014.2 mb 0.00 in0.0 mm 0.00 in/hr0.0 mm/hr 0.00 in0.0 mm
11:51 AM 34.7°F1.5°C 25.2°F-3.8°C 68% 3.8 mph NNW6.1 kmh NNW 11.4 mph18.3 kmh 29.95 in1014.2 mb 0.00 in0.0 mm 0.00 in/hr0.0 mm/hr 0.00 in0.0 mm
11:52 AM 34.9°F1.6°C 25.4°F-3.7°C 68% 3.8 mph NNW6.1 kmh NNW 11.4 mph18.3 kmh 29.95 in1014.2 mb 0.00 in0.0 mm 0.00 in/hr0.0 mm/hr 0.00 in0.0 mm
11:53 AM 34.9°F1.6°C 25.4°F-3.7°C 68% 7.6 mph NNW12.2 kmh NNW 12.1 mph19.5 kmh 29.95 in1014.2 mb 0.00 in0.0 mm 0.00 in/hr0.0 mm/hr 0.00 in0.0 mm
11:54 AM 34.9°F1.6°C 25.1°F-3.8°C 67% 9.2 mph NNW14.8 kmh NNW 13.6 mph21.9 kmh 29.95 in1014.2 mb 0.00 in0.0 mm 0.00 in/hr0.0 mm/hr 0.00 in0.0 mm
11:55 AM 34.7°F1.5°C 24.9°F-3.9°C 67% 7.6 mph NNW12.2 kmh NNW 13.6 mph21.9 kmh 29.95 in1014.2 mb 0.00 in0.0 mm 0.00 in/hr0.0 mm/hr 0.00 in0.0 mm
11:56 AM 34.7°F1.5°C 24.9°F-3.9°C 67% 6.9 mph NNW11.1 kmh NNW 13.6 mph21.9 kmh 29.95 in1014.2 mb 0.00 in0.0 mm 0.00 in/hr0.0 mm/hr 0.00 in0.0 mm
11:57 AM 35.1°F1.7°C 25.2°F-3.8°C 67% 8.3 mph NNW13.4 kmh NNW 13.6 mph21.9 kmh 29.94 in1013.9 mb 0.00 in0.0 mm 0.00 in/hr0.0 mm/hr 0.00 in0.0 mm
11:58 AM 34.9°F1.6°C 25.1°F-3.8°C 67% 6.0 mph NNW9.7 kmh NNW 13.6 mph21.9 kmh 29.95 in1014.2 mb 0.00 in0.0 mm 0.00 in/hr0.0 mm/hr 0.00 in0.0 mm
11:59 AM 35.1°F1.7°C 25.2°F-3.8°C 67% 5.4 mph NW8.7 kmh NW 13.6 mph21.9 kmh 29.95 in1014.2 mb 0.00 in0.0 mm 0.00 in/hr0.0 mm/hr 0.00 in0.0 mm
12:00 PM 35.1°F1.7°C 25.2°F-3.8°C 67% 7.6 mph NW12.2 kmh NW 13.6 mph21.9 kmh 29.95 in1014.2 mb 0.00 in0.0 mm 0.00 in/hr0.0 mm/hr 0.00 in0.0 mm
12:01 PM 34.7°F1.5°C 24.9°F-3.9°C 67% 6.0 mph NW9.7 kmh NW 13.6 mph21.9 kmh 29.95 in1014.2 mb 0.00 in0.0 mm 0.00 in/hr0.0 mm/hr 0.00 in0.0 mm
12:02 PM 34.9°F1.6°C 25.1°F-3.8°C 67% 6.9 mph NW11.1 kmh NW 13.6 mph21.9 kmh 29.95 in1014.2 mb 0.00 in0.0 mm 0.00 in/hr0.0 mm/hr 0.00 in0.0 mm
12:03 PM 35.1°F1.7°C 25.6°F-3.6°C 68% 9.2 mph NW14.8 kmh NW 14.5 mph23.3 kmh 29.94 in1013.9 mb 0.00 in0.0 mm 0.00 in/hr0.0 mm/hr 0.00 in0.0 mm
12:04 PM 34.9°F1.6°C 25.4°F-3.7°C 68% 7.6 mph NW12.2 kmh NW 14.5 mph23.3 kmh 29.95 in1014.2 mb 0.00 in0.0 mm 0.00 in/hr0.0 mm/hr 0.00 in0.0 mm
12:05 PM 34.9°F1.6°C 25.1°F-3.8°C 67% 7.6 mph NW12.2 kmh NW 14.5 mph23.3 kmh 29.94 in1013.9 mb 0.00 in0.0 mm 0.00 in/hr0.0 mm/hr 0.00 in0.0 mm
12:06 PM 34.9°F1.6°C 25.1°F-3.8°C 67% 6.0 mph NW9.7 kmh NW 14.5 mph23.3 kmh 29.94 in1013.9 mb 0.00 in0.0 mm 0.00 in/hr0.0 mm/hr 0.00 in0.0 mm
12:07 PM 35.1°F1.7°C 25.2°F-3.8°C 67% 8.3 mph NW13.4 kmh NW 14.5 mph23.3 kmh 29.94 in1013.9 mb 0.00 in0.0 mm 0.00 in/hr0.0 mm/hr 0.00 in0.0 mm
12:08 PM 35.1°F1.7°C 25.2°F-3.8°C 67% 9.2 mph NW14.8 kmh NW 14.5 mph23.3 kmh 29.94 in1013.9 mb 0.00 in0.0 mm 0.00 in/hr0.0 mm/hr 0.00 in0.0 mm
12:09 PM 35.1°F1.7°C 25.2°F-3.8°C 67% 6.0 mph NW9.7 kmh NW 14.5 mph23.3 kmh 29.94 in1013.9 mb 0.00 in0.0 mm 0.00 in/hr0.0 mm/hr 0.00 in0.0 mm
12:10 PM 35.1°F1.7°C 25.2°F-3.8°C 67% 6.0 mph NNW9.7 kmh NNW 14.5 mph23.3 kmh 29.94 in1013.9 mb 0.00 in0.0 mm 0.00 in/hr0.0 mm/hr 0.00 in0.0 mm
12:11 PM 35.2°F1.8°C 25.4°F-3.7°C 67% 7.6 mph NNW12.2 kmh NNW 14.5 mph23.3 kmh 29.94 in1013.9 mb 0.00 in0.0 mm 0.00 in/hr0.0 mm/hr 0.00 in0.0 mm
12:12 PM 35.4°F1.9°C 25.6°F-3.6°C 67% 9.8 mph NNW15.8 kmh NNW 14.5 mph23.3 kmh 29.94 in1013.9 mb 0.00 in0.0 mm 0.00 in/hr0.0 mm/hr 0.00 in0.0 mm
12:13 PM 35.1°F1.7°C 25.2°F-3.8°C 67% 8.3 mph NNW13.4 kmh NNW 12.1 mph19.5 kmh 29.94 in1013.9 mb 0.00 in0.0 mm 0.00 in/hr0.0 mm/hr 0.00 in0.0 mm
12:14 PM 34.9°F1.6°C 25.1°F-3.8°C 67% 9.8 mph NNW15.8 kmh NNW 13.0 mph20.9 kmh 29.94 in1013.9 mb 0.00 in0.0 mm 0.00 in/hr0.0 mm/hr 0.00 in0.0 mm
12:15 PM 34.9°F1.6°C 25.1°F-3.8°C 67% 7.6 mph NNW12.2 kmh NNW 13.0 mph20.9 kmh 29.94 in1013.9 mb 0.00 in0.0 mm 0.00 in/hr0.0 mm/hr 0.00 in0.0 mm
12:16 PM 35.1°F1.7°C 25.2°F-3.8°C 67% 10.7 mph NNW17.2 kmh NNW 13.0 mph20.9 kmh 29.94 in1013.9 mb 0.00 in0.0 mm 0.00 in/hr0.0 mm/hr 0.00 in0.0 mm
12:17 PM 35.1°F1.7°C 25.2°F-3.8°C 67% 9.2 mph NNW14.8 kmh NNW 15.9 mph25.6 kmh 29.93 in1013.5 mb 0.00 in0.0 mm 0.00 in/hr0.0 mm/hr 0.00 in0.0 mm
12:18 PM 34.9°F1.6°C 24.7°F-4.1°C 66% 9.2 mph NNW14.8 kmh NNW 15.9 mph25.6 kmh 29.94 in1013.9 mb 0.00 in0.0 mm 0.00 in/hr0.0 mm/hr 0.00 in0.0 mm
12:19 PM 35.1°F1.7°C 24.9°F-3.9°C 66% 9.8 mph NNW15.8 kmh NNW 15.9 mph25.6 kmh 29.94 in1013.9 mb 0.00 in0.0 mm 0.00 in/hr0.0 mm/hr 0.00 in0.0 mm
12:20 PM 35.1°F1.7°C 24.9°F-3.9°C 66% 9.2 mph NNW14.8 kmh NNW 15.9 mph25.6 kmh 29.93 in1013.5 mb 0.00 in0.0 mm 0.00 in/hr0.0 mm/hr 0.00 in0.0 mm
12:21 PM 34.9°F1.6°C 24.7°F-4.1°C 66% 9.2 mph NNW14.8 kmh NNW 15.9 mph25.6 kmh 29.94 in1013.9 mb 0.00 in0.0 mm 0.00 in/hr0.0 mm/hr 0.00 in0.0 mm
12:22 PM 34.9°F1.6°C 24.7°F-4.1°C 66% 9.8 mph NNW15.8 kmh NNW 15.9 mph25.6 kmh 29.94 in1013.9 mb 0.00 in0.0 mm 0.00 in/hr0.0 mm/hr 0.00 in0.0 mm
12:23 PM 34.9°F1.6°C 24.7°F-4.1°C 66% 8.3 mph NNW13.4 kmh NNW 15.9 mph25.6 kmh 29.94 in1013.9 mb 0.00 in0.0 mm 0.00 in/hr0.0 mm/hr 0.00 in0.0 mm
12:24 PM 35.1°F1.7°C 24.9°F-3.9°C 66% 10.7 mph NNW17.2 kmh NNW 15.9 mph25.6 kmh 29.93 in1013.5 mb 0.00 in0.0 mm 0.00 in/hr0.0 mm/hr 0.00 in0.0 mm
12:25 PM 35.1°F1.7°C 24.9°F-3.9°C 66% 5.4 mph NNW8.7 kmh NNW 15.9 mph25.6 kmh 29.94 in1013.9 mb 0.00 in0.0 mm 0.00 in/hr0.0 mm/hr 0.00 in0.0 mm
12:26 PM 35.2°F1.8°C 25.4°F-3.7°C 67% 5.4 mph NNW8.7 kmh NNW 15.9 mph25.6 kmh 29.93 in1013.5 mb 0.00 in0.0 mm 0.00 in/hr0.0 mm/hr 0.00 in0.0 mm
12:27 PM 35.2°F1.8°C 25.4°F-3.7°C 67% 8.3 mph NNW13.4 kmh NNW 15.2 mph24.5 kmh 29.93 in1013.5 mb 0.00 in0.0 mm 0.00 in/hr0.0 mm/hr 0.00 in0.0 mm
12:28 PM 35.1°F1.7°C 25.2°F-3.8°C 67% 7.6 mph NNW12.2 kmh NNW 15.2 mph24.5 kmh 29.93 in1013.5 mb 0.00 in0.0 mm 0.00 in/hr0.0 mm/hr 0.00 in0.0 mm
12:29 PM 35.1°F1.7°C 25.2°F-3.8°C 67% 8.3 mph N13.4 kmh N 15.2 mph24.5 kmh 29.94 in1013.9 mb 0.00 in0.0 mm 0.00 in/hr0.0 mm/hr 0.00 in0.0 mm
12:30 PM 35.1°F1.7°C 25.2°F-3.8°C 67% 6.9 mph N11.1 kmh N 15.2 mph24.5 kmh 29.94 in1013.9 mb 0.00 in0.0 mm 0.00 in/hr0.0 mm/hr 0.00 in0.0 mm
12:31 PM 35.1°F1.7°C 25.2°F-3.8°C 67% 5.4 mph N8.7 kmh N 15.2 mph24.5 kmh 29.94 in1013.9 mb 0.00 in0.0 mm 0.00 in/hr0.0 mm/hr 0.00 in0.0 mm
12:32 PM 35.1°F1.7°C 25.2°F-3.8°C 67% 5.4 mph N8.7 kmh N 15.2 mph24.5 kmh 29.94 in1013.9 mb 0.00 in0.0 mm 0.00 in/hr0.0 mm/hr 0.00 in0.0 mm
12:33 PM 35.2°F1.8°C 25.4°F-3.7°C 67% 9.2 mph N14.8 kmh N 13.6 mph21.9 kmh 29.94 in1013.9 mb 0.00 in0.0 mm 0.00 in/hr0.0 mm/hr 0.00 in0.0 mm
12:34 PM 35.1°F1.7°C 25.2°F-3.8°C 67% 7.6 mph N12.2 kmh N 13.0 mph20.9 kmh 29.93 in1013.5 mb 0.00 in0.0 mm 0.00 in/hr0.0 mm/hr 0.00 in0.0 mm
12:35 PM 35.2°F1.8°C 25.0°F-3.9°C 66% 7.6 mph N12.2 kmh N 13.0 mph20.9 kmh 29.94 in1013.9 mb 0.00 in0.0 mm 0.00 in/hr0.0 mm/hr 0.00 in0.0 mm
12:36 PM 35.2°F1.8°C 25.0°F-3.9°C 66% 5.4 mph N8.7 kmh N 13.0 mph20.9 kmh 29.94 in1013.9 mb 0.00 in0.0 mm 0.00 in/hr0.0 mm/hr 0.00 in0.0 mm
12:37 PM 35.2°F1.8°C 25.0°F-3.9°C 66% 6.0 mph N9.7 kmh N 13.0 mph20.9 kmh 29.93 in1013.5 mb 0.00 in0.0 mm 0.00 in/hr0.0 mm/hr 0.00 in0.0 mm
12:38 PM 35.4°F1.9°C 25.2°F-3.8°C 66% 6.9 mph NNW11.1 kmh NNW 13.0 mph20.9 kmh 29.94 in1013.9 mb 0.00 in0.0 mm 0.00 in/hr0.0 mm/hr 0.00 in0.0 mm
12:39 PM 35.4°F1.9°C 25.2°F-3.8°C 66% 7.6 mph NNW12.2 kmh NNW 13.0 mph20.9 kmh 29.93 in1013.5 mb 0.00 in0.0 mm 0.00 in/hr0.0 mm/hr 0.00 in0.0 mm
12:40 PM 35.2°F1.8°C 25.0°F-3.9°C 66% 6.9 mph NNW11.1 kmh NNW 13.0 mph20.9 kmh 29.93 in1013.5 mb 0.00 in0.0 mm 0.00 in/hr0.0 mm/hr 0.00 in0.0 mm
12:41 PM 35.2°F1.8°C 25.0°F-3.9°C 66% 6.0 mph NNW9.7 kmh NNW 13.0 mph20.9 kmh 29.93 in1013.5 mb 0.00 in0.0 mm 0.00 in/hr0.0 mm/hr 0.00 in0.0 mm
12:42 PM 35.4°F1.9°C 25.2°F-3.8°C 66% 6.0 mph NNW9.7 kmh NNW 13.0 mph20.9 kmh 29.93 in1013.5 mb 0.00 in0.0 mm 0.00 in/hr0.0 mm/hr 0.00 in0.0 mm
12:43 PM 35.4°F1.9°C 25.2°F-3.8°C 66% 9.8 mph NNW15.8 kmh NNW 13.0 mph20.9 kmh 29.93 in1013.5 mb 0.00 in0.0 mm 0.00 in/hr0.0 mm/hr 0.00 in0.0 mm
12:44 PM 35.2°F1.8°C 24.7°F-4.1°C 65% 4.5 mph NNW7.2 kmh NNW 13.0 mph20.9 kmh 29.93 in1013.5 mb 0.00 in0.0 mm 0.00 in/hr0.0 mm/hr 0.00 in0.0 mm
12:45 PM 35.2°F1.8°C 24.7°F-4.1°C 65% 6.0 mph NNW9.7 kmh NNW 13.0 mph20.9 kmh 29.93 in1013.5 mb 0.00 in0.0 mm 0.00 in/hr0.0 mm/hr 0.00 in0.0 mm
12:46 PM 35.4°F1.9°C 24.8°F-4.0°C 65% 3.8 mph NNW6.1 kmh NNW 13.0 mph20.9 kmh 29.93 in1013.5 mb 0.00 in0.0 mm 0.00 in/hr0.0 mm/hr 0.00 in0.0 mm
12:47 PM 35.6°F2.0°C 24.3°F-4.3°C 63% 7.6 mph NNW12.2 kmh NNW 13.0 mph20.9 kmh 29.93 in1013.5 mb 0.00 in0.0 mm 0.00 in/hr0.0 mm/hr 0.00 in0.0 mm
12:48 PM 35.6°F2.0°C 24.3°F-4.3°C 63% 5.4 mph NNW8.7 kmh NNW 13.0 mph20.9 kmh 29.93 in1013.5 mb 0.00 in0.0 mm 0.00 in/hr0.0 mm/hr 0.00 in0.0 mm
12:49 PM 35.6°F2.0°C 24.3°F-4.3°C 63% 10.7 mph NNW17.2 kmh NNW 13.6 mph21.9 kmh 29.93 in1013.5 mb 0.00 in0.0 mm 0.00 in/hr0.0 mm/hr 0.00 in0.0 mm
12:50 PM 35.4°F1.9°C 24.1°F-4.4°C 63% 6.9 mph NNW11.1 kmh NNW 13.6 mph21.9 kmh 29.93 in1013.5 mb 0.00 in0.0 mm 0.00 in/hr0.0 mm/hr 0.00 in0.0 mm
12:51 PM 35.4°F1.9°C 24.1°F-4.4°C 63% 8.3 mph NNW13.4 kmh NNW 13.6 mph21.9 kmh 29.93 in1013.5 mb 0.00 in0.0 mm 0.00 in/hr0.0 mm/hr 0.00 in0.0 mm
12:52 PM 35.4°F1.9°C 23.7°F-4.6°C 62% 9.8 mph NNW15.8 kmh NNW 15.2 mph24.5 kmh 29.93 in1013.5 mb 0.00 in0.0 mm 0.00 in/hr0.0 mm/hr 0.00 in0.0 mm
12:53 PM 35.4°F1.9°C 23.7°F-4.6°C 62% 9.2 mph NNW14.8 kmh NNW 15.2 mph24.5 kmh 29.93 in1013.5 mb 0.00 in0.0 mm 0.00 in/hr0.0 mm/hr 0.00 in0.0 mm
12:54 PM 35.2°F1.8°C 23.5°F-4.7°C 62% 7.6 mph N12.2 kmh N 15.2 mph24.5 kmh 29.93 in1013.5 mb 0.00 in0.0 mm 0.00 in/hr0.0 mm/hr 0.00 in0.0 mm
12:55 PM 35.4°F1.9°C 23.7°F-4.6°C 62% 9.2 mph N14.8 kmh N 15.2 mph24.5 kmh 29.93 in1013.5 mb 0.00 in0.0 mm 0.00 in/hr0.0 mm/hr 0.00 in0.0 mm
12:56 PM 35.4°F1.9°C 23.7°F-4.6°C 62% 7.6 mph NNW12.2 kmh NNW 15.2 mph24.5 kmh 29.93 in1013.5 mb 0.00 in0.0 mm 0.00 in/hr0.0 mm/hr 0.00 in0.0 mm
12:57 PM 35.6°F2.0°C 23.5°F-4.7°C 61% 9.8 mph NNW15.8 kmh NNW 15.2 mph24.5 kmh 29.93 in1013.5 mb 0.00 in0.0 mm 0.00 in/hr0.0 mm/hr 0.00 in0.0 mm
12:58 PM 35.4°F1.9°C 23.3°F-4.8°C 61% 10.7 mph NNW17.2 kmh NNW 15.2 mph24.5 kmh 29.93 in1013.5 mb 0.00 in0.0 mm 0.00 in/hr0.0 mm/hr 0.00 in0.0 mm
12:59 PM 35.4°F1.9°C 23.3°F-4.8°C 61% 9.8 mph N15.8 kmh N 16.8 mph27.0 kmh 29.93 in1013.5 mb 0.00 in0.0 mm 0.00 in/hr0.0 mm/hr 0.00 in0.0 mm
01:00 PM 35.4°F1.9°C 23.3°F-4.8°C 61% 10.7 mph N17.2 kmh N 18.3 mph29.5 kmh 29.93 in1013.5 mb 0.00 in0.0 mm 0.00 in/hr0.0 mm/hr 0.00 in0.0 mm
01:01 PM 35.4°F1.9°C 23.7°F-4.6°C 62% 9.2 mph N14.8 kmh N 18.3 mph29.5 kmh 29.93 in1013.5 mb 0.00 in0.0 mm 0.00 in/hr0.0 mm/hr 0.00 in0.0 mm
01:02 PM 35.4°F1.9°C 23.7°F-4.6°C 62% 6.0 mph N9.7 kmh N 18.3 mph29.5 kmh 29.93 in1013.5 mb 0.00 in0.0 mm 0.00 in/hr0.0 mm/hr 0.00 in0.0 mm
01:03 PM 35.6°F2.0°C 23.5°F-4.7°C 61% 5.4 mph N8.7 kmh N 18.3 mph29.5 kmh 29.93 in1013.5 mb 0.00 in0.0 mm 0.00 in/hr0.0 mm/hr 0.00 in0.0 mm
01:04 PM 35.6°F2.0°C 23.5°F-4.7°C 61% 9.2 mph N14.8 kmh N 18.3 mph29.5 kmh 29.93 in1013.5 mb 0.00 in0.0 mm 0.00 in/hr0.0 mm/hr 0.00 in0.0 mm
01:05 PM 35.4°F1.9°C 23.7°F-4.6°C 62% 8.3 mph N13.4 kmh N 18.3 mph29.5 kmh 29.93 in1013.5 mb 0.00 in0.0 mm 0.00 in/hr0.0 mm/hr 0.00 in0.0 mm
01:06 PM 35.6°F2.0°C 23.5°F-4.7°C 61% 8.3 mph N13.4 kmh N 18.3 mph29.5 kmh 29.93 in1013.5 mb 0.00 in0.0 mm 0.00 in/hr0.0 mm/hr 0.00 in0.0 mm
01:07 PM 35.4°F1.9°C 23.7°F-4.6°C 62% 6.9 mph N11.1 kmh N 18.3 mph29.5 kmh 29.93 in1013.5 mb 0.00 in0.0 mm 0.00 in/hr0.0 mm/hr 0.00 in0.0 mm
01:08 PM 35.6°F2.0°C 23.5°F-4.7°C 61% 6.9 mph N11.1 kmh N 18.3 mph29.5 kmh 29.93 in1013.5 mb 0.00 in0.0 mm 0.00 in/hr0.0 mm/hr 0.00 in0.0 mm
01:09 PM 35.6°F2.0°C 23.5°F-4.7°C 61% 4.5 mph NNW7.2 kmh NNW 18.3 mph29.5 kmh 29.93 in1013.5 mb 0.00 in0.0 mm 0.00 in/hr0.0 mm/hr 0.00 in0.0 mm
01:10 PM 35.8°F2.1°C 23.7°F-4.6°C 61% 6.0 mph N9.7 kmh N 13.0 mph20.9 kmh 29.93 in1013.5 mb 0.00 in0.0 mm 0.00 in/hr0.0 mm/hr 0.00 in0.0 mm
01:11 PM 35.8°F2.1°C 23.7°F-4.6°C 61% 5.4 mph N8.7 kmh N 13.0 mph20.9 kmh 29.93 in1013.5 mb 0.00 in0.0 mm 0.00 in/hr0.0 mm/hr 0.00 in0.0 mm
01:12 PM 35.8°F2.1°C 23.7°F-4.6°C 61% 6.0 mph N9.7 kmh N 13.0 mph20.9 kmh 29.93 in1013.5 mb 0.00 in0.0 mm 0.00 in/hr0.0 mm/hr 0.00 in0.0 mm
01:13 PM 36.0°F2.2°C 24.2°F-4.3°C 62% 8.3 mph N13.4 kmh N 13.0 mph20.9 kmh 29.93 in1013.5 mb 0.00 in0.0 mm 0.00 in/hr0.0 mm/hr 0.00 in0.0 mm
01:14 PM 35.6°F2.0°C 23.5°F-4.7°C 61% 9.2 mph N14.8 kmh N 13.0 mph20.9 kmh 29.93 in1013.5 mb 0.00 in0.0 mm 0.00 in/hr0.0 mm/hr 0.00 in0.0 mm
01:15 PM 35.6°F2.0°C 23.5°F-4.7°C 61% 7.6 mph N12.2 kmh N 13.0 mph20.9 kmh 29.93 in1013.5 mb 0.00 in0.0 mm 0.00 in/hr0.0 mm/hr 0.00 in0.0 mm
01:16 PM 35.6°F2.0°C 23.5°F-4.7°C 61% 10.7 mph N17.2 kmh N 14.5 mph23.3 kmh 29.93 in1013.5 mb 0.00 in0.0 mm 0.00 in/hr0.0 mm/hr 0.00 in0.0 mm
01:17 PM 35.4°F1.9°C 23.3°F-4.8°C 61% 9.2 mph N14.8 kmh N 16.8 mph27.0 kmh 29.93 in1013.5 mb 0.00 in0.0 mm 0.00 in/hr0.0 mm/hr 0.00 in0.0 mm
01:18 PM 35.4°F1.9°C 23.3°F-4.8°C 61% 10.7 mph N17.2 kmh N 16.8 mph27.0 kmh 29.93 in1013.5 mb 0.00 in0.0 mm 0.00 in/hr0.0 mm/hr 0.00 in0.0 mm
01:19 PM 35.2°F1.8°C 23.2°F-4.9°C 61% 8.3 mph N13.4 kmh N 16.8 mph27.0 kmh 29.93 in1013.5 mb 0.00 in0.0 mm 0.00 in/hr0.0 mm/hr 0.00 in0.0 mm
01:20 PM 35.4°F1.9°C 23.3°F-4.8°C 61% 8.3 mph N13.4 kmh N 16.8 mph27.0 kmh 29.93 in1013.5 mb 0.00 in0.0 mm 0.00 in/hr0.0 mm/hr 0.00 in0.0 mm
01:21 PM 35.4°F1.9°C 23.3°F-4.8°C 61% 7.6 mph N12.2 kmh N 16.8 mph27.0 kmh 29.93 in1013.5 mb 0.00 in0.0 mm 0.00 in/hr0.0 mm/hr 0.00 in0.0 mm
01:22 PM 35.6°F2.0°C 23.5°F-4.7°C 61% 7.6 mph NNW12.2 kmh NNW 16.8 mph27.0 kmh 29.93 in1013.5 mb 0.00 in0.0 mm 0.00 in/hr0.0 mm/hr 0.00 in0.0 mm
01:23 PM 35.6°F2.0°C 23.5°F-4.7°C 61% 6.0 mph NNW9.7 kmh NNW 16.8 mph27.0 kmh 29.93 in1013.5 mb 0.00 in0.0 mm 0.00 in/hr0.0 mm/hr 0.00 in0.0 mm
01:24 PM 35.6°F2.0°C 23.5°F-4.7°C 61% 5.4 mph NNW8.7 kmh NNW 16.8 mph27.0 kmh 29.93 in1013.5 mb 0.00 in0.0 mm 0.00 in/hr0.0 mm/hr 0.00 in0.0 mm
01:25 PM 35.8°F2.1°C 23.7°F-4.6°C 61% 5.4 mph NW8.7 kmh NW 16.8 mph27.0 kmh 29.93 in1013.5 mb 0.00 in0.0 mm 0.00 in/hr0.0 mm/hr 0.00 in0.0 mm
01:26 PM 35.8°F2.1°C 23.7°F-4.6°C 61% 9.2 mph NW14.8 kmh NW 16.8 mph27.0 kmh 29.93 in1013.5 mb 0.00 in0.0 mm 0.00 in/hr0.0 mm/hr 0.00 in0.0 mm
01:27 PM 35.6°F2.0°C 23.5°F-4.7°C 61% 8.3 mph NNW13.4 kmh NNW 14.5 mph23.3 kmh 29.93 in1013.5 mb 0.00 in0.0 mm 0.00 in/hr0.0 mm/hr 0.00 in0.0 mm
01:28 PM 35.6°F2.0°C 23.5°F-4.7°C 61% 8.3 mph NNW13.4 kmh NNW 14.5 mph23.3 kmh 29.93 in1013.5 mb 0.00 in0.0 mm 0.00 in/hr0.0 mm/hr 0.00 in0.0 mm
01:29 PM 35.6°F2.0°C 23.5°F-4.7°C 61% 6.9 mph NNW11.1 kmh NNW 13.6 mph21.9 kmh 29.93 in1013.5 mb 0.00 in0.0 mm 0.00 in/hr0.0 mm/hr 0.00 in0.0 mm
01:30 PM 35.8°F2.1°C 23.7°F-4.6°C 61% 8.3 mph NNW13.4 kmh NNW 13.6 mph21.9 kmh 29.93 in1013.5 mb 0.00 in0.0 mm 0.00 in/hr0.0 mm/hr 0.00 in0.0 mm
01:31 PM 35.8°F2.1°C 23.7°F-4.6°C 61% 8.3 mph NNW13.4 kmh NNW 13.6 mph21.9 kmh 29.93 in1013.5 mb 0.00 in0.0 mm 0.00 in/hr0.0 mm/hr 0.00 in0.0 mm
01:32 PM 35.8°F2.1°C 23.7°F-4.6°C 61% 8.3 mph N13.4 kmh N 13.6 mph21.9 kmh 29.93 in1013.5 mb 0.00 in0.0 mm 0.00 in/hr0.0 mm/hr 0.00 in0.0 mm
01:33 PM 35.8°F2.1°C 23.7°F-4.6°C 61% 8.3 mph N13.4 kmh N 13.6 mph21.9 kmh 29.93 in1013.5 mb 0.00 in0.0 mm 0.00 in/hr0.0 mm/hr 0.00 in0.0 mm
01:34 PM 35.8°F2.1°C 23.7°F-4.6°C 61% 6.9 mph N11.1 kmh N 13.6 mph21.9 kmh 29.93 in1013.5 mb 0.00 in0.0 mm 0.00 in/hr0.0 mm/hr 0.00 in0.0 mm
01:35 PM 35.8°F2.1°C 23.7°F-4.6°C 61% 8.3 mph N13.4 kmh N 13.6 mph21.9 kmh 29.93 in1013.5 mb 0.00 in0.0 mm 0.00 in/hr0.0 mm/hr 0.00 in0.0 mm
01:36 PM 35.8°F2.1°C 23.3°F-4.8°C 60% 10.7 mph N17.2 kmh N 13.6 mph21.9 kmh 29.93 in1013.5 mb 0.00 in0.0 mm 0.00 in/hr0.0 mm/hr 0.00 in0.0 mm
01:37 PM 35.8°F2.1°C 23.3°F-4.8°C 60% 10.7 mph N17.2 kmh N 13.6 mph21.9 kmh 29.93 in1013.5 mb 0.00 in0.0 mm 0.00 in/hr0.0 mm/hr 0.00 in0.0 mm
01:38 PM 35.8°F2.1°C 23.3°F-4.8°C 60% 9.2 mph N14.8 kmh N 13.6 mph21.9 kmh 29.93 in1013.5 mb 0.00 in0.0 mm 0.00 in/hr0.0 mm/hr 0.00 in0.0 mm
01:39 PM 35.8°F2.1°C 23.3°F-4.8°C 60% 6.0 mph N9.7 kmh N 13.6 mph21.9 kmh 29.93 in1013.5 mb 0.00 in0.0 mm 0.00 in/hr0.0 mm/hr 0.00 in0.0 mm
01:40 PM 35.8°F2.1°C 23.3°F-4.8°C 60% 6.9 mph N11.1 kmh N 13.6 mph21.9 kmh 29.93 in1013.5 mb 0.00 in0.0 mm 0.00 in/hr0.0 mm/hr 0.00 in0.0 mm
01:41 PM 35.8°F2.1°C 23.3°F-4.8°C 60% 6.9 mph N11.1 kmh N 13.6 mph21.9 kmh 29.93 in1013.5 mb 0.00 in0.0 mm 0.00 in/hr0.0 mm/hr 0.00 in0.0 mm
01:42 PM 35.8°F2.1°C 23.3°F-4.8°C 60% 6.9 mph N11.1 kmh N 13.6 mph21.9 kmh 29.93 in1013.5 mb 0.00 in0.0 mm 0.00 in/hr0.0 mm/hr 0.00 in0.0 mm
01:43 PM 35.8°F2.1°C 23.3°F-4.8°C 60% 7.6 mph N12.2 kmh N 13.6 mph21.9 kmh 29.93 in1013.5 mb 0.00 in0.0 mm 0.00 in/hr0.0 mm/hr 0.00 in0.0 mm
01:44 PM 36.0°F2.2°C 23.4°F-4.8°C 60% 7.6 mph N12.2 kmh N 13.6 mph21.9 kmh 29.93 in1013.5 mb 0.00 in0.0 mm 0.00 in/hr0.0 mm/hr 0.00 in0.0 mm
01:45 PM 36.0°F2.2°C 23.4°F-4.8°C 60% 4.5 mph NNW7.2 kmh NNW 13.6 mph21.9 kmh 29.93 in1013.5 mb 0.00 in0.0 mm 0.00 in/hr0.0 mm/hr 0.00 in0.0 mm
01:46 PM 36.0°F2.2°C 23.8°F-4.6°C 61% 7.6 mph NNW12.2 kmh NNW 13.6 mph21.9 kmh 29.93 in1013.5 mb 0.00 in0.0 mm 0.00 in/hr0.0 mm/hr 0.00 in0.0 mm
01:47 PM 35.8°F2.1°C 23.7°F-4.6°C 61% 6.0 mph NNW9.7 kmh NNW 13.0 mph20.9 kmh 29.93 in1013.5 mb 0.00 in0.0 mm 0.00 in/hr0.0 mm/hr 0.00 in0.0 mm
01:48 PM 35.8°F2.1°C 24.1°F-4.4°C 62% 8.3 mph NNW13.4 kmh NNW 13.0 mph20.9 kmh 29.93 in1013.5 mb 0.00 in0.0 mm 0.00 in/hr0.0 mm/hr 0.00 in0.0 mm
01:49 PM 35.6°F2.0°C 23.9°F-4.5°C 62% 9.2 mph NNW14.8 kmh NNW 14.5 mph23.3 kmh 29.93 in1013.5 mb 0.00 in0.0 mm 0.00 in/hr0.0 mm/hr 0.00 in0.0 mm
01:50 PM 35.4°F1.9°C 24.1°F-4.4°C 63% 9.2 mph NNW14.8 kmh NNW 14.5 mph23.3 kmh 29.93 in1013.5 mb 0.00 in0.0 mm 0.00 in/hr0.0 mm/hr 0.00 in0.0 mm
01:51 PM 35.4°F1.9°C 24.1°F-4.4°C 63% 5.4 mph NNW8.7 kmh NNW 14.5 mph23.3 kmh 29.93 in1013.5 mb 0.00 in0.0 mm 0.00 in/hr0.0 mm/hr 0.00 in0.0 mm
01:52 PM 35.6°F2.0°C 24.3°F-4.3°C 63% 6.0 mph NNW9.7 kmh NNW 14.5 mph23.3 kmh 29.93 in1013.5 mb 0.00 in0.0 mm 0.00 in/hr0.0 mm/hr 0.00 in0.0 mm
01:53 PM 35.6°F2.0°C 24.3°F-4.3°C 63% 9.2 mph NNW14.8 kmh NNW 14.5 mph23.3 kmh 29.93 in1013.5 mb 0.00 in0.0 mm 0.00 in/hr0.0 mm/hr 0.00 in0.0 mm
01:54 PM 35.4°F1.9°C 24.8°F-4.0°C 65% 9.2 mph NNW14.8 kmh NNW 14.5 mph23.3 kmh 29.93 in1013.5 mb 0.00 in0.0 mm 0.00 in/hr0.0 mm/hr 0.00 in0.0 mm
01:55 PM 35.4°F1.9°C 24.8°F-4.0°C 65% 9.2 mph NNW14.8 kmh NNW 14.5 mph23.3 kmh 29.93 in1013.5 mb 0.00 in0.0 mm 0.00 in/hr0.0 mm/hr 0.00 in0.0 mm
01:56 PM 35.2°F1.8°C 24.7°F-4.1°C 65% 7.6 mph NNW12.2 kmh NNW 14.5 mph23.3 kmh 29.93 in1013.5 mb 0.00 in0.0 mm 0.00 in/hr0.0 mm/hr 0.00 in0.0 mm
01:57 PM 35.2°F1.8°C 24.7°F-4.1°C 65% 7.6 mph NNW12.2 kmh NNW 14.5 mph23.3 kmh 29.93 in1013.5 mb 0.00 in0.0 mm 0.00 in/hr0.0 mm/hr 0.00 in0.0 mm
01:58 PM 35.2°F1.8°C 24.7°F-4.1°C 65% 6.0 mph NNW9.7 kmh NNW 14.5 mph23.3 kmh 29.93 in1013.5 mb 0.00 in0.0 mm 0.00 in/hr0.0 mm/hr 0.00 in0.0 mm
01:59 PM 35.4°F1.9°C 25.2°F-3.8°C 66% 6.9 mph NNW11.1 kmh NNW 14.5 mph23.3 kmh 29.93 in1013.5 mb 0.00 in0.0 mm 0.00 in/hr0.0 mm/hr 0.00 in0.0 mm
02:00 PM 35.4°F1.9°C 25.2°F-3.8°C 66% 9.8 mph NNW15.8 kmh NNW 13.6 mph21.9 kmh 29.93 in1013.5 mb 0.00 in0.0 mm 0.00 in/hr0.0 mm/hr 0.00 in0.0 mm
02:01 PM 35.2°F1.8°C 24.7°F-4.1°C 65% 8.3 mph NNW13.4 kmh NNW 13.6 mph21.9 kmh 29.93 in1013.5 mb 0.00 in0.0 mm 0.00 in/hr0.0 mm/hr 0.00 in0.0 mm
02:02 PM 35.2°F1.8°C 24.7°F-4.1°C 65% 7.6 mph NNW12.2 kmh NNW 13.6 mph21.9 kmh 29.93 in1013.5 mb 0.00 in0.0 mm 0.00 in/hr0.0 mm/hr 0.00 in0.0 mm
02:03 PM 35.4°F1.9°C 24.8°F-4.0°C 65% 8.3 mph NNW13.4 kmh NNW 13.6 mph21.9 kmh 29.93 in1013.5 mb 0.00 in0.0 mm 0.00 in/hr0.0 mm/hr 0.00 in0.0 mm
02:04 PM 35.2°F1.8°C 24.7°F-4.1°C 65% 6.9 mph NNW11.1 kmh NNW 13.6 mph21.9 kmh 29.93 in1013.5 mb 0.00 in0.0 mm 0.00 in/hr0.0 mm/hr 0.00 in0.0 mm
02:05 PM 35.6°F2.0°C 24.3°F-4.3°C 63% 8.3 mph N13.4 kmh N 13.6 mph21.9 kmh 29.93 in1013.5 mb 0.00 in0.0 mm 0.00 in/hr0.0 mm/hr 0.00 in0.0 mm
02:06 PM 35.6°F2.0°C 24.3°F-4.3°C 63% 8.3 mph NNW13.4 kmh NNW 13.6 mph21.9 kmh 29.93 in1013.5 mb 0.00 in0.0 mm 0.00 in/hr0.0 mm/hr 0.00 in0.0 mm
02:07 PM 35.4°F1.9°C 24.8°F-4.0°C 65% 6.0 mph NNW9.7 kmh NNW 13.6 mph21.9 kmh 29.93 in1013.5 mb 0.00 in0.0 mm 0.00 in/hr0.0 mm/hr 0.00 in0.0 mm
02:08 PM 35.4°F1.9°C 24.8°F-4.0°C 65% 10.7 mph NNW17.2 kmh NNW 13.6 mph21.9 kmh 29.93 in1013.5 mb 0.00 in0.0 mm 0.00 in/hr0.0 mm/hr 0.00 in0.0 mm
02:09 PM 35.4°F1.9°C 24.1°F-4.4°C 63% 6.9 mph NNW11.1 kmh NNW 13.6 mph21.9 kmh 29.93 in1013.5 mb 0.00 in0.0 mm 0.00 in/hr0.0 mm/hr 0.00 in0.0 mm
02:10 PM 35.4°F1.9°C 24.1°F-4.4°C 63% 5.4 mph NNW8.7 kmh NNW 13.0 mph20.9 kmh 29.93 in1013.5 mb 0.00 in0.0 mm 0.00 in/hr0.0 mm/hr 0.00 in0.0 mm
02:11 PM 35.6°F2.0°C 23.9°F-4.5°C 62% 4.5 mph NNW7.2 kmh NNW 13.0 mph20.9 kmh 29.93 in1013.5 mb 0.00 in0.0 mm 0.00 in/hr0.0 mm/hr 0.00 in0.0 mm
02:12 PM 35.6°F2.0°C 24.3°F-4.3°C 63% 6.9 mph N11.1 kmh N 13.0 mph20.9 kmh 29.92 in1013.2 mb 0.00 in0.0 mm 0.00 in/hr0.0 mm/hr 0.00 in0.0 mm
02:13 PM 35.4°F1.9°C 24.1°F-4.4°C 63% 8.3 mph N13.4 kmh N 13.0 mph20.9 kmh 29.93 in1013.5 mb 0.00 in0.0 mm 0.00 in/hr0.0 mm/hr 0.00 in0.0 mm
02:14 PM 35.6°F2.0°C 23.9°F-4.5°C 62% 7.6 mph N12.2 kmh N 13.0 mph20.9 kmh 29.93 in1013.5 mb 0.00 in0.0 mm 0.00 in/hr0.0 mm/hr 0.00 in0.0 mm
02:15 PM 35.4°F1.9°C 24.1°F-4.4°C 63% 9.2 mph N14.8 kmh N 13.0 mph20.9 kmh 29.93 in1013.5 mb 0.00 in0.0 mm 0.00 in/hr0.0 mm/hr 0.00 in0.0 mm
02:16 PM 35.4°F1.9°C 24.1°F-4.4°C 63% 8.3 mph N13.4 kmh N 13.0 mph20.9 kmh 29.93 in1013.5 mb 0.00 in0.0 mm 0.00 in/hr0.0 mm/hr 0.00 in0.0 mm
02:17 PM 35.4°F1.9°C 23.7°F-4.6°C 62% 8.3 mph N13.4 kmh N 13.0 mph20.9 kmh 29.93 in1013.5 mb 0.00 in0.0 mm 0.00 in/hr0.0 mm/hr 0.00 in0.0 mm
02:18 PM 35.4°F1.9°C 23.7°F-4.6°C 62% 9.2 mph N14.8 kmh N 13.0 mph20.9 kmh 29.93 in1013.5 mb 0.00 in0.0 mm 0.00 in/hr0.0 mm/hr 0.00 in0.0 mm
02:19 PM 35.4°F1.9°C 23.7°F-4.6°C 62% 4.5 mph N7.2 kmh N 13.0 mph20.9 kmh 29.92 in1013.2 mb 0.00 in0.0 mm 0.00 in/hr0.0 mm/hr 0.00 in0.0 mm
02:20 PM 35.6°F2.0°C 23.9°F-4.5°C 62% 6.0 mph N9.7 kmh N 13.0 mph20.9 kmh 29.93 in1013.5 mb 0.00 in0.0 mm 0.00 in/hr0.0 mm/hr 0.00 in0.0 mm
02:21 PM 35.6°F2.0°C 23.9°F-4.5°C 62% 6.0 mph N9.7 kmh N 13.0 mph20.9 kmh 29.93 in1013.5 mb 0.00 in0.0 mm 0.00 in/hr0.0 mm/hr 0.00 in0.0 mm
02:22 PM 35.6°F2.0°C 23.9°F-4.5°C 62% 5.4 mph NNW8.7 kmh NNW 13.0 mph20.9 kmh 29.93 in1013.5 mb 0.00 in0.0 mm 0.00 in/hr0.0 mm/hr 0.00 in0.0 mm
02:23 PM 35.8°F2.1°C 24.1°F-4.4°C 62% 6.0 mph NNW9.7 kmh NNW 13.0 mph20.9 kmh 29.92 in1013.2 mb 0.00 in0.0 mm 0.00 in/hr0.0 mm/hr 0.00 in0.0 mm
02:24 PM 35.8°F2.1°C 24.1°F-4.4°C 62% 6.9 mph NNW11.1 kmh NNW 13.0 mph20.9 kmh 29.93 in1013.5 mb 0.00 in0.0 mm 0.00 in/hr0.0 mm/hr 0.00 in0.0 mm
02:25 PM 35.8°F2.1°C 24.1°F-4.4°C 62% 8.3 mph NNW13.4 kmh NNW 12.1 mph19.5 kmh 29.92 in1013.2 mb 0.00 in0.0 mm 0.00 in/hr0.0 mm/hr 0.00 in0.0 mm
02:26 PM 35.8°F2.1°C 24.1°F-4.4°C 62% 6.0 mph NNW9.7 kmh NNW 12.1 mph19.5 kmh 29.93 in1013.5 mb 0.00 in0.0 mm 0.00 in/hr0.0 mm/hr 0.00 in0.0 mm
02:27 PM 35.8°F2.1°C 24.1°F-4.4°C 62% 5.4 mph N8.7 kmh N 12.1 mph19.5 kmh 29.92 in1013.2 mb 0.00 in0.0 mm 0.00 in/hr0.0 mm/hr 0.00 in0.0 mm
02:28 PM 35.8°F2.1°C 24.4°F-4.2°C 63% 7.6 mph N12.2 kmh N 12.1 mph19.5 kmh 29.92 in1013.2 mb 0.00 in0.0 mm 0.00 in/hr0.0 mm/hr 0.00 in0.0 mm
02:29 PM 35.6°F2.0°C 23.9°F-4.5°C 62% 6.9 mph N11.1 kmh N 12.1 mph19.5 kmh 29.92 in1013.2 mb 0.00 in0.0 mm 0.00 in/hr0.0 mm/hr 0.00 in0.0 mm
02:30 PM 35.6°F2.0°C 23.9°F-4.5°C 62% 5.4 mph N8.7 kmh N 12.1 mph19.5 kmh 29.92 in1013.2 mb 0.00 in0.0 mm 0.00 in/hr0.0 mm/hr 0.00 in0.0 mm
02:31 PM 35.8°F2.1°C 24.1°F-4.4°C 62% 3.8 mph N6.1 kmh N 12.1 mph19.5 kmh 29.92 in1013.2 mb 0.00 in0.0 mm 0.00 in/hr0.0 mm/hr 0.00 in0.0 mm
02:32 PM 35.8°F2.1°C 24.1°F-4.4°C 62% 5.4 mph N8.7 kmh N 12.1 mph19.5 kmh 29.93 in1013.5 mb 0.00 in0.0 mm 0.00 in/hr0.0 mm/hr 0.00 in0.0 mm
02:33 PM 35.8°F2.1°C 24.1°F-4.4°C 62% 6.9 mph N11.1 kmh N 15.2 mph24.5 kmh 29.92 in1013.2 mb 0.00 in0.0 mm 0.00 in/hr0.0 mm/hr 0.00 in0.0 mm
02:34 PM 35.8°F2.1°C 24.1°F-4.4°C 62% 9.2 mph N14.8 kmh N 15.2 mph24.5 kmh 29.92 in1013.2 mb 0.00 in0.0 mm 0.00 in/hr0.0 mm/hr 0.00 in0.0 mm
02:35 PM 35.8°F2.1°C 24.1°F-4.4°C 62% 6.0 mph N9.7 kmh N 15.2 mph24.5 kmh 29.92 in1013.2 mb 0.00 in0.0 mm 0.00 in/hr0.0 mm/hr 0.00 in0.0 mm
02:36 PM 35.8°F2.1°C 24.1°F-4.4°C 62% 5.4 mph N8.7 kmh N 15.2 mph24.5 kmh 29.92 in1013.2 mb 0.00 in0.0 mm 0.00 in/hr0.0 mm/hr 0.00 in0.0 mm
02:37 PM 35.8°F2.1°C 24.1°F-4.4°C 62% 5.4 mph N8.7 kmh N 15.2 mph24.5 kmh 29.92 in1013.2 mb 0.00 in0.0 mm 0.00 in/hr0.0 mm/hr 0.00 in0.0 mm
02:38 PM 36.0°F2.2°C 24.2°F-4.3°C 62% 8.3 mph N13.4 kmh N 15.2 mph24.5 kmh 29.92 in1013.2 mb 0.00 in0.0 mm 0.00 in/hr0.0 mm/hr 0.00 in0.0 mm
02:39 PM 35.8°F2.1°C 24.1°F-4.4°C 62% 8.3 mph N13.4 kmh N 15.2 mph24.5 kmh 29.92 in1013.2 mb 0.00 in0.0 mm 0.00 in/hr0.0 mm/hr 0.00 in0.0 mm
02:40 PM 35.8°F2.1°C 24.1°F-4.4°C 62% 9.2 mph N14.8 kmh N 15.9 mph25.6 kmh 29.92 in1013.2 mb 0.00 in0.0 mm 0.00 in/hr0.0 mm/hr 0.00 in0.0 mm
02:41 PM 35.8°F2.1°C 24.1°F-4.4°C 62% 8.3 mph N13.4 kmh N 15.9 mph25.6 kmh 29.92 in1013.2 mb 0.00 in0.0 mm 0.00 in/hr0.0 mm/hr 0.00 in0.0 mm
02:42 PM 35.8°F2.1°C 24.1°F-4.4°C 62% 7.6 mph N12.2 kmh N 15.9 mph25.6 kmh 29.92 in1013.2 mb 0.00 in0.0 mm 0.00 in/hr0.0 mm/hr 0.00 in0.0 mm
02:43 PM 35.8°F2.1°C 24.1°F-4.4°C 62% 6.9 mph N11.1 kmh N 15.9 mph25.6 kmh 29.92 in1013.2 mb 0.00 in0.0 mm 0.00 in/hr0.0 mm/hr 0.00 in0.0 mm
02:44 PM 35.8°F2.1°C 24.1°F-4.4°C 62% 6.9 mph N11.1 kmh N 15.9 mph25.6 kmh 29.92 in1013.2 mb 0.00 in0.0 mm 0.00 in/hr0.0 mm/hr 0.00 in0.0 mm
02:45 PM 36.0°F2.2°C 24.2°F-4.3°C 62% 6.9 mph N11.1 kmh N 15.9 mph25.6 kmh 29.92 in1013.2 mb 0.00 in0.0 mm 0.00 in/hr0.0 mm/hr 0.00 in0.0 mm
02:46 PM 35.8°F2.1°C 24.1°F-4.4°C 62% 9.8 mph N15.8 kmh N 15.9 mph25.6 kmh 29.92 in1013.2 mb 0.00 in0.0 mm 0.00 in/hr0.0 mm/hr 0.00 in0.0 mm
02:47 PM 35.8°F2.1°C 24.1°F-4.4°C 62% 9.8 mph N15.8 kmh N 17.4 mph28.0 kmh 29.92 in1013.2 mb 0.00 in0.0 mm 0.00 in/hr0.0 mm/hr 0.00 in0.0 mm
02:48 PM 35.8°F2.1°C 24.1°F-4.4°C 62% 8.3 mph N13.4 kmh N 17.4 mph28.0 kmh 29.92 in1013.2 mb 0.00 in0.0 mm 0.00 in/hr0.0 mm/hr 0.00 in0.0 mm
02:49 PM 35.6°F2.0°C 23.5°F-4.7°C 61% 5.4 mph N8.7 kmh N 17.4 mph28.0 kmh 29.92 in1013.2 mb 0.00 in0.0 mm 0.00 in/hr0.0 mm/hr 0.00 in0.0 mm
02:50 PM 35.8°F2.1°C 23.7°F-4.6°C 61% 7.6 mph N12.2 kmh N 17.4 mph28.0 kmh 29.92 in1013.2 mb 0.00 in0.0 mm 0.00 in/hr0.0 mm/hr 0.00 in0.0 mm
02:51 PM 35.8°F2.1°C 23.7°F-4.6°C 61% 6.0 mph N9.7 kmh N 17.4 mph28.0 kmh 29.92 in1013.2 mb 0.00 in0.0 mm 0.00 in/hr0.0 mm/hr 0.00 in0.0 mm
02:52 PM 35.8°F2.1°C 23.7°F-4.6°C 61% 8.3 mph N13.4 kmh N 17.4 mph28.0 kmh 29.92 in1013.2 mb 0.00 in0.0 mm 0.00 in/hr0.0 mm/hr 0.00 in0.0 mm
02:53 PM 35.6°F2.0°C 23.5°F-4.7°C 61% 9.2 mph N14.8 kmh N 17.4 mph28.0 kmh 29.93 in1013.5 mb 0.00 in0.0 mm 0.00 in/hr0.0 mm/hr 0.00 in0.0 mm
02:54 PM 35.6°F2.0°C 23.5°F-4.7°C 61% 8.3 mph N13.4 kmh N 17.4 mph28.0 kmh 29.92 in1013.2 mb 0.00 in0.0 mm 0.00 in/hr0.0 mm/hr 0.00 in0.0 mm
02:55 PM 35.6°F2.0°C 23.5°F-4.7°C 61% 11.4 mph N18.3 kmh N 17.4 mph28.0 kmh 29.92 in1013.2 mb 0.00 in0.0 mm 0.00 in/hr0.0 mm/hr 0.00 in0.0 mm
02:56 PM 35.6°F2.0°C 23.5°F-4.7°C 61% 7.6 mph N12.2 kmh N 17.4 mph28.0 kmh 29.92 in1013.2 mb 0.00 in0.0 mm 0.00 in/hr0.0 mm/hr 0.00 in0.0 mm
02:57 PM 35.8°F2.1°C 23.7°F-4.6°C 61% 8.3 mph N13.4 kmh N 15.9 mph25.6 kmh 29.92 in1013.2 mb 0.00 in0.0 mm 0.00 in/hr0.0 mm/hr 0.00 in0.0 mm
02:58 PM 35.8°F2.1°C 23.7°F-4.6°C 61% 9.2 mph N14.8 kmh N 15.9 mph25.6 kmh 29.93 in1013.5 mb 0.00 in0.0 mm 0.00 in/hr0.0 mm/hr 0.00 in0.0 mm
02:59 PM 35.6°F2.0°C 23.5°F-4.7°C 61% 7.6 mph N12.2 kmh N 15.9 mph25.6 kmh 29.92 in1013.2 mb 0.00 in0.0 mm 0.00 in/hr0.0 mm/hr 0.00 in0.0 mm
03:00 PM 35.6°F2.0°C 23.5°F-4.7°C 61% 6.0 mph N9.7 kmh N 15.9 mph25.6 kmh 29.93 in1013.5 mb 0.00 in0.0 mm 0.00 in/hr0.0 mm/hr 0.00 in0.0 mm
03:01 PM 35.6°F2.0°C 23.5°F-4.7°C 61% 9.2 mph N14.8 kmh N 15.9 mph25.6 kmh 29.93 in1013.5 mb 0.00 in0.0 mm 0.00 in/hr0.0 mm/hr 0.00 in0.0 mm
03:02 PM 35.4°F1.9°C 24.1°F-4.4°C 63% 8.3 mph N13.4 kmh N 15.9 mph25.6 kmh 29.93 in1013.5 mb 0.00 in0.0 mm 0.00 in/hr0.0 mm/hr 0.00 in0.0 mm
03:03 PM 35.4°F1.9°C 24.1°F-4.4°C 63% 9.2 mph N14.8 kmh N 15.9 mph25.6 kmh 29.92 in1013.2 mb 0.00 in0.0 mm 0.00 in/hr0.0 mm/hr 0.00 in0.0 mm
03:04 PM 35.4°F1.9°C 24.1°F-4.4°C 63% 4.5 mph N7.2 kmh N 15.9 mph25.6 kmh 29.93 in1013.5 mb 0.00 in0.0 mm 0.00 in/hr0.0 mm/hr 0.00 in0.0 mm
03:05 PM 35.6°F2.0°C 24.3°F-4.3°C 63% 11.4 mph N18.3 kmh N 18.3 mph29.5 kmh 29.92 in1013.2 mb 0.00 in0.0 mm 0.00 in/hr0.0 mm/hr 0.00 in0.0 mm
03:06 PM 35.4°F1.9°C 24.8°F-4.0°C 65% 9.2 mph N14.8 kmh N 18.3 mph29.5 kmh 29.92 in1013.2 mb 0.00 in0.0 mm 0.00 in/hr0.0 mm/hr 0.00 in0.0 mm
03:07 PM 35.4°F1.9°C 24.8°F-4.0°C 65% 7.6 mph N12.2 kmh N 18.3 mph29.5 kmh 29.92 in1013.2 mb 0.00 in0.0 mm 0.00 in/hr0.0 mm/hr 0.00 in0.0 mm
03:08 PM 35.6°F2.0°C 24.3°F-4.3°C 63% 6.9 mph N11.1 kmh N 18.3 mph29.5 kmh 29.92 in1013.2 mb 0.00 in0.0 mm 0.00 in/hr0.0 mm/hr 0.00 in0.0 mm
03:09 PM 35.4°F1.9°C 24.8°F-4.0°C 65% 8.3 mph N13.4 kmh N 18.3 mph29.5 kmh 29.92 in1013.2 mb 0.00 in0.0 mm 0.00 in/hr0.0 mm/hr 0.00 in0.0 mm
03:10 PM 35.4°F1.9°C 24.8°F-4.0°C 65% 6.0 mph N9.7 kmh N 18.3 mph29.5 kmh 29.92 in1013.2 mb 0.00 in0.0 mm 0.00 in/hr0.0 mm/hr 0.00 in0.0 mm
03:11 PM 35.4°F1.9°C 24.8°F-4.0°C 65% 6.0 mph N9.7 kmh N 18.3 mph29.5 kmh 29.92 in1013.2 mb 0.00 in0.0 mm 0.00 in/hr0.0 mm/hr 0.00 in0.0 mm
03:12 PM 35.6°F2.0°C 24.3°F-4.3°C 63% 9.2 mph N14.8 kmh N 18.3 mph29.5 kmh 29.92 in1013.2 mb 0.00 in0.0 mm 0.00 in/hr0.0 mm/hr 0.00 in0.0 mm
03:13 PM 35.6°F2.0°C 24.3°F-4.3°C 63% 6.0 mph N9.7 kmh N 18.3 mph29.5 kmh 29.92 in1013.2 mb 0.00 in0.0 mm 0.00 in/hr0.0 mm/hr 0.00 in0.0 mm
03:14 PM 35.4°F1.9°C 25.2°F-3.8°C 66% 6.0 mph N9.7 kmh N 18.3 mph29.5 kmh 29.92 in1013.2 mb 0.00 in0.0 mm 0.00 in/hr0.0 mm/hr 0.00 in0.0 mm
03:15 PM 35.4°F1.9°C 25.2°F-3.8°C 66% 8.3 mph N13.4 kmh N 18.3 mph29.5 kmh 29.92 in1013.2 mb 0.00 in0.0 mm 0.00 in/hr0.0 mm/hr 0.00 in0.0 mm
03:16 PM 35.4°F1.9°C 25.2°F-3.8°C 66% 6.9 mph N11.1 kmh N 15.9 mph25.6 kmh 29.92 in1013.2 mb 0.00 in0.0 mm 0.00 in/hr0.0 mm/hr 0.00 in0.0 mm
03:17 PM 35.4°F1.9°C 24.8°F-4.0°C 65% 5.4 mph N8.7 kmh N 15.9 mph25.6 kmh 29.92 in1013.2 mb 0.00 in0.0 mm 0.00 in/hr0.0 mm/hr 0.00 in0.0 mm
03:18 PM 35.6°F2.0°C 24.3°F-4.3°C 63% 5.4 mph N8.7 kmh N 15.9 mph25.6 kmh 29.92 in1013.2 mb 0.00 in0.0 mm 0.00 in/hr0.0 mm/hr 0.00 in0.0 mm
03:19 PM 35.6°F2.0°C 25.0°F-3.9°C 65% 9.2 mph N14.8 kmh N 15.9 mph25.6 kmh 29.91 in1012.9 mb 0.00 in0.0 mm 0.00 in/hr0.0 mm/hr 0.00 in0.0 mm
03:20 PM 35.4°F1.9°C 25.2°F-3.8°C 66% 3.8 mph NNE6.1 kmh NNE 15.9 mph25.6 kmh 29.92 in1013.2 mb 0.00 in0.0 mm 0.00 in/hr0.0 mm/hr 0.00 in0.0 mm
03:21 PM 35.4°F1.9°C 25.2°F-3.8°C 66% 6.9 mph N11.1 kmh N 15.9 mph25.6 kmh 29.92 in1013.2 mb 0.00 in0.0 mm 0.00 in/hr0.0 mm/hr 0.00 in0.0 mm
03:22 PM 35.4°F1.9°C 25.2°F-3.8°C 66% 9.2 mph NNE14.8 kmh NNE 13.0 mph20.9 kmh 29.92 in1013.2 mb 0.00 in0.0 mm 0.00 in/hr0.0 mm/hr 0.00 in0.0 mm
03:23 PM 35.4°F1.9°C 24.8°F-4.0°C 65% 8.3 mph NNE13.4 kmh NNE 13.0 mph20.9 kmh 29.92 in1013.2 mb 0.00 in0.0 mm 0.00 in/hr0.0 mm/hr 0.00 in0.0 mm
03:24 PM 35.4°F1.9°C 24.8°F-4.0°C 65% 7.6 mph NE12.2 kmh NE 13.0 mph20.9 kmh 29.92 in1013.2 mb 0.00 in0.0 mm 0.00 in/hr0.0 mm/hr 0.00 in0.0 mm
03:25 PM 35.4°F1.9°C 24.8°F-4.0°C 65% 6.0 mph NE9.7 kmh NE 13.0 mph20.9 kmh 29.92 in1013.2 mb 0.00 in0.0 mm 0.00 in/hr0.0 mm/hr 0.00 in0.0 mm
03:26 PM 35.4°F1.9°C 24.8°F-4.0°C 65% 3.8 mph NNE6.1 kmh NNE 13.0 mph20.9 kmh 29.92 in1013.2 mb 0.00 in0.0 mm 0.00 in/hr0.0 mm/hr 0.00 in0.0 mm
03:27 PM 35.6°F2.0°C 25.0°F-3.9°C 65% 3.8 mph NNE6.1 kmh NNE 13.0 mph20.9 kmh 29.92 in1013.2 mb 0.00 in0.0 mm 0.00 in/hr0.0 mm/hr 0.00 in0.0 mm
03:28 PM 35.6°F2.0°C 25.0°F-3.9°C 65% 2.2 mph NNE3.5 kmh NNE 13.0 mph20.9 kmh 29.92 in1013.2 mb 0.00 in0.0 mm 0.00 in/hr0.0 mm/hr 0.00 in0.0 mm
03:29 PM 35.6°F2.0°C 25.0°F-3.9°C 65% 6.0 mph NNE9.7 kmh NNE 13.0 mph20.9 kmh 29.92 in1013.2 mb 0.00 in0.0 mm 0.00 in/hr0.0 mm/hr 0.00 in0.0 mm
03:30 PM 35.4°F1.9°C 25.2°F-3.8°C 66% 6.9 mph NNE11.1 kmh NNE 13.0 mph20.9 kmh 29.92 in1013.2 mb 0.00 in0.0 mm 0.00 in/hr0.0 mm/hr 0.00 in0.0 mm
03:31 PM 35.4°F1.9°C 25.2°F-3.8°C 66% 7.6 mph NNE12.2 kmh NNE 13.0 mph20.9 kmh 29.92 in1013.2 mb 0.00 in0.0 mm 0.00 in/hr0.0 mm/hr 0.00 in0.0 mm
03:32 PM 35.2°F1.8°C 25.0°F-3.9°C 66% 7.6 mph NNE12.2 kmh NNE 13.0 mph20.9 kmh 29.92 in1013.2 mb 0.00 in0.0 mm 0.00 in/hr0.0 mm/hr 0.00 in0.0 mm
03:33 PM 35.2°F1.8°C 25.4°F-3.7°C 67% 6.0 mph NE9.7 kmh NE 13.0 mph20.9 kmh 29.92 in1013.2 mb 0.00 in0.0 mm 0.00 in/hr0.0 mm/hr 0.00 in0.0 mm
03:34 PM 35.2°F1.8°C 25.4°F-3.7°C 67% 6.9 mph NNE11.1 kmh NNE 13.0 mph20.9 kmh 29.92 in1013.2 mb 0.00 in0.0 mm 0.00 in/hr0.0 mm/hr 0.00 in0.0 mm
03:35 PM 35.2°F1.8°C 25.4°F-3.7°C 67% 7.6 mph NNE12.2 kmh NNE 13.0 mph20.9 kmh 29.92 in1013.2 mb 0.00 in0.0 mm 0.00 in/hr0.0 mm/hr 0.00 in0.0 mm
03:36 PM 35.2°F1.8°C 25.4°F-3.7°C 67% 6.9 mph NNE11.1 kmh NNE 13.0 mph20.9 kmh 29.92 in1013.2 mb 0.00 in0.0 mm 0.00 in/hr0.0 mm/hr 0.00 in0.0 mm
03:37 PM 35.2°F1.8°C 25.4°F-3.7°C 67% 5.4 mph NNE8.7 kmh NNE 13.0 mph20.9 kmh 29.92 in1013.2 mb 0.00 in0.0 mm 0.00 in/hr0.0 mm/hr 0.00 in0.0 mm
03:38 PM 35.2°F1.8°C 25.4°F-3.7°C 67% 9.8 mph NNE15.8 kmh NNE 13.6 mph21.9 kmh 29.92 in1013.2 mb 0.00 in0.0 mm 0.00 in/hr0.0 mm/hr 0.00 in0.0 mm
03:39 PM 35.1°F1.7°C 25.2°F-3.8°C 67% 8.3 mph NNE13.4 kmh NNE 13.6 mph21.9 kmh 29.92 in1013.2 mb 0.00 in0.0 mm 0.00 in/hr0.0 mm/hr 0.00 in0.0 mm
03:40 PM 35.1°F1.7°C 25.2°F-3.8°C 67% 9.2 mph NNE14.8 kmh NNE 13.6 mph21.9 kmh 29.92 in1013.2 mb 0.00 in0.0 mm 0.00 in/hr0.0 mm/hr 0.00 in0.0 mm
03:41 PM 35.1°F1.7°C 25.2°F-3.8°C 67% 7.6 mph NNE12.2 kmh NNE 13.6 mph21.9 kmh 29.92 in1013.2 mb 0.00 in0.0 mm 0.00 in/hr0.0 mm/hr 0.00 in0.0 mm
03:42 PM 35.2°F1.8°C 25.4°F-3.7°C 67% 8.3 mph N13.4 kmh N 13.6 mph21.9 kmh 29.92 in1013.2 mb 0.00 in0.0 mm 0.00 in/hr0.0 mm/hr 0.00 in0.0 mm
03:43 PM 35.1°F1.7°C 25.2°F-3.8°C 67% 4.5 mph N7.2 kmh N 13.6 mph21.9 kmh 29.92 in1013.2 mb 0.00 in0.0 mm 0.00 in/hr0.0 mm/hr 0.00 in0.0 mm
03:44 PM 35.2°F1.8°C 25.4°F-3.7°C 67% 5.4 mph N8.7 kmh N 13.6 mph21.9 kmh 29.92 in1013.2 mb 0.00 in0.0 mm 0.00 in/hr0.0 mm/hr 0.00 in0.0 mm
03:45 PM 35.1°F1.7°C 25.2°F-3.8°C 67% 6.0 mph N9.7 kmh N 13.6 mph21.9 kmh 29.92 in1013.2 mb 0.00 in0.0 mm 0.00 in/hr0.0 mm/hr 0.00 in0.0 mm
03:46 PM 35.1°F1.7°C 25.2°F-3.8°C 67% 6.0 mph N9.7 kmh N 13.6 mph21.9 kmh 29.92 in1013.2 mb 0.00 in0.0 mm 0.00 in/hr0.0 mm/hr 0.00 in0.0 mm
03:47 PM 35.2°F1.8°C 25.4°F-3.7°C 67% 6.0 mph N9.7 kmh N 13.6 mph21.9 kmh 29.93 in1013.5 mb 0.00 in0.0 mm 0.00 in/hr0.0 mm/hr 0.00 in0.0 mm
03:48 PM 35.2°F1.8°C 25.4°F-3.7°C 67% 3.8 mph N6.1 kmh N 13.6 mph21.9 kmh 29.92 in1013.2 mb 0.00 in0.0 mm 0.00 in/hr0.0 mm/hr 0.00 in0.0 mm
03:49 PM 35.1°F1.7°C 25.2°F-3.8°C 67% 6.9 mph N11.1 kmh N 13.6 mph21.9 kmh 29.92 in1013.2 mb 0.00 in0.0 mm 0.00 in/hr0.0 mm/hr 0.00 in0.0 mm
03:50 PM 35.1°F1.7°C 25.2°F-3.8°C 67% 4.5 mph N7.2 kmh N 13.0 mph20.9 kmh 29.93 in1013.5 mb 0.00 in0.0 mm 0.00 in/hr0.0 mm/hr 0.00 in0.0 mm
03:51 PM 35.1°F1.7°C 25.2°F-3.8°C 67% 6.9 mph N11.1 kmh N 13.6 mph21.9 kmh 29.93 in1013.5 mb 0.00 in0.0 mm 0.00 in/hr0.0 mm/hr 0.00 in0.0 mm
03:52 PM 35.1°F1.7°C 25.2°F-3.8°C 67% 8.3 mph N13.4 kmh N 13.6 mph21.9 kmh 29.93 in1013.5 mb 0.00 in0.0 mm 0.00 in/hr0.0 mm/hr 0.00 in0.0 mm
03:53 PM 35.1°F1.7°C 25.2°F-3.8°C 67% 6.9 mph N11.1 kmh N 13.6 mph21.9 kmh 29.93 in1013.5 mb 0.00 in0.0 mm 0.00 in/hr0.0 mm/hr 0.00 in0.0 mm
03:54 PM 35.1°F1.7°C 25.2°F-3.8°C 67% 4.5 mph N7.2 kmh N 13.6 mph21.9 kmh 29.93 in1013.5 mb 0.00 in0.0 mm 0.00 in/hr0.0 mm/hr 0.00 in0.0 mm
03:55 PM 35.1°F1.7°C 25.2°F-3.8°C 67% 6.0 mph N9.7 kmh N 13.6 mph21.9 kmh 29.93 in1013.5 mb 0.00 in0.0 mm 0.00 in/hr0.0 mm/hr 0.00 in0.0 mm
03:56 PM 35.1°F1.7°C 25.2°F-3.8°C 67% 3.8 mph N6.1 kmh N 13.6 mph21.9 kmh 29.93 in1013.5 mb 0.00 in0.0 mm 0.00 in/hr0.0 mm/hr 0.00 in0.0 mm
03:57 PM 35.1°F1.7°C 25.6°F-3.6°C 68% 7.6 mph N12.2 kmh N 13.6 mph21.9 kmh 29.93 in1013.5 mb 0.00 in0.0 mm 0.00 in/hr0.0 mm/hr 0.00 in0.0 mm
03:58 PM 34.9°F1.6°C 25.4°F-3.7°C 68% 6.9 mph N11.1 kmh N 13.6 mph21.9 kmh 29.93 in1013.5 mb 0.00 in0.0 mm 0.00 in/hr0.0 mm/hr 0.00 in0.0 mm
03:59 PM 34.9°F1.6°C 25.1°F-3.8°C 67% 6.9 mph N11.1 kmh N 13.6 mph21.9 kmh 29.93 in1013.5 mb 0.00 in0.0 mm 0.00 in/hr0.0 mm/hr 0.00 in0.0 mm
04:00 PM 34.9°F1.6°C 25.1°F-3.8°C 67% 6.0 mph N9.7 kmh N 13.6 mph21.9 kmh 29.93 in1013.5 mb 0.00 in0.0 mm 0.00 in/hr0.0 mm/hr 0.00 in0.0 mm
04:01 PM 34.9°F1.6°C 25.4°F-3.7°C 68% 6.0 mph N9.7 kmh N 12.1 mph19.5 kmh 29.93 in1013.5 mb 0.00 in0.0 mm 0.00 in/hr0.0 mm/hr 0.00 in0.0 mm
04:02 PM 34.9°F1.6°C 25.1°F-3.8°C 67% 5.4 mph N8.7 kmh N 12.1 mph19.5 kmh 29.93 in1013.5 mb 0.00 in0.0 mm 0.00 in/hr0.0 mm/hr 0.00 in0.0 mm
04:03 PM 34.9°F1.6°C 25.1°F-3.8°C 67% 3.1 mph N5.0 kmh N 12.1 mph19.5 kmh 29.93 in1013.5 mb 0.00 in0.0 mm 0.00 in/hr0.0 mm/hr 0.00 in0.0 mm
04:04 PM 34.9°F1.6°C 25.4°F-3.7°C 68% 2.2 mph N3.5 kmh N 12.1 mph19.5 kmh 29.92 in1013.2 mb 0.00 in0.0 mm 0.00 in/hr0.0 mm/hr 0.00 in0.0 mm
04:05 PM 34.9°F1.6°C 25.4°F-3.7°C 68% 5.4 mph N8.7 kmh N 12.1 mph19.5 kmh 29.92 in1013.2 mb 0.00 in0.0 mm 0.00 in/hr0.0 mm/hr 0.00 in0.0 mm
04:06 PM 34.9°F1.6°C 25.4°F-3.7°C 68% 4.5 mph N7.2 kmh N 12.1 mph19.5 kmh 29.93 in1013.5 mb 0.00 in0.0 mm 0.00 in/hr0.0 mm/hr 0.00 in0.0 mm
04:07 PM 34.9°F1.6°C 25.4°F-3.7°C 68% 5.4 mph N8.7 kmh N 12.1 mph19.5 kmh 29.93 in1013.5 mb 0.00 in0.0 mm 0.00 in/hr0.0 mm/hr 0.00 in0.0 mm
04:08 PM 34.9°F1.6°C 25.4°F-3.7°C 68% 5.4 mph N8.7 kmh N 12.1 mph19.5 kmh 29.93 in1013.5 mb 0.00 in0.0 mm 0.00 in/hr0.0 mm/hr 0.00 in0.0 mm
04:09 PM 34.9°F1.6°C 25.4°F-3.7°C 68% 6.0 mph N9.7 kmh N 9.8 mph15.8 kmh 29.93 in1013.5 mb 0.00 in0.0 mm 0.00 in/hr0.0 mm/hr 0.00 in0.0 mm
04:10 PM 34.7°F1.5°C 25.2°F-3.8°C 68% 6.0 mph N9.7 kmh N 9.8 mph15.8 kmh 29.93 in1013.5 mb 0.00 in0.0 mm 0.00 in/hr0.0 mm/hr 0.00 in0.0 mm
04:11 PM 34.9°F1.6°C 25.4°F-3.7°C 68% 4.5 mph N7.2 kmh N 9.8 mph15.8 kmh 29.93 in1013.5 mb 0.00 in0.0 mm 0.00 in/hr0.0 mm/hr 0.00 in0.0 mm
04:12 PM 34.9°F1.6°C 25.4°F-3.7°C 68% 6.9 mph NNE11.1 kmh NNE 11.4 mph18.3 kmh 29.93 in1013.5 mb 0.00 in0.0 mm 0.00 in/hr0.0 mm/hr 0.00 in0.0 mm
04:13 PM 34.7°F1.5°C 25.2°F-3.8°C 68% 6.0 mph NNE9.7 kmh NNE 11.4 mph18.3 kmh 29.93 in1013.5 mb 0.00 in0.0 mm 0.00 in/hr0.0 mm/hr 0.00 in0.0 mm
04:14 PM 34.7°F1.5°C 25.2°F-3.8°C 68% 5.4 mph NNE8.7 kmh NNE 11.4 mph18.3 kmh 29.92 in1013.2 mb 0.00 in0.0 mm 0.00 in/hr0.0 mm/hr 0.00 in0.0 mm
04:15 PM 34.7°F1.5°C 25.2°F-3.8°C 68% 7.6 mph NE12.2 kmh NE 13.6 mph21.9 kmh 29.93 in1013.5 mb 0.00 in0.0 mm 0.00 in/hr0.0 mm/hr 0.00 in0.0 mm
04:16 PM 34.9°F1.6°C 25.4°F-3.7°C 68% 3.8 mph NE6.1 kmh NE 13.6 mph21.9 kmh 29.93 in1013.5 mb 0.00 in0.0 mm 0.00 in/hr0.0 mm/hr 0.00 in0.0 mm
04:17 PM 34.9°F1.6°C 25.4°F-3.7°C 68% 4.5 mph NE7.2 kmh NE 13.6 mph21.9 kmh 29.92 in1013.2 mb 0.00 in0.0 mm 0.00 in/hr0.0 mm/hr 0.00 in0.0 mm
04:18 PM 34.7°F1.5°C 25.2°F-3.8°C 68% 5.4 mph NE8.7 kmh NE 13.6 mph21.9 kmh 29.93 in1013.5 mb 0.00 in0.0 mm 0.00 in/hr0.0 mm/hr 0.00 in0.0 mm
04:19 PM 34.7°F1.5°C 25.2°F-3.8°C 68% 8.3 mph NE13.4 kmh NE 13.6 mph21.9 kmh 29.93 in1013.5 mb 0.00 in0.0 mm 0.00 in/hr0.0 mm/hr 0.00 in0.0 mm
04:20 PM 34.7°F1.5°C 25.2°F-3.8°C 68% 6.0 mph NNE9.7 kmh NNE 13.6 mph21.9 kmh 29.92 in1013.2 mb 0.00 in0.0 mm 0.00 in/hr0.0 mm/hr 0.00 in0.0 mm
04:21 PM 34.7°F1.5°C 25.2°F-3.8°C 68% 3.8 mph NNE6.1 kmh NNE 13.6 mph21.9 kmh 29.92 in1013.2 mb 0.00 in0.0 mm 0.00 in/hr0.0 mm/hr 0.00 in0.0 mm
04:22 PM 34.7°F1.5°C 25.2°F-3.8°C 68% 4.5 mph NNE7.2 kmh NNE 13.6 mph21.9 kmh 29.93 in1013.5 mb 0.00 in0.0 mm 0.00 in/hr0.0 mm/hr 0.00 in0.0 mm
04:23 PM 34.7°F1.5°C 25.2°F-3.8°C 68% 5.4 mph NNE8.7 kmh NNE 13.6 mph21.9 kmh 29.93 in1013.5 mb 0.00 in0.0 mm 0.00 in/hr0.0 mm/hr 0.00 in0.0 mm
04:24 PM 34.7°F1.5°C 25.9°F-3.4°C 70% 2.2 mph NNE3.5 kmh NNE 13.6 mph21.9 kmh 29.93 in1013.5 mb 0.00 in0.0 mm 0.00 in/hr0.0 mm/hr 0.00 in0.0 mm
04:25 PM 34.7°F1.5°C 25.9°F-3.4°C 70% 1.6 mph N2.6 kmh N 13.0 mph20.9 kmh 29.93 in1013.5 mb 0.00 in0.0 mm 0.00 in/hr0.0 mm/hr 0.00 in0.0 mm
04:26 PM 34.7°F1.5°C 25.9°F-3.4°C 70% 2.2 mph N3.5 kmh N 13.0 mph20.9 kmh 29.93 in1013.5 mb 0.00 in0.0 mm 0.00 in/hr0.0 mm/hr 0.00 in0.0 mm
04:27 PM 34.7°F1.5°C 25.9°F-3.4°C 70% 4.5 mph N7.2 kmh N 13.0 mph20.9 kmh 29.93 in1013.5 mb 0.00 in0.0 mm 0.00 in/hr0.0 mm/hr 0.00 in0.0 mm
04:28 PM 34.7°F1.5°C 25.9°F-3.4°C 70% 3.1 mph N5.0 kmh N 13.0 mph20.9 kmh 29.93 in1013.5 mb 0.00 in0.0 mm 0.00 in/hr0.0 mm/hr 0.00 in0.0 mm
04:29 PM 34.7°F1.5°C 25.9°F-3.4°C 70% 5.4 mph N8.7 kmh N 12.1 mph19.5 kmh 29.93 in1013.5 mb 0.00 in0.0 mm 0.00 in/hr0.0 mm/hr 0.00 in0.0 mm
04:30 PM 34.7°F1.5°C 25.9°F-3.4°C 70% 3.8 mph N6.1 kmh N 12.1 mph19.5 kmh 29.93 in1013.5 mb 0.00 in0.0 mm 0.00 in/hr0.0 mm/hr 0.00 in0.0 mm
04:31 PM 34.7°F1.5°C 25.9°F-3.4°C 70% 6.0 mph N9.7 kmh N 9.2 mph14.8 kmh 29.93 in1013.5 mb 0.00 in0.0 mm 0.00 in/hr0.0 mm/hr 0.00 in0.0 mm
04:32 PM 34.7°F1.5°C 25.9°F-3.4°C 70% 7.6 mph N12.2 kmh N 15.9 mph25.6 kmh 29.93 in1013.5 mb 0.00 in0.0 mm 0.00 in/hr0.0 mm/hr 0.00 in0.0 mm
04:33 PM 34.5°F1.4°C 25.8°F-3.4°C 70% 4.5 mph N7.2 kmh N 15.9 mph25.6 kmh 29.93 in1013.5 mb 0.00 in0.0 mm 0.00 in/hr0.0 mm/hr 0.00 in0.0 mm
04:34 PM 34.5°F1.4°C 25.8°F-3.4°C 70% 5.4 mph N8.7 kmh N 15.9 mph25.6 kmh 29.93 in1013.5 mb 0.00 in0.0 mm 0.00 in/hr0.0 mm/hr 0.00 in0.0 mm
04:35 PM 34.5°F1.4°C 25.8°F-3.4°C 70% 3.1 mph N5.0 kmh N 15.9 mph25.6 kmh 29.93 in1013.5 mb 0.00 in0.0 mm 0.00 in/hr0.0 mm/hr 0.00 in0.0 mm
04:36 PM 34.5°F1.4°C 25.8°F-3.4°C 70% 6.0 mph N9.7 kmh N 15.9 mph25.6 kmh 29.93 in1013.5 mb 0.00 in0.0 mm 0.00 in/hr0.0 mm/hr 0.00 in0.0 mm
04:37 PM 34.5°F1.4°C 25.8°F-3.4°C 70% 5.4 mph N8.7 kmh N 15.9 mph25.6 kmh 29.93 in1013.5 mb 0.00 in0.0 mm 0.00 in/hr0.0 mm/hr 0.00 in0.0 mm
04:38 PM 34.5°F1.4°C 25.8°F-3.4°C 70% 4.5 mph N7.2 kmh N 15.9 mph25.6 kmh 29.93 in1013.5 mb 0.00 in0.0 mm 0.00 in/hr0.0 mm/hr 0.00 in0.0 mm
04:39 PM 34.5°F1.4°C 25.8°F-3.4°C 70% 4.5 mph N7.2 kmh N 15.9 mph25.6 kmh 29.93 in1013.5 mb 0.00 in0.0 mm 0.00 in/hr0.0 mm/hr 0.00 in0.0 mm
04:40 PM 34.5°F1.4°C 25.8°F-3.4°C 70% 6.9 mph N11.1 kmh N 15.9 mph25.6 kmh 29.93 in1013.5 mb 0.00 in0.0 mm 0.00 in/hr0.0 mm/hr 0.00 in0.0 mm
04:41 PM 34.5°F1.4°C 25.8°F-3.4°C 70% 3.8 mph N6.1 kmh N 15.9 mph25.6 kmh 29.93 in1013.5 mb 0.00 in0.0 mm 0.00 in/hr0.0 mm/hr 0.00 in0.0 mm
04:42 PM 34.5°F1.4°C 26.1°F-3.3°C 71% 4.5 mph N7.2 kmh N 12.1 mph19.5 kmh 29.93 in1013.5 mb 0.00 in0.0 mm 0.00 in/hr0.0 mm/hr 0.00 in0.0 mm
04:43 PM 34.5°F1.4°C 26.1°F-3.3°C 71% 5.4 mph N8.7 kmh N 12.1 mph19.5 kmh 29.93 in1013.5 mb 0.00 in0.0 mm 0.00 in/hr0.0 mm/hr 0.00 in0.0 mm
04:44 PM 34.5°F1.4°C 26.1°F-3.3°C 71% 4.5 mph N7.2 kmh N 12.1 mph19.5 kmh 29.93 in1013.5 mb 0.00 in0.0 mm 0.00 in/hr0.0 mm/hr 0.00 in0.0 mm
04:45 PM 34.5°F1.4°C 26.1°F-3.3°C 71% 4.5 mph N7.2 kmh N 12.1 mph19.5 kmh 29.93 in1013.5 mb 0.00 in0.0 mm 0.00 in/hr0.0 mm/hr 0.00 in0.0 mm
04:46 PM 34.3°F1.3°C 25.9°F-3.4°C 71% 5.4 mph N8.7 kmh N 12.1 mph19.5 kmh 29.93 in1013.5 mb 0.00 in0.0 mm 0.00 in/hr0.0 mm/hr 0.00 in0.0 mm
04:47 PM 34.3°F1.3°C 25.9°F-3.4°C 71% 6.9 mph NNE11.1 kmh NNE 12.1 mph19.5 kmh 29.93 in1013.5 mb 0.00 in0.0 mm 0.00 in/hr0.0 mm/hr 0.00 in0.0 mm
04:48 PM 34.5°F1.4°C 26.1°F-3.3°C 71% 9.2 mph NNE14.8 kmh NNE 13.0 mph20.9 kmh 29.93 in1013.5 mb 0.00 in0.0 mm 0.00 in/hr0.0 mm/hr 0.00 in0.0 mm
04:49 PM 34.3°F1.3°C 25.9°F-3.4°C 71% 6.9 mph NNE11.1 kmh NNE 13.0 mph20.9 kmh 29.93 in1013.5 mb 0.00 in0.0 mm 0.00 in/hr0.0 mm/hr 0.00 in0.0 mm
04:50 PM 34.3°F1.3°C 25.9°F-3.4°C 71% 5.4 mph NNE8.7 kmh NNE 13.0 mph20.9 kmh 29.93 in1013.5 mb 0.00 in0.0 mm 0.00 in/hr0.0 mm/hr 0.00 in0.0 mm
04:51 PM 34.3°F1.3°C 25.9°F-3.4°C 71% 5.4 mph NNE8.7 kmh NNE 13.0 mph20.9 kmh 29.93 in1013.5 mb 0.00 in0.0 mm 0.00 in/hr0.0 mm/hr 0.00 in0.0 mm
04:52 PM 34.3°F1.3°C 25.9°F-3.4°C 71% 6.9 mph NNE11.1 kmh NNE 13.0 mph20.9 kmh 29.93 in1013.5 mb 0.00 in0.0 mm 0.00 in/hr0.0 mm/hr 0.00 in0.0 mm
04:53 PM 34.3°F1.3°C 25.9°F-3.4°C 71% 7.6 mph NNE12.2 kmh NNE 13.0 mph20.9 kmh 29.93 in1013.5 mb 0.00 in0.0 mm 0.00 in/hr0.0 mm/hr 0.00 in0.0 mm
04:54 PM 34.3°F1.3°C 25.9°F-3.4°C 71% 6.0 mph NNE9.7 kmh NNE 13.0 mph20.9 kmh 29.93 in1013.5 mb 0.00 in0.0 mm 0.00 in/hr0.0 mm/hr 0.00 in0.0 mm
04:55 PM 34.3°F1.3°C 25.9°F-3.4°C 71% 4.5 mph NNE7.2 kmh NNE 13.0 mph20.9 kmh 29.93 in1013.5 mb 0.00 in0.0 mm 0.00 in/hr0.0 mm/hr 0.00 in0.0 mm
04:56 PM 34.2°F1.2°C 25.8°F-3.4°C 71% 7.6 mph N12.2 kmh N 13.0 mph20.9 kmh 29.93 in1013.5 mb 0.00 in0.0 mm 0.00 in/hr0.0 mm/hr 0.00 in0.0 mm
04:57 PM 34.2°F1.2°C 25.8°F-3.4°C 71% 6.0 mph N9.7 kmh N 13.0 mph20.9 kmh 29.93 in1013.5 mb 0.00 in0.0 mm 0.00 in/hr0.0 mm/hr 0.00 in0.0 mm
04:58 PM 34.2°F1.2°C 25.8°F-3.4°C 71% 5.4 mph N8.7 kmh N 13.0 mph20.9 kmh 29.93 in1013.5 mb 0.00 in0.0 mm 0.00 in/hr0.0 mm/hr 0.00 in0.0 mm
04:59 PM 34.2°F1.2°C 26.1°F-3.3°C 72% 6.9 mph N11.1 kmh N 13.0 mph20.9 kmh 29.93 in1013.5 mb 0.00 in0.0 mm 0.00 in/hr0.0 mm/hr 0.00 in0.0 mm
05:00 PM 34.2°F1.2°C 26.1°F-3.3°C 72% 4.5 mph N7.2 kmh N 13.0 mph20.9 kmh 29.93 in1013.5 mb 0.00 in0.0 mm 0.00 in/hr0.0 mm/hr 0.00 in0.0 mm
05:01 PM 34.2°F1.2°C 26.1°F-3.3°C 72% 5.4 mph N8.7 kmh N 13.0 mph20.9 kmh 29.93 in1013.5 mb 0.00 in0.0 mm 0.00 in/hr0.0 mm/hr 0.00 in0.0 mm
05:02 PM 34.2°F1.2°C 26.1°F-3.3°C 72% 6.0 mph NNW9.7 kmh NNW 13.0 mph20.9 kmh 29.93 in1013.5 mb 0.00 in0.0 mm 0.00 in/hr0.0 mm/hr 0.00 in0.0 mm
05:03 PM 34.2°F1.2°C 26.1°F-3.3°C 72% 7.6 mph NNW12.2 kmh NNW 13.0 mph20.9 kmh 29.93 in1013.5 mb 0.00 in0.0 mm 0.00 in/hr0.0 mm/hr 0.00 in0.0 mm
05:04 PM 34.2°F1.2°C 26.1°F-3.3°C 72% 5.4 mph NW8.7 kmh NW 12.1 mph19.5 kmh 29.93 in1013.5 mb 0.00 in0.0 mm 0.00 in/hr0.0 mm/hr 0.00 in0.0 mm
05:05 PM 34.2°F1.2°C 26.1°F-3.3°C 72% 6.9 mph NNW11.1 kmh NNW 12.1 mph19.5 kmh 29.93 in1013.5 mb 0.00 in0.0 mm 0.00 in/hr0.0 mm/hr 0.00 in0.0 mm
05:06 PM 34.2°F1.2°C 26.1°F-3.3°C 72% 6.0 mph NNW9.7 kmh NNW 11.4 mph18.3 kmh 29.93 in1013.5 mb 0.00 in0.0 mm 0.00 in/hr0.0 mm/hr 0.00 in0.0 mm
05:07 PM 34.2°F1.2°C 26.1°F-3.3°C 72% 3.8 mph NNW6.1 kmh NNW 11.4 mph18.3 kmh 29.93 in1013.5 mb 0.00 in0.0 mm 0.00 in/hr0.0 mm/hr 0.00 in0.0 mm
05:08 PM 34.2°F1.2°C 26.1°F-3.3°C 72% 5.4 mph NNW8.7 kmh NNW 11.4 mph18.3 kmh 29.93 in1013.5 mb 0.00 in0.0 mm 0.00 in/hr0.0 mm/hr 0.00 in0.0 mm
05:09 PM 34.2°F1.2°C 26.1°F-3.3°C 72% 9.2 mph NNW14.8 kmh NNW 19.7 mph31.7 kmh 29.93 in1013.5 mb 0.00 in0.0 mm 0.00 in/hr0.0 mm/hr 0.00 in0.0 mm
05:10 PM 34.2°F1.2°C 26.1°F-3.3°C 72% 9.2 mph NNW14.8 kmh NNW 19.7 mph31.7 kmh 29.93 in1013.5 mb 0.00 in0.0 mm 0.00 in/hr0.0 mm/hr 0.00 in0.0 mm
05:11 PM 34.2°F1.2°C 26.1°F-3.3°C 72% 5.4 mph N8.7 kmh N 19.7 mph31.7 kmh 29.93 in1013.5 mb 0.00 in0.0 mm 0.00 in/hr0.0 mm/hr 0.00 in0.0 mm
05:12 PM 34.2°F1.2°C 26.1°F-3.3°C 72% 6.0 mph N9.7 kmh N 19.7 mph31.7 kmh 29.94 in1013.9 mb 0.00 in0.0 mm 0.00 in/hr0.0 mm/hr 0.00 in0.0 mm
05:13 PM 34.2°F1.2°C 26.1°F-3.3°C 72% 8.3 mph N13.4 kmh N 19.7 mph31.7 kmh 29.93 in1013.5 mb 0.00 in0.0 mm 0.00 in/hr0.0 mm/hr 0.00 in0.0 mm
05:14 PM 34.2°F1.2°C 26.1°F-3.3°C 72% 5.4 mph N8.7 kmh N 19.7 mph31.7 kmh 29.93 in1013.5 mb 0.00 in0.0 mm 0.00 in/hr0.0 mm/hr 0.00 in0.0 mm
05:15 PM 34.2°F1.2°C 26.1°F-3.3°C 72% 6.9 mph NNW11.1 kmh NNW 19.7 mph31.7 kmh 29.94 in1013.9 mb 0.00 in0.0 mm 0.00 in/hr0.0 mm/hr 0.00 in0.0 mm
05:16 PM 34.2°F1.2°C 26.1°F-3.3°C 72% 8.3 mph NNW13.4 kmh NNW 19.7 mph31.7 kmh 29.94 in1013.9 mb 0.00 in0.0 mm 0.00 in/hr0.0 mm/hr 0.00 in0.0 mm
05:17 PM 34.2°F1.2°C 26.1°F-3.3°C 72% 6.0 mph NNW9.7 kmh NNW 19.7 mph31.7 kmh 29.93 in1013.5 mb 0.00 in0.0 mm 0.00 in/hr0.0 mm/hr 0.00 in0.0 mm
05:18 PM 34.2°F1.2°C 26.1°F-3.3°C 72% 3.1 mph N5.0 kmh N 19.7 mph31.7 kmh 29.93 in1013.5 mb 0.00 in0.0 mm 0.00 in/hr0.0 mm/hr 0.00 in0.0 mm
05:19 PM 34.2°F1.2°C 26.1°F-3.3°C 72% 5.4 mph N8.7 kmh N 19.7 mph31.7 kmh 29.93 in1013.5 mb 0.00 in0.0 mm 0.00 in/hr0.0 mm/hr 0.00 in0.0 mm
05:20 PM 34.2°F1.2°C 26.1°F-3.3°C 72% 5.4 mph N8.7 kmh N 19.7 mph31.7 kmh 29.93 in1013.5 mb 0.00 in0.0 mm 0.00 in/hr0.0 mm/hr 0.00 in0.0 mm
05:21 PM 34.2°F1.2°C 26.1°F-3.3°C 72% 5.4 mph N8.7 kmh N 14.5 mph23.3 kmh 29.94 in1013.9 mb 0.00 in0.0 mm 0.00 in/hr0.0 mm/hr 0.00 in0.0 mm
05:22 PM 34.2°F1.2°C 26.4°F-3.1°C 73% 6.0 mph N9.7 kmh N 14.5 mph23.3 kmh 29.93 in1013.5 mb 0.00 in0.0 mm 0.00 in/hr0.0 mm/hr 0.00 in0.0 mm
05:23 PM 34.2°F1.2°C 26.4°F-3.1°C 73% 5.4 mph N8.7 kmh N 14.5 mph23.3 kmh 29.93 in1013.5 mb 0.00 in0.0 mm 0.00 in/hr0.0 mm/hr 0.00 in0.0 mm
05:24 PM 34.2°F1.2°C 26.4°F-3.1°C 73% 6.0 mph N9.7 kmh N 9.8 mph15.8 kmh 29.93 in1013.5 mb 0.00 in0.0 mm 0.00 in/hr0.0 mm/hr 0.00 in0.0 mm
05:25 PM 34.2°F1.2°C 26.4°F-3.1°C 73% 5.4 mph N8.7 kmh N 12.1 mph19.5 kmh 29.93 in1013.5 mb 0.00 in0.0 mm 0.00 in/hr0.0 mm/hr 0.00 in0.0 mm
05:26 PM 34.2°F1.2°C 26.4°F-3.1°C 73% 6.0 mph N9.7 kmh N 12.1 mph19.5 kmh 29.93 in1013.5 mb 0.00 in0.0 mm 0.00 in/hr0.0 mm/hr 0.00 in0.0 mm
05:27 PM 34.2°F1.2°C 26.4°F-3.1°C 73% 5.4 mph N8.7 kmh N 12.1 mph19.5 kmh 29.94 in1013.9 mb 0.00 in0.0 mm 0.00 in/hr0.0 mm/hr 0.00 in0.0 mm
05:28 PM 34.2°F1.2°C 26.1°F-3.3°C 72% 4.5 mph NNW7.2 kmh NNW 12.1 mph19.5 kmh 29.94 in1013.9 mb 0.00 in0.0 mm 0.00 in/hr0.0 mm/hr 0.00 in0.0 mm
05:29 PM 34.2°F1.2°C 26.1°F-3.3°C 72% 5.4 mph NNW8.7 kmh NNW 12.1 mph19.5 kmh 29.94 in1013.9 mb 0.00 in0.0 mm 0.00 in/hr0.0 mm/hr 0.00 in0.0 mm
05:30 PM 34.2°F1.2°C 26.4°F-3.1°C 73% 3.1 mph NNW5.0 kmh NNW 12.1 mph19.5 kmh 29.94 in1013.9 mb 0.00 in0.0 mm 0.00 in/hr0.0 mm/hr 0.00 in0.0 mm
05:31 PM 34.2°F1.2°C 26.4°F-3.1°C 73% 3.8 mph NNW6.1 kmh NNW 12.1 mph19.5 kmh 29.93 in1013.5 mb 0.00 in0.0 mm 0.00 in/hr0.0 mm/hr 0.00 in0.0 mm
05:32 PM 34.2°F1.2°C 26.4°F-3.1°C 73% 4.5 mph NNW7.2 kmh NNW 12.1 mph19.5 kmh 29.93 in1013.5 mb 0.00 in0.0 mm 0.00 in/hr0.0 mm/hr 0.00 in0.0 mm
05:33 PM 34.2°F1.2°C 26.4°F-3.1°C 73% 4.5 mph NNW7.2 kmh NNW 12.1 mph19.5 kmh 29.93 in1013.5 mb 0.00 in0.0 mm 0.00 in/hr0.0 mm/hr 0.00 in0.0 mm
05:34 PM 34.0°F1.1°C 26.3°F-3.2°C 73% 3.8 mph NNW6.1 kmh NNW 12.1 mph19.5 kmh 29.93 in1013.5 mb 0.00 in0.0 mm 0.00 in/hr0.0 mm/hr 0.00 in0.0 mm
05:35 PM 34.0°F1.1°C 26.3°F-3.2°C 73% 5.4 mph N8.7 kmh N 12.1 mph19.5 kmh 29.93 in1013.5 mb 0.00 in0.0 mm 0.00 in/hr0.0 mm/hr 0.00 in0.0 mm
05:36 PM 34.0°F1.1°C 26.3°F-3.2°C 73% 5.4 mph N8.7 kmh N 10.7 mph17.2 kmh 29.93 in1013.5 mb 0.00 in0.0 mm 0.00 in/hr0.0 mm/hr 0.00 in0.0 mm
05:37 PM 34.2°F1.2°C 26.4°F-3.1°C 73% 6.0 mph N9.7 kmh N 10.7 mph17.2 kmh 29.93 in1013.5 mb 0.00 in0.0 mm 0.00 in/hr0.0 mm/hr 0.00 in0.0 mm
05:38 PM 34.0°F1.1°C 26.3°F-3.2°C 73% 6.9 mph NNE11.1 kmh NNE 10.7 mph17.2 kmh 29.93 in1013.5 mb 0.00 in0.0 mm 0.00 in/hr0.0 mm/hr 0.00 in0.0 mm
05:39 PM 34.2°F1.2°C 26.4°F-3.1°C 73% 6.0 mph NNE9.7 kmh NNE 10.7 mph17.2 kmh 29.93 in1013.5 mb 0.00 in0.0 mm 0.00 in/hr0.0 mm/hr 0.00 in0.0 mm
05:40 PM 34.2°F1.2°C 26.4°F-3.1°C 73% 4.5 mph NNE7.2 kmh NNE 10.7 mph17.2 kmh 29.93 in1013.5 mb 0.00 in0.0 mm 0.00 in/hr0.0 mm/hr 0.00 in0.0 mm
05:41 PM 34.2°F1.2°C 26.4°F-3.1°C 73% 5.4 mph N8.7 kmh N 10.7 mph17.2 kmh 29.93 in1013.5 mb 0.00 in0.0 mm 0.00 in/hr0.0 mm/hr 0.00 in0.0 mm
05:42 PM 34.2°F1.2°C 26.4°F-3.1°C 73% 4.5 mph NNE7.2 kmh NNE 10.7 mph17.2 kmh 29.93 in1013.5 mb 0.00 in0.0 mm 0.00 in/hr0.0 mm/hr 0.00 in0.0 mm
05:43 PM 34.0°F1.1°C 26.3°F-3.2°C 73% 6.9 mph NE11.1 kmh NE 10.7 mph17.2 kmh 29.93 in1013.5 mb 0.00 in0.0 mm 0.00 in/hr0.0 mm/hr 0.00 in0.0 mm
05:44 PM 34.2°F1.2°C 26.4°F-3.1°C 73% 5.4 mph NE8.7 kmh NE 10.7 mph17.2 kmh 29.93 in1013.5 mb 0.00 in0.0 mm 0.00 in/hr0.0 mm/hr 0.00 in0.0 mm
05:45 PM 34.2°F1.2°C 26.4°F-3.1°C 73% 9.2 mph NE14.8 kmh NE 12.1 mph19.5 kmh 29.93 in1013.5 mb 0.00 in0.0 mm 0.00 in/hr0.0 mm/hr 0.00 in0.0 mm
05:46 PM 34.2°F1.2°C 26.4°F-3.1°C 73% 6.0 mph NE9.7 kmh NE 12.1 mph19.5 kmh 29.93 in1013.5 mb 0.00 in0.0 mm 0.00 in/hr0.0 mm/hr 0.00 in0.0 mm
05:47 PM 34.2°F1.2°C 26.4°F-3.1°C 73% 6.0 mph NE9.7 kmh NE 12.1 mph19.5 kmh 29.93 in1013.5 mb 0.00 in0.0 mm 0.00 in/hr0.0 mm/hr 0.00 in0.0 mm
05:48 PM 34.2°F1.2°C 26.4°F-3.1°C 73% 6.9 mph NE11.1 kmh NE 12.1 mph19.5 kmh 29.93 in1013.5 mb 0.00 in0.0 mm 0.00 in/hr0.0 mm/hr 0.00 in0.0 mm
05:49 PM 34.0°F1.1°C 26.3°F-3.2°C 73% 5.4 mph NE8.7 kmh NE 12.1 mph19.5 kmh 29.93 in1013.5 mb 0.00 in0.0 mm 0.00 in/hr0.0 mm/hr 0.00 in0.0 mm
05:50 PM 34.2°F1.2°C 26.4°F-3.1°C 73% 6.0 mph NE9.7 kmh NE 12.1 mph19.5 kmh 29.93 in1013.5 mb 0.00 in0.0 mm 0.00 in/hr0.0 mm/hr 0.00 in0.0 mm
05:51 PM 34.2°F1.2°C 26.4°F-3.1°C 73% 3.8 mph NE6.1 kmh NE 12.1 mph19.5 kmh 29.93 in1013.5 mb 0.00 in0.0 mm 0.00 in/hr0.0 mm/hr 0.00 in0.0 mm
05:52 PM 34.2°F1.2°C 26.4°F-3.1°C 73% 6.0 mph NE9.7 kmh NE 12.1 mph19.5 kmh 29.93 in1013.5 mb 0.00 in0.0 mm 0.00 in/hr0.0 mm/hr 0.00 in0.0 mm
05:53 PM 34.2°F1.2°C 26.4°F-3.1°C 73% 5.4 mph NE8.7 kmh NE 12.1 mph19.5 kmh 29.93 in1013.5 mb 0.00 in0.0 mm 0.00 in/hr0.0 mm/hr 0.00 in0.0 mm
05:54 PM 34.0°F1.1°C 26.3°F-3.2°C 73% 4.5 mph NE7.2 kmh NE 12.1 mph19.5 kmh 29.93 in1013.5 mb 0.00 in0.0 mm 0.00 in/hr0.0 mm/hr 0.00 in0.0 mm
05:55 PM 34.2°F1.2°C 26.4°F-3.1°C 73% 5.4 mph NNE8.7 kmh NNE 12.1 mph19.5 kmh 29.93 in1013.5 mb 0.00 in0.0 mm 0.00 in/hr0.0 mm/hr 0.00 in0.0 mm
05:56 PM 34.2°F1.2°C 26.4°F-3.1°C 73% 6.9 mph NNE11.1 kmh NNE 11.4 mph18.3 kmh 29.93 in1013.5 mb 0.00 in0.0 mm 0.00 in/hr0.0 mm/hr 0.00 in0.0 mm
05:57 PM 34.2°F1.2°C 26.4°F-3.1°C 73% 5.4 mph N8.7 kmh N 11.4 mph18.3 kmh 29.93 in1013.5 mb 0.00 in0.0 mm 0.00 in/hr0.0 mm/hr 0.00 in0.0 mm
05:58 PM 34.2°F1.2°C 26.4°F-3.1°C 73% 3.8 mph N6.1 kmh N 11.4 mph18.3 kmh 29.93 in1013.5 mb 0.00 in0.0 mm 0.00 in/hr0.0 mm/hr 0.00 in0.0 mm
05:59 PM 34.2°F1.2°C 26.4°F-3.1°C 73% 5.4 mph N8.7 kmh N 11.4 mph18.3 kmh 29.93 in1013.5 mb 0.00 in0.0 mm 0.00 in/hr0.0 mm/hr 0.00 in0.0 mm
06:00 PM 34.2°F1.2°C 26.4°F-3.1°C 73% 6.9 mph N11.1 kmh N 13.6 mph21.9 kmh 29.94 in1013.9 mb 0.00 in0.0 mm 0.00 in/hr0.0 mm/hr 0.00 in0.0 mm
06:01 PM 34.2°F1.2°C 26.4°F-3.1°C 73% 6.9 mph NNE11.1 kmh NNE 13.6 mph21.9 kmh 29.93 in1013.5 mb 0.00 in0.0 mm 0.00 in/hr0.0 mm/hr 0.00 in0.0 mm
06:02 PM 34.2°F1.2°C 26.4°F-3.1°C 73% 6.9 mph NE11.1 kmh NE 13.6 mph21.9 kmh 29.93 in1013.5 mb 0.00 in0.0 mm 0.00 in/hr0.0 mm/hr 0.00 in0.0 mm
06:03 PM 34.2°F1.2°C 26.4°F-3.1°C 73% 6.9 mph NE11.1 kmh NE 13.6 mph21.9 kmh 29.93 in1013.5 mb 0.00 in0.0 mm 0.00 in/hr0.0 mm/hr 0.00 in0.0 mm
06:04 PM 34.2°F1.2°C 26.4°F-3.1°C 73% 4.5 mph NE7.2 kmh NE 13.6 mph21.9 kmh 29.93 in1013.5 mb 0.00 in0.0 mm 0.00 in/hr0.0 mm/hr 0.00 in0.0 mm
06:05 PM 34.2°F1.2°C 26.4°F-3.1°C 73% 3.8 mph NE6.1 kmh NE 13.6 mph21.9 kmh 29.93 in1013.5 mb 0.00 in0.0 mm 0.00 in/hr0.0 mm/hr 0.00 in0.0 mm
06:06 PM 34.2°F1.2°C 26.4°F-3.1°C 73% 4.5 mph NE7.2 kmh NE 13.6 mph21.9 kmh 29.93 in1013.5 mb 0.00 in0.0 mm 0.00 in/hr0.0 mm/hr 0.00 in0.0 mm
06:07 PM 34.2°F1.2°C 26.4°F-3.1°C 73% 5.4 mph NE8.7 kmh NE 13.6 mph21.9 kmh 29.93 in1013.5 mb 0.00 in0.0 mm 0.00 in/hr0.0 mm/hr 0.00 in0.0 mm
06:08 PM 34.2°F1.2°C 26.4°F-3.1°C 73% 4.5 mph NE7.2 kmh NE 13.6 mph21.9 kmh 29.93 in1013.5 mb 0.00 in0.0 mm 0.00 in/hr0.0 mm/hr 0.00 in0.0 mm
06:09 PM 34.2°F1.2°C 26.4°F-3.1°C 73% 3.1 mph NE5.0 kmh NE 13.6 mph21.9 kmh 29.93 in1013.5 mb 0.00 in0.0 mm 0.00 in/hr0.0 mm/hr 0.00 in0.0 mm
06:10 PM 34.2°F1.2°C 26.4°F-3.1°C 73% 4.5 mph NE7.2 kmh NE 13.6 mph21.9 kmh 29.93 in1013.5 mb 0.00 in0.0 mm 0.00 in/hr0.0 mm/hr 0.00 in0.0 mm
06:11 PM 34.2°F1.2°C 26.4°F-3.1°C 73% 6.9 mph NE11.1 kmh NE 13.6 mph21.9 kmh 29.93 in1013.5 mb 0.00 in0.0 mm 0.00 in/hr0.0 mm/hr 0.00 in0.0 mm
06:12 PM 34.2°F1.2°C 26.4°F-3.1°C 73% 3.8 mph NE6.1 kmh NE 13.6 mph21.9 kmh 29.93 in1013.5 mb 0.00 in0.0 mm 0.00 in/hr0.0 mm/hr 0.00 in0.0 mm
06:13 PM 34.2°F1.2°C 26.4°F-3.1°C 73% 3.1 mph NNE5.0 kmh NNE 9.8 mph15.8 kmh 29.93 in1013.5 mb 0.00 in0.0 mm 0.00 in/hr0.0 mm/hr 0.00 in0.0 mm
06:14 PM 34.2°F1.2°C 26.4°F-3.1°C 73% 2.2 mph NNE3.5 kmh NNE 9.8 mph15.8 kmh 29.93 in1013.5 mb 0.00 in0.0 mm 0.00 in/hr0.0 mm/hr 0.00 in0.0 mm
06:15 PM 34.0°F1.1°C 26.3°F-3.2°C 73% 3.8 mph NNE6.1 kmh NNE 9.8 mph15.8 kmh 29.94 in1013.9 mb 0.00 in0.0 mm 0.00 in/hr0.0 mm/hr 0.00 in0.0 mm
06:16 PM 34.2°F1.2°C 26.4°F-3.1°C 73% 3.8 mph NNE6.1 kmh NNE 9.8 mph15.8 kmh 29.94 in1013.9 mb 0.00 in0.0 mm 0.00 in/hr0.0 mm/hr 0.00 in0.0 mm
06:17 PM 34.2°F1.2°C 26.4°F-3.1°C 73% 5.4 mph NNE8.7 kmh NNE 9.2 mph14.8 kmh 29.94 in1013.9 mb 0.00 in0.0 mm 0.00 in/hr0.0 mm/hr 0.00 in0.0 mm
06:18 PM 34.2°F1.2°C 26.4°F-3.1°C 73% 3.1 mph N5.0 kmh N 9.2 mph14.8 kmh 29.94 in1013.9 mb 0.00 in0.0 mm 0.00 in/hr0.0 mm/hr 0.00 in0.0 mm
06:19 PM 34.2°F1.2°C 26.4°F-3.1°C 73% 3.1 mph N5.0 kmh N 9.2 mph14.8 kmh 29.94 in1013.9 mb 0.00 in0.0 mm 0.00 in/hr0.0 mm/hr 0.00 in0.0 mm
06:20 PM 34.2°F1.2°C 26.4°F-3.1°C 73% 3.1 mph N5.0 kmh N 9.2 mph14.8 kmh 29.94 in1013.9 mb 0.00 in0.0 mm 0.00 in/hr0.0 mm/hr 0.00 in0.0 mm
06:21 PM 34.2°F1.2°C 26.4°F-3.1°C 73% 2.2 mph N3.5 kmh N 8.3 mph13.4 kmh 29.94 in1013.9 mb 0.00 in0.0 mm 0.00 in/hr0.0 mm/hr 0.00 in0.0 mm
06:22 PM 34.2°F1.2°C 26.4°F-3.1°C 73% 3.1 mph N5.0 kmh N 8.3 mph13.4 kmh 29.94 in1013.9 mb 0.00 in0.0 mm 0.00 in/hr0.0 mm/hr 0.00 in0.0 mm
06:23 PM 34.2°F1.2°C 26.4°F-3.1°C 73% 3.8 mph N6.1 kmh N 8.3 mph13.4 kmh 29.94 in1013.9 mb 0.00 in0.0 mm 0.00 in/hr0.0 mm/hr 0.00 in0.0 mm
06:24 PM 34.2°F1.2°C 26.4°F-3.1°C 73% 6.0 mph N9.7 kmh N 9.2 mph14.8 kmh 29.94 in1013.9 mb 0.00 in0.0 mm 0.00 in/hr0.0 mm/hr 0.00 in0.0 mm
06:25 PM 34.3°F1.3°C 26.3°F-3.2°C 72% 2.2 mph N3.5 kmh N 9.2 mph14.8 kmh 29.94 in1013.9 mb 0.00 in0.0 mm 0.00 in/hr0.0 mm/hr 0.00 in0.0 mm
06:26 PM 34.2°F1.2°C 26.1°F-3.3°C 72% 3.1 mph N5.0 kmh N 9.2 mph14.8 kmh 29.94 in1013.9 mb 0.00 in0.0 mm 0.00 in/hr0.0 mm/hr 0.00 in0.0 mm
06:27 PM 34.2°F1.2°C 26.1°F-3.3°C 72% 4.5 mph N7.2 kmh N 9.2 mph14.8 kmh 29.94 in1013.9 mb 0.00 in0.0 mm 0.00 in/hr0.0 mm/hr 0.00 in0.0 mm
06:28 PM 34.2°F1.2°C 26.1°F-3.3°C 72% 3.8 mph N6.1 kmh N 9.2 mph14.8 kmh 29.94 in1013.9 mb 0.00 in0.0 mm 0.00 in/hr0.0 mm/hr 0.00 in0.0 mm
06:29 PM 34.2°F1.2°C 26.1°F-3.3°C 72% 4.5 mph N7.2 kmh N 9.2 mph14.8 kmh 29.94 in1013.9 mb 0.00 in0.0 mm 0.00 in/hr0.0 mm/hr 0.00 in0.0 mm
06:30 PM 34.3°F1.3°C 26.3°F-3.2°C 72% 4.5 mph N7.2 kmh N 9.2 mph14.8 kmh 29.94 in1013.9 mb 0.00 in0.0 mm 0.00 in/hr0.0 mm/hr 0.00 in0.0 mm
06:31 PM 34.3°F1.3°C 26.3°F-3.2°C 72% 6.0 mph N9.7 kmh N 9.2 mph14.8 kmh 29.94 in1013.9 mb 0.00 in0.0 mm 0.00 in/hr0.0 mm/hr 0.00 in0.0 mm
06:32 PM 34.3°F1.3°C 26.3°F-3.2°C 72% 6.9 mph N11.1 kmh N 12.1 mph19.5 kmh 29.94 in1013.9 mb 0.00 in0.0 mm 0.00 in/hr0.0 mm/hr 0.00 in0.0 mm
06:33 PM 34.3°F1.3°C 25.9°F-3.4°C 71% 5.4 mph N8.7 kmh N 12.1 mph19.5 kmh 29.94 in1013.9 mb 0.00 in0.0 mm 0.00 in/hr0.0 mm/hr 0.00 in0.0 mm
06:34 PM 34.3°F1.3°C 25.9°F-3.4°C 71% 3.8 mph N6.1 kmh N 12.1 mph19.5 kmh 29.94 in1013.9 mb 0.00 in0.0 mm 0.00 in/hr0.0 mm/hr 0.00 in0.0 mm
06:35 PM 34.5°F1.4°C 26.1°F-3.3°C 71% 3.8 mph N6.1 kmh N 12.1 mph19.5 kmh 29.94 in1013.9 mb 0.00 in0.0 mm 0.00 in/hr0.0 mm/hr 0.00 in0.0 mm
06:36 PM 34.3°F1.3°C 25.9°F-3.4°C 71% 6.0 mph N9.7 kmh N 12.1 mph19.5 kmh 29.94 in1013.9 mb 0.00 in0.0 mm 0.00 in/hr0.0 mm/hr 0.00 in0.0 mm
06:37 PM 34.5°F1.4°C 26.1°F-3.3°C 71% 3.8 mph N6.1 kmh N 12.1 mph19.5 kmh 29.94 in1013.9 mb 0.00 in0.0 mm 0.00 in/hr0.0 mm/hr 0.00 in0.0 mm
06:38 PM 34.5°F1.4°C 26.1°F-3.3°C 71% 4.5 mph N7.2 kmh N 12.1 mph19.5 kmh 29.94 in1013.9 mb 0.00 in0.0 mm 0.00 in/hr0.0 mm/hr 0.00 in0.0 mm
06:39 PM 34.5°F1.4°C 26.1°F-3.3°C 71% 4.5 mph NNW7.2 kmh NNW 12.1 mph19.5 kmh 29.94 in1013.9 mb 0.00 in0.0 mm 0.00 in/hr0.0 mm/hr 0.00 in0.0 mm
06:40 PM 34.5°F1.4°C 26.1°F-3.3°C 71% 3.8 mph NNW6.1 kmh NNW 12.1 mph19.5 kmh 29.94 in1013.9 mb 0.00 in0.0 mm 0.00 in/hr0.0 mm/hr 0.00 in0.0 mm
06:41 PM 34.5°F1.4°C 26.1°F-3.3°C 71% 2.2 mph NNW3.5 kmh NNW 12.1 mph19.5 kmh 29.95 in1014.2 mb 0.00 in0.0 mm 0.00 in/hr0.0 mm/hr 0.00 in0.0 mm
06:42 PM 34.5°F1.4°C 26.1°F-3.3°C 71% 3.8 mph NNW6.1 kmh NNW 9.8 mph15.8 kmh 29.94 in1013.9 mb 0.00 in0.0 mm 0.00 in/hr0.0 mm/hr 0.00 in0.0 mm
06:43 PM 34.5°F1.4°C 26.1°F-3.3°C 71% 5.4 mph NNW8.7 kmh NNW 9.2 mph14.8 kmh 29.94 in1013.9 mb 0.00 in0.0 mm 0.00 in/hr0.0 mm/hr 0.00 in0.0 mm
06:44 PM 34.5°F1.4°C 26.1°F-3.3°C 71% 3.8 mph NNW6.1 kmh NNW 9.2 mph14.8 kmh 29.94 in1013.9 mb 0.00 in0.0 mm 0.00 in/hr0.0 mm/hr 0.00 in0.0 mm
06:45 PM 34.5°F1.4°C 26.1°F-3.3°C 71% 2.2 mph N3.5 kmh N 9.2 mph14.8 kmh 29.95 in1014.2 mb 0.00 in0.0 mm 0.00 in/hr0.0 mm/hr 0.00 in0.0 mm
06:46 PM 34.5°F1.4°C 26.1°F-3.3°C 71% 2.2 mph N3.5 kmh N 9.2 mph14.8 kmh 29.95 in1014.2 mb 0.00 in0.0 mm 0.00 in/hr0.0 mm/hr 0.00 in0.0 mm
06:47 PM 34.5°F1.4°C 26.1°F-3.3°C 71% 2.2 mph N3.5 kmh N 9.2 mph14.8 kmh 29.95 in1014.2 mb 0.00 in0.0 mm 0.00 in/hr0.0 mm/hr 0.00 in0.0 mm
06:48 PM 34.5°F1.4°C 26.1°F-3.3°C 71% 3.8 mph N6.1 kmh N 9.2 mph14.8 kmh 29.95 in1014.2 mb 0.00 in0.0 mm 0.00 in/hr0.0 mm/hr 0.00 in0.0 mm
06:49 PM 34.5°F1.4°C 26.1°F-3.3°C 71% 3.1 mph N5.0 kmh N 9.2 mph14.8 kmh 29.94 in1013.9 mb 0.00 in0.0 mm 0.00 in/hr0.0 mm/hr 0.00 in0.0 mm
06:50 PM 34.5°F1.4°C 26.1°F-3.3°C 71% 6.9 mph N11.1 kmh N 11.4 mph18.3 kmh 29.94 in1013.9 mb 0.00 in0.0 mm 0.00 in/hr0.0 mm/hr 0.00 in0.0 mm
06:51 PM 34.7°F1.5°C 26.3°F-3.2°C 71% 3.8 mph N6.1 kmh N 11.4 mph18.3 kmh 29.94 in1013.9 mb 0.00 in0.0 mm 0.00 in/hr0.0 mm/hr 0.00 in0.0 mm
06:52 PM 34.7°F1.5°C 26.3°F-3.2°C 71% 3.1 mph N5.0 kmh N 11.4 mph18.3 kmh 29.94 in1013.9 mb 0.00 in0.0 mm 0.00 in/hr0.0 mm/hr 0.00 in0.0 mm
06:53 PM 34.7°F1.5°C 26.3°F-3.2°C 71% 4.5 mph NNE7.2 kmh NNE 11.4 mph18.3 kmh 29.94 in1013.9 mb 0.00 in0.0 mm 0.00 in/hr0.0 mm/hr 0.00 in0.0 mm
06:54 PM 34.7°F1.5°C 26.3°F-3.2°C 71% 4.5 mph N7.2 kmh N 11.4 mph18.3 kmh 29.94 in1013.9 mb 0.00 in0.0 mm 0.00 in/hr0.0 mm/hr 0.00 in0.0 mm
06:55 PM 34.7°F1.5°C 26.3°F-3.2°C 71% 6.0 mph N9.7 kmh N 11.4 mph18.3 kmh 29.94 in1013.9 mb 0.00 in0.0 mm 0.00 in/hr0.0 mm/hr 0.00 in0.0 mm
06:56 PM 34.7°F1.5°C 26.3°F-3.2°C 71% 5.4 mph NNE8.7 kmh NNE 11.4 mph18.3 kmh 29.94 in1013.9 mb 0.00 in0.0 mm 0.00 in/hr0.0 mm/hr 0.00 in0.0 mm
06:57 PM 34.7°F1.5°C 25.9°F-3.4°C 70% 7.6 mph NNE12.2 kmh NNE 12.1 mph19.5 kmh 29.94 in1013.9 mb 0.00 in0.0 mm 0.00 in/hr0.0 mm/hr 0.00 in0.0 mm
06:58 PM 34.7°F1.5°C 25.9°F-3.4°C 70% 4.5 mph NNE7.2 kmh NNE 12.1 mph19.5 kmh 29.94 in1013.9 mb 0.00 in0.0 mm 0.00 in/hr0.0 mm/hr 0.00 in0.0 mm
06:59 PM 34.7°F1.5°C 25.9°F-3.4°C 70% 3.8 mph NE6.1 kmh NE 12.1 mph19.5 kmh 29.94 in1013.9 mb 0.00 in0.0 mm 0.00 in/hr0.0 mm/hr 0.00 in0.0 mm
07:00 PM 34.7°F1.5°C 25.9°F-3.4°C 70% 2.2 mph NE3.5 kmh NE 12.1 mph19.5 kmh 29.94 in1013.9 mb 0.00 in0.0 mm 0.00 in/hr0.0 mm/hr 0.00 in0.0 mm
07:01 PM 34.7°F1.5°C 25.9°F-3.4°C 70% 6.9 mph NE11.1 kmh NE 12.1 mph19.5 kmh 29.94 in1013.9 mb 0.00 in0.0 mm 0.00 in/hr0.0 mm/hr 0.00 in0.0 mm
07:02 PM 34.7°F1.5°C 25.9°F-3.4°C 70% 3.1 mph NE5.0 kmh NE 12.1 mph19.5 kmh 29.95 in1014.2 mb 0.00 in0.0 mm 0.00 in/hr0.0 mm/hr 0.00 in0.0 mm
07:03 PM 34.7°F1.5°C 25.9°F-3.4°C 70% 4.5 mph NE7.2 kmh NE 12.1 mph19.5 kmh 29.94 in1013.9 mb 0.00 in0.0 mm 0.00 in/hr0.0 mm/hr 0.00 in0.0 mm
07:04 PM 34.7°F1.5°C 25.9°F-3.4°C 70% 3.1 mph NE5.0 kmh NE 12.1 mph19.5 kmh 29.94 in1013.9 mb 0.00 in0.0 mm 0.00 in/hr0.0 mm/hr 0.00 in0.0 mm
07:05 PM 34.7°F1.5°C 25.9°F-3.4°C 70% 3.8 mph NE6.1 kmh NE 12.1 mph19.5 kmh 29.94 in1013.9 mb 0.00 in0.0 mm 0.00 in/hr0.0 mm/hr 0.00 in0.0 mm
07:06 PM 34.7°F1.5°C 25.9°F-3.4°C 70% 3.8 mph NE6.1 kmh NE 12.1 mph19.5 kmh 29.94 in1013.9 mb 0.00 in0.0 mm 0.00 in/hr0.0 mm/hr 0.00 in0.0 mm
07:07 PM 34.7°F1.5°C 25.9°F-3.4°C 70% 4.5 mph NNE7.2 kmh NNE 10.7 mph17.2 kmh 29.94 in1013.9 mb 0.00 in0.0 mm 0.00 in/hr0.0 mm/hr 0.00 in0.0 mm
07:08 PM 34.5°F1.4°C 26.1°F-3.3°C 71% 6.0 mph NNE9.7 kmh NNE 10.7 mph17.2 kmh 29.94 in1013.9 mb 0.00 in0.0 mm 0.00 in/hr0.0 mm/hr 0.00 in0.0 mm
07:09 PM 34.7°F1.5°C 25.9°F-3.4°C 70% 7.6 mph NNE12.2 kmh NNE 10.7 mph17.2 kmh 29.94 in1013.9 mb 0.00 in0.0 mm 0.00 in/hr0.0 mm/hr 0.00 in0.0 mm
07:10 PM 34.7°F1.5°C 25.9°F-3.4°C 70% 3.8 mph NNE6.1 kmh NNE 10.7 mph17.2 kmh 29.94 in1013.9 mb 0.00 in0.0 mm 0.00 in/hr0.0 mm/hr 0.00 in0.0 mm
07:11 PM 34.7°F1.5°C 25.9°F-3.4°C 70% 5.4 mph N8.7 kmh N 11.4 mph18.3 kmh 29.94 in1013.9 mb 0.00 in0.0 mm 0.00 in/hr0.0 mm/hr 0.00 in0.0 mm
07:12 PM 34.7°F1.5°C 25.9°F-3.4°C 70% 4.5 mph N7.2 kmh N 11.4 mph18.3 kmh 29.94 in1013.9 mb 0.00 in0.0 mm 0.00 in/hr0.0 mm/hr 0.00 in0.0 mm
07:13 PM 34.7°F1.5°C 25.9°F-3.4°C 70% 3.8 mph NNE6.1 kmh NNE 11.4 mph18.3 kmh 29.94 in1013.9 mb 0.00 in0.0 mm 0.00 in/hr0.0 mm/hr 0.00 in0.0 mm
07:14 PM 34.7°F1.5°C 25.9°F-3.4°C 70% 2.2 mph NNE3.5 kmh NNE 11.4 mph18.3 kmh 29.94 in1013.9 mb 0.00 in0.0 mm 0.00 in/hr0.0 mm/hr 0.00 in0.0 mm
07:15 PM 34.7°F1.5°C 25.9°F-3.4°C 70% 3.1 mph N5.0 kmh N 11.4 mph18.3 kmh 29.94 in1013.9 mb 0.00 in0.0 mm 0.00 in/hr0.0 mm/hr 0.00 in0.0 mm
07:16 PM 34.7°F1.5°C 25.9°F-3.4°C 70% 3.1 mph N5.0 kmh N 11.4 mph18.3 kmh 29.94 in1013.9 mb 0.00 in0.0 mm 0.00 in/hr0.0 mm/hr 0.00 in0.0 mm
07:17 PM 34.5°F1.4°C 25.8°F-3.4°C 70% 3.8 mph N6.1 kmh N 11.4 mph18.3 kmh 29.94 in1013.9 mb 0.00 in0.0 mm 0.00 in/hr0.0 mm/hr 0.00 in0.0 mm
07:18 PM 34.7°F1.5°C 26.3°F-3.2°C 71% 2.2 mph NNE3.5 kmh NNE 11.4 mph18.3 kmh 29.94 in1013.9 mb 0.00 in0.0 mm 0.00 in/hr0.0 mm/hr 0.00 in0.0 mm
07:19 PM 34.7°F1.5°C 26.3°F-3.2°C 71% 4.5 mph NNE7.2 kmh NNE 11.4 mph18.3 kmh 29.94 in1013.9 mb 0.00 in0.0 mm 0.00 in/hr0.0 mm/hr 0.00 in0.0 mm
07:20 PM 34.7°F1.5°C 25.9°F-3.4°C 70% 3.1 mph NE5.0 kmh NE 11.4 mph18.3 kmh 29.94 in1013.9 mb 0.00 in0.0 mm 0.00 in/hr0.0 mm/hr 0.00 in0.0 mm
07:21 PM 34.5°F1.4°C 26.1°F-3.3°C 71% 6.0 mph NNE9.7 kmh NNE 9.8 mph15.8 kmh 29.95 in1014.2 mb 0.00 in0.0 mm 0.00 in/hr0.0 mm/hr 0.00 in0.0 mm
07:22 PM 34.7°F1.5°C 25.9°F-3.4°C 70% 5.4 mph NNE8.7 kmh NNE 9.8 mph15.8 kmh 29.94 in1013.9 mb 0.00 in0.0 mm 0.00 in/hr0.0 mm/hr 0.00 in0.0 mm
07:23 PM 34.7°F1.5°C 25.9°F-3.4°C 70% 6.0 mph N9.7 kmh N 9.8 mph15.8 kmh 29.94 in1013.9 mb 0.00 in0.0 mm 0.00 in/hr0.0 mm/hr 0.00 in0.0 mm
07:24 PM 34.7°F1.5°C 25.9°F-3.4°C 70% 4.5 mph N7.2 kmh N 9.8 mph15.8 kmh 29.94 in1013.9 mb 0.00 in0.0 mm 0.00 in/hr0.0 mm/hr 0.00 in0.0 mm
07:25 PM 34.7°F1.5°C 25.9°F-3.4°C 70% 7.6 mph N12.2 kmh N 9.8 mph15.8 kmh 29.95 in1014.2 mb 0.00 in0.0 mm 0.00 in/hr0.0 mm/hr 0.00 in0.0 mm
07:26 PM 34.7°F1.5°C 25.9°F-3.4°C 70% 4.5 mph N7.2 kmh N 9.8 mph15.8 kmh 29.94 in1013.9 mb 0.00 in0.0 mm 0.00 in/hr0.0 mm/hr 0.00 in0.0 mm
07:27 PM 34.7°F1.5°C 25.9°F-3.4°C 70% 3.8 mph N6.1 kmh N 9.8 mph15.8 kmh 29.95 in1014.2 mb 0.00 in0.0 mm 0.00 in/hr0.0 mm/hr 0.00 in0.0 mm
07:28 PM 34.7°F1.5°C 25.9°F-3.4°C 70% 2.2 mph N3.5 kmh N 9.8 mph15.8 kmh 29.95 in1014.2 mb 0.00 in0.0 mm 0.00 in/hr0.0 mm/hr 0.00 in0.0 mm
07:29 PM 34.7°F1.5°C 25.9°F-3.4°C 70% 2.2 mph N3.5 kmh N 9.8 mph15.8 kmh 29.95 in1014.2 mb 0.00 in0.0 mm 0.00 in/hr0.0 mm/hr 0.00 in0.0 mm
07:30 PM 34.7°F1.5°C 25.9°F-3.4°C 70% 3.8 mph N6.1 kmh N 9.8 mph15.8 kmh 29.95 in1014.2 mb 0.00 in0.0 mm 0.00 in/hr0.0 mm/hr 0.00 in0.0 mm
07:31 PM 34.7°F1.5°C 25.9°F-3.4°C 70% 2.2 mph N3.5 kmh N 9.8 mph15.8 kmh 29.95 in1014.2 mb 0.00 in0.0 mm 0.00 in/hr0.0 mm/hr 0.00 in0.0 mm
07:32 PM 34.7°F1.5°C 25.9°F-3.4°C 70% 3.8 mph N6.1 kmh N 9.8 mph15.8 kmh 29.95 in1014.2 mb 0.00 in0.0 mm 0.00 in/hr0.0 mm/hr 0.00 in0.0 mm
07:33 PM 34.7°F1.5°C 25.9°F-3.4°C 70% 3.8 mph N6.1 kmh N 9.8 mph15.8 kmh 29.95 in1014.2 mb 0.00 in0.0 mm 0.00 in/hr0.0 mm/hr 0.00 in0.0 mm
07:34 PM 34.7°F1.5°C 25.9°F-3.4°C 70%